Provisional Data: West Branch Pine Creek near Galeton, PA


Please select a monitoring station.
Please select start date.
Please select start date.

Toggle Unit: C/F Toggle Unit: C/F
Sample Time Temperature (C) Temperature (F) Specific Conductivity (mS/cm) pH   Turbidity (NTU+) DO (mg/L)
4/13/2022 12:00:00 AM 8.87 47.966 0.041 6.94 3 10.95
4/13/2022 12:15:00 AM 8.76 47.768 0.042 6.94 2.92 10.98
4/13/2022 12:30:00 AM 8.66 47.588 0.042 6.94 2.93 11.01
4/13/2022 12:45:00 AM 8.56 47.408 0.042 6.92 2.9 11.04
4/13/2022 1:00:00 AM 8.46 47.228 0.042 6.93 2.95 11.07
4/13/2022 1:15:00 AM 8.36 47.048 0.042 6.94 2.89 11.1
4/13/2022 1:30:00 AM 8.27 46.886 0.042 6.93 2.96 11.12
4/13/2022 1:45:00 AM 8.17 46.706 0.042 6.91 2.91 11.15
4/13/2022 2:00:00 AM 8.08 46.544 0.042 6.94 2.85 11.17
4/13/2022 2:15:00 AM 8 46.4 0.042 6.94 2.87 11.2
4/13/2022 2:30:00 AM 7.92 46.256 0.042 6.94 2.9 11.23
4/13/2022 2:45:00 AM 7.84 46.112 0.042 6.94 2.85 11.25
4/13/2022 3:00:00 AM 7.76 45.968 0.042 6.93 2.82 11.27
4/13/2022 3:15:00 AM 7.7 45.86 0.042 6.93 2.85 11.29
4/13/2022 3:30:00 AM 7.64 45.752 0.042 6.94 2.85 11.31
4/13/2022 3:45:00 AM 7.58 45.644 0.042 6.94 2.84 11.33
4/13/2022 4:00:00 AM 7.53 45.554 0.042 6.93 2.81 11.35
4/13/2022 4:15:00 AM 7.49 45.482 0.042 6.94 2.75 11.36
4/13/2022 4:30:00 AM 7.46 45.428 0.042 6.94 2.83 11.37
4/13/2022 4:45:00 AM 7.44 45.392 0.042 6.93 2.77 11.38
4/13/2022 5:00:00 AM 7.41 45.338 0.042 6.93 2.83 11.38
4/13/2022 5:15:00 AM 7.39 45.302 0.042 6.94 2.75 11.39
4/13/2022 5:30:00 AM 7.37 45.266 0.042 6.93 2.73 11.4
4/13/2022 5:45:00 AM 7.35 45.23 0.042 6.94 2.89 11.41
4/13/2022 6:00:00 AM 7.33 45.194 0.042 6.94 2.9 11.41
4/13/2022 6:15:00 AM 7.31 45.158 0.042 6.93 2.84 11.42
4/13/2022 6:30:00 AM 7.3 45.14 0.042 6.95 2.86 11.42
4/13/2022 6:45:00 AM 7.29 45.122 0.042 6.94 2.85 11.43
4/13/2022 7:00:00 AM 7.27 45.086 0.042 6.96 2.73 11.45
4/13/2022 7:15:00 AM 7.27 45.086 0.042 6.94 2.8 11.49
4/13/2022 7:30:00 AM 7.26 45.068 0.042 6.97 2.77 11.53
4/13/2022 7:45:00 AM 7.26 45.068 0.042 6.97 2.76 11.57
4/13/2022 8:00:00 AM 7.27 45.086 0.042 7.01 2.69 11.62
4/13/2022 8:15:00 AM 7.27 45.086 0.042 7.01 2.78 11.67
4/13/2022 8:30:00 AM 7.3 45.14 0.041 7.04 2.75 11.71
4/13/2022 8:45:00 AM 7.34 45.212 0.041 7.04 2.76 11.75
4/13/2022 9:00:00 AM 7.4 45.32 0.041 7.08 2.69 11.78
4/13/2022 9:15:00 AM 7.48 45.464 0.041 7.09 2.66 11.81
4/13/2022 9:30:00 AM 7.57 45.626 0.041 7.12 2.62 11.84
4/13/2022 9:45:00 AM 7.68 45.824 0.041 7.14 2.58 11.83
4/13/2022 10:00:00 AM 7.79 46.022 0.041 7.18 2.69 11.83
4/13/2022 10:15:00 AM 7.9 46.22 0.041 7.18 2.61 11.82
4/13/2022 10:30:00 AM 8.05 46.49 0.041 7.19 2.62 11.81
4/13/2022 10:45:00 AM 8.14 46.652 0.041 7.21 2.56 11.78
4/13/2022 11:00:00 AM 8.28 46.904 0.041 7.21 2.55 11.76
4/13/2022 11:15:00 AM 8.45 47.21 0.041 7.23 2.58 11.74
4/13/2022 11:30:00 AM 8.66 47.588 0.041 7.23 2.52 11.71
4/13/2022 11:45:00 AM 8.93 48.074 0.041 7.25 2.52 11.67
4/13/2022 12:00:00 PM 9.11 48.398 0.041 7.25 2.53 11.62
4/13/2022 12:15:00 PM 9.26 48.668 0.041 7.21 2.49 11.58
4/13/2022 12:30:00 PM 9.39 48.902 0.041 7.23 2.49 11.53
4/13/2022 12:45:00 PM 9.54 49.172 0.041 7.26 2.62 11.5
4/13/2022 1:00:00 PM 9.73 49.514 0.04 7.25 2.54 11.45
4/13/2022 1:15:00 PM 9.88 49.784 0.04 7.25 2.54 11.41
4/13/2022 1:30:00 PM 10.01 50.018 0.04 7.26 2.53 11.36
4/13/2022 1:45:00 PM 10.16 50.288 0.04 7.27 2.55 11.33
4/13/2022 2:00:00 PM 10.32 50.576 0.04 7.27 2.56 11.28
4/13/2022 2:15:00 PM 10.43 50.774 0.04 7.27 2.52 11.23
4/13/2022 2:30:00 PM 10.55 50.99 0.04 7.25 2.6 11.19
4/13/2022 2:45:00 PM 10.7 51.26 0.04 7.27 2.55 11.15
4/13/2022 3:00:00 PM 10.81 51.458 0.039 7.27 3.99 11.1
4/13/2022 3:15:00 PM 10.88 51.584 0.04 7.26 2.58 11.05
4/13/2022 3:30:00 PM 11 51.8 0.04 7.25 2.72 11.02
4/13/2022 3:45:00 PM 11.1 51.98 0.04 7.27 2.54 11
4/13/2022 4:00:00 PM 11.21 52.178 0.04 7.27 2.62 10.96
4/13/2022 4:15:00 PM 11.26 52.268 0.04 7.25 2.59 10.92
4/13/2022 4:30:00 PM 11.31 52.358 0.039 7.25 4.23 10.9
4/13/2022 4:45:00 PM 11.35 52.43 0.04 7.23 2.64 10.88
4/13/2022 5:00:00 PM 11.4 52.52 0.04 7.24 2.6 10.86
4/13/2022 5:15:00 PM 11.45 52.61 0.04 7.25 2.72 10.85
4/13/2022 5:30:00 PM 11.47 52.646 0.039 7.23 4.42 10.82
4/13/2022 5:45:00 PM 11.48 52.664 0.04 7.18 2.75 10.76
4/13/2022 6:00:00 PM 11.46 52.628 0.04 7.19 2.67 10.7
4/13/2022 6:15:00 PM 11.44 52.592 0.04 7.16 2.66 10.66
4/13/2022 6:30:00 PM 11.42 52.556 0.04 7.13 2.72 10.62
4/13/2022 6:45:00 PM 11.4 52.52 0.04 7.14 2.65 10.59
4/13/2022 7:00:00 PM 11.37 52.466 0.04 7.13 2.76 10.57
4/13/2022 7:15:00 PM 11.32 52.376 0.04 7.1 4.28 10.54
4/13/2022 7:30:00 PM 11.26 52.268 0.038 7.09 4.37 10.51
4/13/2022 7:45:00 PM 11.2 52.16 0.041 7.08 2.72 10.48
4/13/2022 8:00:00 PM 11.13 52.034 0.041 7.07 2.8 10.45
4/13/2022 8:15:00 PM 11.07 51.926 0.041 7.02 2.71 10.42
4/13/2022 8:30:00 PM 11 51.8 0.041 6.99 2.97 10.4
4/13/2022 8:45:00 PM 10.93 51.674 0.041 6.97 2.75 10.39
4/13/2022 9:00:00 PM 10.87 51.566 0.041 6.98 2.88 10.39
4/13/2022 9:15:00 PM 10.8 51.44 0.041 6.97 2.78 10.39
4/13/2022 9:30:00 PM 10.74 51.332 0.041 6.94 2.95 10.4
4/13/2022 9:45:00 PM 10.69 51.242 0.041 6.96 2.86 10.41
4/13/2022 10:00:00 PM 10.63 51.134 0.041 6.95 2.9 10.42
4/13/2022 10:15:00 PM 10.57 51.026 0.041 6.95 2.9 10.43
4/13/2022 10:30:00 PM 10.5 50.9 0.042 6.95 2.87 10.45
4/13/2022 10:45:00 PM 10.43 50.774 0.041 6.92 4.43 10.46
4/13/2022 11:00:00 PM 10.36 50.648 0.039 6.92 4.36 10.47
4/13/2022 11:15:00 PM 10.29 50.522 0.039 6.91 4.54 10.48
4/13/2022 11:30:00 PM 10.21 50.378 0.042 6.91 2.9 10.5
4/13/2022 11:45:00 PM 10.14 50.252 0.042 6.89 2.91 10.52
4/14/2022 12:00:00 AM 10.07 50.126 0.042 6.9 2.95 10.53
4/14/2022 12:15:00 AM 10 50 0.042 6.88 2.92 10.54
4/14/2022 12:30:00 AM 9.93 49.874 0.042 6.89 3 10.56
4/14/2022 12:45:00 AM 9.87 49.766 0.042 6.89 2.97 10.57
4/14/2022 1:00:00 AM 9.8 49.64 0.042 6.89 3.03 10.59
4/14/2022 1:15:00 AM 9.74 49.532 0.042 6.87 2.97 10.61
4/14/2022 1:30:00 AM 9.67 49.406 0.042 6.89 2.92 10.63
4/14/2022 1:45:00 AM 9.61 49.298 0.042 6.91 2.91 10.64
4/14/2022 2:00:00 AM 9.53 49.154 0.042 6.91 2.9 10.66
4/14/2022 2:15:00 AM 9.46 49.028 0.042 6.9 2.9 10.68
4/14/2022 2:30:00 AM 9.39 48.902 0.042 6.9 2.85 10.7
4/14/2022 2:45:00 AM 9.33 48.794 0.042 6.91 2.84 10.72
4/14/2022 3:00:00 AM 9.26 48.668 0.042 6.9 2.95 10.74
4/14/2022 3:15:00 AM 9.2 48.56 0.042 6.9 2.83 10.76
4/14/2022 3:30:00 AM 9.13 48.434 0.042 6.91 2.92 10.77
4/14/2022 3:45:00 AM 9.08 48.344 0.042 6.9 2.84 10.78
4/14/2022 4:00:00 AM 9.02 48.236 0.041 6.89 4.47 10.8
4/14/2022 4:15:00 AM 8.96 48.128 0.042 6.91 2.87 10.81
4/14/2022 4:30:00 AM 8.9 48.02 0.042 6.91 2.89 10.83
4/14/2022 4:45:00 AM 8.85 47.93 0.042 6.91 2.9 10.84
4/14/2022 5:00:00 AM 8.79 47.822 0.042 6.9 2.88 10.86
4/14/2022 5:15:00 AM 8.74 47.732 0.042 6.92 2.89 10.87
4/14/2022 5:30:00 AM 8.69 47.642 0.042 6.92 2.83 10.88
4/14/2022 5:45:00 AM 8.64 47.552 0.042 6.9 3 10.89
4/14/2022 6:00:00 AM 8.59 47.462 0.042 6.91 2.89 10.9
4/14/2022 6:15:00 AM 8.55 47.39 0.042 6.91 2.86 10.91
4/14/2022 6:30:00 AM 8.51 47.318 0.042 6.91 2.77 10.93
4/14/2022 6:45:00 AM 8.47 47.246 0.042 6.92 2.82 10.95
4/14/2022 7:00:00 AM 8.43 47.174 0.042 6.92 2.83 10.97
4/14/2022 7:15:00 AM 8.4 47.12 0.042 6.92 2.87 11.01
4/14/2022 7:30:00 AM 8.37 47.066 0.042 6.94 2.8 11.06
4/14/2022 7:45:00 AM 8.36 47.048 0.042 6.95 2.74 11.11
4/14/2022 8:00:00 AM 8.36 47.048 0.042 6.95 2.78 11.15
4/14/2022 8:15:00 AM 8.39 47.102 0.042 7 2.76 11.22
4/14/2022 8:30:00 AM 8.44 47.192 0.042 7.02 2.7 11.27
4/14/2022 8:45:00 AM 8.53 47.354 0.042 7.07 2.78 11.32
4/14/2022 9:00:00 AM 8.6 47.48 0.042 7.08 2.7 11.33
4/14/2022 9:15:00 AM 8.7 47.66 0.041 7.11 2.65 11.34
4/14/2022 9:30:00 AM 8.83 47.894 0.041 7.14 2.72 11.37
4/14/2022 9:45:00 AM 8.99 48.182 0.041 7.16 2.69 11.36
4/14/2022 10:00:00 AM 9.16 48.488 0.041 7.19 2.69 11.36
4/14/2022 10:15:00 AM 9.31 48.758 0.041 7.2 2.85 11.36
4/14/2022 10:30:00 AM 9.43 48.974 0.041 7.22 2.64 11.33
4/14/2022 10:45:00 AM 9.57 49.226 0.041 7.22 2.7 11.31
4/14/2022 11:00:00 AM 9.75 49.55 0.041 7.22 2.65 11.29
4/14/2022 11:15:00 AM 9.84 49.712 0.041 7.23 2.68 11.27
4/14/2022 11:30:00 AM 9.96 49.928 0.041 7.23 2.63 11.23
4/14/2022 11:45:00 AM 10.04 50.072 0.041 7.22 2.57 11.2
4/14/2022 12:00:00 PM 10.14 50.252 0.041 7.25 2.6 11.18
4/14/2022 12:15:00 PM 10.22 50.396 0.041 7.24 2.59 11.13
4/14/2022 12:30:00 PM 10.24 50.432 0.041 7.22 2.65 11.09
4/14/2022 12:45:00 PM 10.26 50.468 0.041 7.2 2.56 11.07
4/14/2022 1:00:00 PM 10.29 50.522 0.039 7.19 4.16 11.08
4/14/2022 1:15:00 PM 10.29 50.522 0.038 7.18 4.15 11.07
4/14/2022 1:30:00 PM 10.31 50.558 0.038 7.2 4.3 11.07
4/14/2022 1:45:00 PM 10.32 50.576 0.04 7.2 2.59 11.08
4/14/2022 2:00:00 PM 10.34 50.612 0.04 7.23 2.61 11.09
4/14/2022 2:15:00 PM 10.36 50.648 0.04 7.22 2.65 11.1
4/14/2022 2:30:00 PM 10.36 50.648 0.04 7.24 2.65 11.09
4/14/2022 2:45:00 PM 10.37 50.666 0.039 7.23 4.26 11.1
4/14/2022 3:00:00 PM 10.4 50.72 0.04 7.25 2.62 11.1
4/14/2022 3:15:00 PM 10.4 50.72 0.04 7.25 2.7 11.12
4/14/2022 3:30:00 PM 10.41 50.738 0.04 7.25 2.68 11.12
4/14/2022 3:45:00 PM 10.42 50.756 0.04 7.27 2.6 11.12
4/14/2022 4:00:00 PM 10.4 50.72 0.04 7.25 2.73 11.1
4/14/2022 4:15:00 PM 10.39 50.702 0.039 7.24 4.23 11.1
4/14/2022 4:30:00 PM 10.45 50.81 0.04 7.27 2.73 11.11
4/14/2022 4:45:00 PM 10.52 50.936 0.04 7.26 2.75 11.12
4/14/2022 5:00:00 PM 10.57 51.026 0.04 7.26 2.7 11.09
4/14/2022 5:15:00 PM 10.6 51.08 0.04 7.25 2.73 11.07
4/14/2022 5:30:00 PM 10.63 51.134 0.04 7.25 2.78 11.05
4/14/2022 5:45:00 PM 10.6 51.08 0.04 7.24 2.76 11.03
4/14/2022 6:00:00 PM 10.58 51.044 0.039 7.22 4.36 11.01
4/14/2022 6:15:00 PM 10.55 50.99 0.038 7.19 4.26 10.98
4/14/2022 6:30:00 PM 10.51 50.918 0.04 7.18 2.71 10.95
4/14/2022 6:45:00 PM 10.45 50.81 0.04 7.17 2.69 10.93
4/14/2022 7:00:00 PM 10.39 50.702 0.04 7.14 2.74 10.9
4/14/2022 7:15:00 PM 10.31 50.558 0.04 7.12 2.8 10.86
4/14/2022 7:30:00 PM 10.21 50.378 0.039 7.1 4.35 10.83
4/14/2022 7:45:00 PM 10.11 50.198 0.04 7.08 2.71 10.8
4/14/2022 8:00:00 PM 9.98 49.964 0.041 7.06 2.78 10.77
4/14/2022 8:15:00 PM 9.86 49.748 0.039 7.02 4.42 10.76
4/14/2022 8:30:00 PM 9.73 49.514 0.041 7.01 2.85 10.76
4/14/2022 8:45:00 PM 9.61 49.298 0.041 6.99 2.8 10.77
4/14/2022 9:00:00 PM 9.48 49.064 0.041 6.99 2.79 10.78
4/14/2022 9:15:00 PM 9.37 48.866 0.041 6.99 2.94 10.8
4/14/2022 9:30:00 PM 9.25 48.65 0.041 6.98 2.92 10.82
4/14/2022 9:45:00 PM 9.13 48.434 0.041 6.98 2.78 10.85
4/14/2022 10:00:00 PM 9.01 48.218 0.041 6.96 2.88 10.88
4/14/2022 10:15:00 PM 8.89 48.002 0.041 6.96 3.01 10.91
4/14/2022 10:30:00 PM 8.77 47.786 0.041 6.96 2.8 10.93
4/14/2022 10:45:00 PM 8.66 47.588 0.041 6.97 2.94 10.96
4/14/2022 11:00:00 PM 8.55 47.39 0.041 6.96 2.95 10.99
4/14/2022 11:15:00 PM 8.43 47.174 0.042 6.94 2.93 11.03
4/14/2022 11:30:00 PM 8.32 46.976 0.042 6.94 2.77 11.06
4/14/2022 11:45:00 PM 8.2 46.76 0.042 6.95 2.87 11.09
4/15/2022 12:00:00 AM 8.1 46.58 0.042 6.95 2.82 11.12
4/15/2022 12:15:00 AM 7.99 46.382 0.042 6.96 2.79 11.16
4/15/2022 12:30:00 AM 7.88 46.184 0.042 6.96 2.8 11.19
4/15/2022 12:45:00 AM 7.78 46.004 0.042 6.95 2.75 11.22
4/15/2022 1:00:00 AM 7.68 45.824 0.042 6.95 2.81 11.25
4/15/2022 1:15:00 AM 7.58 45.644 0.042 6.96 2.76 11.28
4/15/2022 1:30:00 AM 7.48 45.464 0.042 6.96 2.76 11.31
4/15/2022 1:45:00 AM 7.39 45.302 0.042 6.96 2.73 11.34
4/15/2022 2:00:00 AM 7.3 45.14 0.042 6.96 2.73 11.37
4/15/2022 2:15:00 AM 7.21 44.978 0.042 6.95 2.72 11.39
4/15/2022 2:30:00 AM 7.13 44.834 0.042 6.96 2.71 11.42
4/15/2022 2:45:00 AM 7.04 44.672 0.042 6.95 2.81 11.44
4/15/2022 3:00:00 AM 6.96 44.528 0.042 6.96 2.69 11.47
4/15/2022 3:15:00 AM 6.88 44.384 0.042 6.95 2.73 11.49
4/15/2022 3:30:00 AM 6.8 44.24 0.042 6.96 2.75 11.52
4/15/2022 3:45:00 AM 6.73 44.114 0.042 6.95 2.74 11.55
4/15/2022 4:00:00 AM 6.66 43.988 0.042 6.96 2.69 11.57
4/15/2022 4:15:00 AM 6.58 43.844 0.042 6.95 2.78 11.6
4/15/2022 4:30:00 AM 6.52 43.736 0.042 6.96 2.75 11.62
4/15/2022 4:45:00 AM 6.45 43.61 0.042 6.96 2.75 11.64
4/15/2022 5:00:00 AM 6.38 43.484 0.042 6.95 2.76 11.66
4/15/2022 5:15:00 AM 6.32 43.376 0.042 6.95 2.67 11.69
4/15/2022 5:30:00 AM 6.26 43.268 0.042 6.97 2.71 11.7
4/15/2022 5:45:00 AM 6.2 43.16 0.042 6.96 2.73 11.72
4/15/2022 6:00:00 AM 6.14 43.052 0.042 6.96 2.67 11.74
4/15/2022 6:15:00 AM 6.08 42.944 0.042 6.95 2.63 11.75
4/15/2022 6:30:00 AM 6.02 42.836 0.042 6.96 2.69 11.77
4/15/2022 6:45:00 AM 5.97 42.746 0.042 6.96 2.67 11.8
4/15/2022 7:00:00 AM 5.92 42.656 0.042 6.96 2.64 11.84
4/15/2022 7:15:00 AM 5.88 42.584 0.042 6.98 2.65 11.89
4/15/2022 7:30:00 AM 5.85 42.53 0.042 6.99 2.63 11.94
4/15/2022 7:45:00 AM 5.82 42.476 0.042 7 2.58 11.99
4/15/2022 8:00:00 AM 5.81 42.458 0.042 7.02 2.63 12.05
4/15/2022 8:15:00 AM 5.81 42.458 0.042 7.03 2.57 12.1
4/15/2022 8:30:00 AM 5.82 42.476 0.042 7.06 2.53 12.14
4/15/2022 8:45:00 AM 5.85 42.53 0.042 7.07 2.55 12.18
4/15/2022 9:00:00 AM 5.9 42.62 0.042 7.09 2.54 12.21
4/15/2022 9:15:00 AM 5.97 42.746 0.041 7.11 2.57 12.24
4/15/2022 9:30:00 AM 6.08 42.944 0.041 7.12 2.49 12.25
4/15/2022 9:45:00 AM 6.2 43.16 0.041 7.14 2.52 12.26
4/15/2022 10:00:00 AM 6.33 43.394 0.041 7.16 2.54 12.26
4/15/2022 10:15:00 AM 6.49 43.682 0.041 7.17 2.44 12.24
4/15/2022 10:30:00 AM 6.66 43.988 0.041 7.18 2.45 12.22
4/15/2022 10:45:00 AM 6.85 44.33 0.041 7.2 2.49 12.19
4/15/2022 11:00:00 AM 7.04 44.672 0.041 7.2 2.4 12.15
4/15/2022 11:15:00 AM 7.25 45.05 0.041 7.21 2.34 12.11
4/15/2022 11:30:00 AM 7.47 45.446 0.041 7.23 2.4 12.06
4/15/2022 11:45:00 AM 7.7 45.86 0.041 7.23 2.43 12.02
4/15/2022 12:00:00 PM 7.95 46.31 0.041 7.24 2.45 11.96
4/15/2022 12:15:00 PM 8.2 46.76 0.041 7.26 2.4 11.9
4/15/2022 12:30:00 PM 8.32 46.976 0.041 7.25 2.52 11.84
4/15/2022 12:45:00 PM 8.51 47.318 0.041 7.26 2.49 11.79
4/15/2022 1:00:00 PM 8.58 47.444 0.041 7.28 2.52 11.75
4/15/2022 1:15:00 PM 8.7 47.66 0.041 7.32 2.45 11.71
4/15/2022 1:30:00 PM 8.83 47.894 0.04 7.31 2.42 11.67
4/15/2022 1:45:00 PM 9.04 48.272 0.04 7.33 2.45 11.64
4/15/2022 2:00:00 PM 9.28 48.704 0.04 7.33 2.37 11.59
4/15/2022 2:15:00 PM 9.52 49.136 0.04 7.34 2.52 11.54
4/15/2022 2:30:00 PM 9.7 49.46 0.04 7.33 2.46 11.49
4/15/2022 2:45:00 PM 9.84 49.712 0.04 7.3 2.5 11.43
4/15/2022 3:00:00 PM 9.92 49.856 0.04 7.3 2.5 11.38
4/15/2022 3:15:00 PM 9.99 49.982 0.039 7.29 3.98 11.34
4/15/2022 3:30:00 PM 10.07 50.126 0.04 7.31 2.56 11.31
4/15/2022 3:45:00 PM 10.07 50.126 0.04 7.3 2.47 11.27
4/15/2022 4:00:00 PM 10.07 50.126 0.04 7.27 2.52 11.22
4/15/2022 4:15:00 PM 10.04 50.072 0.04 7.25 2.57 11.15
4/15/2022 4:30:00 PM 10.14 50.252 0.04 7.28 2.52 11.16
4/15/2022 4:45:00 PM 10.23 50.414 0.039 7.27 4.24 11.17
4/15/2022 5:00:00 PM 10.31 50.558 0.04 7.3 2.6 11.16
4/15/2022 5:15:00 PM 10.35 50.63 0.04 7.28 2.64 11.12
4/15/2022 5:30:00 PM 10.37 50.666 0.04 7.28 2.65 11.11
4/15/2022 5:45:00 PM 10.36 50.648 0.04 7.28 2.62 11.09
4/15/2022 6:00:00 PM 10.33 50.594 0.04 7.27 2.64 11.07
4/15/2022 6:15:00 PM 10.28 50.504 0.04 7.27 2.67 11.04
4/15/2022 6:30:00 PM 10.25 50.45 0.04 7.24 2.74 11.02
4/15/2022 6:45:00 PM 10.19 50.342 0.04 7.21 2.63 10.98
4/15/2022 7:00:00 PM 10.16 50.288 0.04 7.17 4.27 10.94
4/15/2022 7:15:00 PM 10.1 50.18 0.041 7.16 2.79 10.9
4/15/2022 7:30:00 PM 10.05 50.09 0.041 7.14 2.66 10.86
4/15/2022 7:45:00 PM 9.97 49.946 0.041 7.1 2.77 10.82
4/15/2022 8:00:00 PM 9.89 49.802 0.041 7.07 2.84 10.79
4/15/2022 8:15:00 PM 9.82 49.676 0.039 7.02 4.48 10.77
4/15/2022 8:30:00 PM 9.75 49.55 0.041 7.02 2.73 10.75
4/15/2022 8:45:00 PM 9.68 49.424 0.041 7.02 2.81 10.75
4/15/2022 9:00:00 PM 9.61 49.298 0.041 7.01 2.74 10.75
4/15/2022 9:15:00 PM 9.54 49.172 0.041 7.01 2.82 10.75
4/15/2022 9:30:00 PM 9.46 49.028 0.041 7 2.86 10.76
4/15/2022 9:45:00 PM 9.39 48.902 0.041 7 2.81 10.77
4/15/2022 10:00:00 PM 9.31 48.758 0.041 7 2.89 10.79
4/15/2022 10:15:00 PM 9.24 48.632 0.041 6.99 3.05 10.8
4/15/2022 10:30:00 PM 9.18 48.524 0.041 6.99 2.8 10.82
4/15/2022 10:45:00 PM 9.12 48.416 0.042 6.98 2.74 10.83
4/15/2022 11:00:00 PM 9.06 48.308 0.042 6.99 2.85 10.85
4/15/2022 11:15:00 PM 9 48.2 0.042 6.98 3.09 10.86
4/15/2022 11:30:00 PM 8.94 48.092 0.042 6.98 2.78 10.88
4/15/2022 11:45:00 PM 8.89 48.002 0.042 6.99 2.83 10.89
4/16/2022 12:00:00 AM 8.84 47.912 0.042 6.99 2.8 10.9
4/16/2022 12:15:00 AM 8.79 47.822 0.042 6.98 2.78 10.92
4/16/2022 12:30:00 AM 8.74 47.732 0.042 6.98 2.78 10.93
4/16/2022 12:45:00 AM 8.69 47.642 0.042 6.99 2.83 10.94
4/16/2022 1:00:00 AM 8.64 47.552 0.042 6.99 2.73 10.96
4/16/2022 1:15:00 AM 8.59 47.462 0.042 6.98 2.81 10.97
4/16/2022 1:30:00 AM 8.54 47.372 0.042 6.96 2.81 10.99
4/16/2022 1:45:00 AM 8.49 47.282 0.042 6.98 2.74 11
4/16/2022 2:00:00 AM 8.44 47.192 0.042 6.98 2.69 11.02
4/16/2022 2:15:00 AM 8.4 47.12 0.042 6.98 2.82 11.03
4/16/2022 2:30:00 AM 8.36 47.048 0.042 6.98 2.75 11.04
4/16/2022 2:45:00 AM 8.33 46.994 0.042 6.98 2.77 11.05
4/16/2022 3:00:00 AM 8.3 46.94 0.042 6.98 2.83 11.06
4/16/2022 3:15:00 AM 8.27 46.886 0.042 6.98 2.77 11.07
4/16/2022 3:30:00 AM 8.24 46.832 0.042 6.97 2.83 11.08
4/16/2022 3:45:00 AM 8.21 46.778 0.042 6.97 2.73 11.09
4/16/2022 4:00:00 AM 8.18 46.724 0.042 6.98 2.68 11.1
4/16/2022 4:15:00 AM 8.15 46.67 0.042 6.97 2.75 11.11
4/16/2022 4:30:00 AM 8.13 46.634 0.042 6.98 2.71 11.12
4/16/2022 4:45:00 AM 8.09 46.562 0.042 6.97 2.81 11.12
4/16/2022 5:00:00 AM 8.07 46.526 0.042 6.98 2.8 11.13
4/16/2022 5:15:00 AM 8.04 46.472 0.042 6.99 2.73 11.14
4/16/2022 5:30:00 AM 8.01 46.418 0.042 6.99 2.72 11.15
4/16/2022 5:45:00 AM 7.99 46.382 0.042 6.98 2.68 11.16
4/16/2022 6:00:00 AM 7.97 46.346 0.042 6.98 2.68 11.17
4/16/2022 6:15:00 AM 7.95 46.31 0.042 6.98 2.7 11.18
4/16/2022 6:30:00 AM 7.93 46.274 0.042 6.97 2.67 11.18
4/16/2022 6:45:00 AM 7.92 46.256 0.042 6.99 3.74 11.2
4/16/2022 7:00:00 AM 7.91 46.238 0.042 6.99 2.9 11.21
4/16/2022 7:15:00 AM 7.9 46.22 0.042 6.99 2.75 11.23
4/16/2022 7:30:00 AM 7.9 46.22 0.042 7 2.78 11.27
4/16/2022 7:45:00 AM 7.9 46.22 0.042 7.02 4.59 11.31
4/16/2022 8:00:00 AM 7.91 46.238 0.042 7.04 2.85 11.36
4/16/2022 8:15:00 AM 7.93 46.274 0.042 7.05 3.72 11.42
4/16/2022 8:30:00 AM 7.95 46.31 0.042 7.07 3.1 11.47
4/16/2022 8:45:00 AM 7.98 46.364 0.042 7.1 2.81 11.5
4/16/2022 9:00:00 AM 8.02 46.436 0.042 7.12 3.54 11.55
4/16/2022 9:15:00 AM 8.07 46.526 0.042 7.15 2.72 11.59
4/16/2022 9:30:00 AM 8.11 46.598 0.041 7.17 3.07 11.61
4/16/2022 9:45:00 AM 8.17 46.706 0.041 7.19 3.05 11.63
4/16/2022 10:00:00 AM 8.21 46.778 0.041 7.2 2.63 11.63
4/16/2022 10:15:00 AM 8.28 46.904 0.041 7.21 2.65 11.64
4/16/2022 10:30:00 AM 8.3 46.94 0.041 7.2 2.54 11.6
4/16/2022 10:45:00 AM 8.31 46.958 0.041 7.2 2.52 11.56
4/16/2022 11:00:00 AM 8.32 46.976 0.041 7.18 2.59 11.51
4/16/2022 11:15:00 AM 8.32 46.976 0.041 7.16 2.57 11.47
4/16/2022 11:30:00 AM 8.32 46.976 0.041 7.15 2.64 11.44
4/16/2022 11:45:00 AM 8.34 47.012 0.041 7.18 2.65 11.47
4/16/2022 12:00:00 PM 8.34 47.012 0.041 7.18 2.72 11.48
4/16/2022 12:15:00 PM 8.34 47.012 0.041 7.18 2.63 11.5
4/16/2022 12:30:00 PM 8.32 46.976 0.041 7.18 2.71 11.49
4/16/2022 12:45:00 PM 8.3 46.94 0.041 7.16 2.67 11.48
4/16/2022 1:00:00 PM 8.26 46.868 0.041 7.14 2.78 11.44
4/16/2022 1:15:00 PM 8.24 46.832 0.041 7.15 2.81 11.46
4/16/2022 1:30:00 PM 8.21 46.778 0.041 7.15 2.97 11.46
4/16/2022 1:45:00 PM 8.19 46.742 0.04 7.15 2.97 11.47
4/16/2022 2:00:00 PM 8.18 46.724 0.04 7.16 3.09 11.48
4/16/2022 2:15:00 PM 8.18 46.724 0.04 7.16 3.06 11.52
4/16/2022 2:30:00 PM 8.21 46.778 0.04 7.19 3.12 11.56
4/16/2022 2:45:00 PM 8.22 46.796 0.04 7.2 3.2 11.57
4/16/2022 3:00:00 PM 8.25 46.85 0.04 7.21 3.32 11.6
4/16/2022 3:15:00 PM 8.22 46.796 0.04 7.19 3.29 11.57
4/16/2022 3:30:00 PM 8.19 46.742 0.04 7.16 3.25 11.54
4/16/2022 3:45:00 PM 8.16 46.688 0.04 7.17 3.31 11.52
4/16/2022 4:00:00 PM 8.13 46.634 0.04 7.17 3.36 11.52
4/16/2022 4:15:00 PM 8.15 46.67 0.04 7.18 3.48 11.55
4/16/2022 4:30:00 PM 8.13 46.634 0.04 7.18 3.47 11.54
4/16/2022 4:45:00 PM 8.13 46.634 0.04 7.17 3.41 11.54
4/16/2022 5:00:00 PM 8.11 46.598 0.04 7.18 3.43 11.53
4/16/2022 5:15:00 PM 8.12 46.616 0.04 7.18 3.57 11.54
4/16/2022 5:30:00 PM 8.11 46.598 0.04 7.19 3.59 11.54
4/16/2022 5:45:00 PM 8.11 46.598 0.04 7.2 3.58 11.56
4/16/2022 6:00:00 PM 8.11 46.598 0.04 7.21 3.59 11.56
4/16/2022 6:15:00 PM 8.12 46.616 0.04 7.21 3.54 11.58
4/16/2022 6:30:00 PM 8.11 46.598 0.04 7.2 3.55 11.56
4/16/2022 6:45:00 PM 8.1 46.58 0.04 7.19 3.52 11.55
4/16/2022 7:00:00 PM 8.07 46.526 0.04 7.17 3.49 11.52
4/16/2022 7:15:00 PM 8.05 46.49 0.04 7.15 3.3 11.5
4/16/2022 7:30:00 PM 8 46.4 0.041 7.13 3.39 11.46
4/16/2022 7:45:00 PM 7.95 46.31 0.041 7.11 3.3 11.42
4/16/2022 8:00:00 PM 7.89 46.202 0.041 7.09 3.39 11.38
4/16/2022 8:15:00 PM 7.83 46.094 0.041 7.08 3.39 11.35
4/16/2022 8:30:00 PM 7.76 45.968 0.041 7.05 3.18 11.34
4/16/2022 8:45:00 PM 7.69 45.842 0.041 7.04 3.27 11.33
4/16/2022 9:00:00 PM 7.62 45.716 0.041 7.03 3.12 11.33
4/16/2022 9:15:00 PM 7.55 45.59 0.041 7.03 3.12 11.33
4/16/2022 9:30:00 PM 7.48 45.464 0.041 7.02 3.01 11.34
4/16/2022 9:45:00 PM 7.41 45.338 0.041 7.02 3.06 11.35
4/16/2022 10:00:00 PM 7.34 45.212 0.041 7.01 3.07 11.35
4/16/2022 10:15:00 PM 7.27 45.086 0.041 7 3.01 11.37
4/16/2022 10:30:00 PM 7.2 44.96 0.041 6.98 3.08 11.38
4/16/2022 10:45:00 PM 7.13 44.834 0.041 7.02 2.94 11.4
4/16/2022 11:00:00 PM 7.06 44.708 0.041 7.01 2.94 11.42
4/16/2022 11:15:00 PM 7 44.6 0.041 7.01 2.91 11.44
4/16/2022 11:30:00 PM 6.93 44.474 0.041 7.01 3 11.46
4/16/2022 11:45:00 PM 6.89 44.402 0.041 6.98 2.86 11.47
4/17/2022 12:00:00 AM 6.84 44.312 0.042 6.99 2.86 11.49
4/17/2022 12:15:00 AM 6.79 44.222 0.042 7 2.94 11.51
4/17/2022 12:30:00 AM 6.74 44.132 0.042 7 2.92 11.53
4/17/2022 12:45:00 AM 6.7 44.06 0.042 7.01 2.85 11.55
4/17/2022 1:00:00 AM 6.66 43.988 0.042 7 2.93 11.57
4/17/2022 1:15:00 AM 6.61 43.898 0.042 7 2.96 11.58
4/17/2022 1:30:00 AM 6.57 43.826 0.042 6.99 2.85 11.6
4/17/2022 1:45:00 AM 6.53 43.754 0.042 7 2.79 11.61
4/17/2022 2:00:00 AM 6.5 43.7 0.042 6.99 2.83 11.63
4/17/2022 2:15:00 AM 6.45 43.61 0.042 7.01 2.73 11.64
4/17/2022 2:30:00 AM 6.4 43.52 0.042 6.99 2.82 11.66
4/17/2022 2:45:00 AM 6.36 43.448 0.042 6.98 2.75 11.67
4/17/2022 3:00:00 AM 6.32 43.376 0.042 7 2.76 11.68
4/17/2022 3:15:00 AM 6.28 43.304 0.042 7 2.76 11.7
4/17/2022 3:30:00 AM 6.24 43.232 0.042 7.01 2.72 11.71
4/17/2022 3:45:00 AM 6.2 43.16 0.042 7 2.87 11.72
4/17/2022 4:00:00 AM 6.17 43.106 0.042 7 2.83 11.73
4/17/2022 4:15:00 AM 6.14 43.052 0.042 7 2.71 11.74
4/17/2022 4:30:00 AM 6.11 42.998 0.042 7.01 2.77 11.75
4/17/2022 4:45:00 AM 6.08 42.944 0.042 6.99 2.67 11.76
4/17/2022 5:00:00 AM 6.06 42.908 0.042 7 2.69 11.77
4/17/2022 5:15:00 AM 6.04 42.872 0.042 7 2.7 11.78
4/17/2022 5:30:00 AM 6.01 42.818 0.042 7 2.67 11.78
4/17/2022 5:45:00 AM 5.99 42.782 0.042 7 2.61 11.79
4/17/2022 6:00:00 AM 5.97 42.746 0.042 7 2.7 11.8
4/17/2022 6:15:00 AM 5.94 42.692 0.042 6.98 2.67 11.81
4/17/2022 6:30:00 AM 5.92 42.656 0.042 7 2.64 11.82
4/17/2022 6:45:00 AM 5.9 42.62 0.042 6.99 2.64 11.83
4/17/2022 7:00:00 AM 5.88 42.584 0.042 7.01 2.67 11.86
4/17/2022 7:15:00 AM 5.86 42.548 0.042 7.01 2.7 11.89
4/17/2022 7:30:00 AM 5.84 42.512 0.042 7.02 2.68 11.94
4/17/2022 7:45:00 AM 5.82 42.476 0.042 7.05 2.63 11.99
4/17/2022 8:00:00 AM 5.79 42.422 0.042 7.04 2.64 12.03
4/17/2022 8:15:00 AM 5.78 42.404 0.042 7.06 2.63 12.05
4/17/2022 8:30:00 AM 5.72 42.296 0.042 7.06 2.63 12.09
4/17/2022 8:45:00 AM 5.71 42.278 0.042 7.08 2.61 12.16
4/17/2022 9:00:00 AM 5.73 42.314 0.042 7.12 2.64 12.25
4/17/2022 9:15:00 AM 5.74 42.332 0.042 7.15 2.58 12.31
4/17/2022 9:30:00 AM 5.75 42.35 0.041 7.17 2.62 12.37
4/17/2022 9:45:00 AM 5.77 42.386 0.041 7.2 2.64 12.41
4/17/2022 10:00:00 AM 5.81 42.458 0.041 7.23 2.62 12.45
4/17/2022 10:15:00 AM 5.89 42.602 0.041 7.25 2.64 12.47
4/17/2022 10:30:00 AM 5.92 42.656 0.041 7.26 2.59 12.48
4/17/2022 10:45:00 AM 5.97 42.746 0.041 7.27 2.6 12.49
4/17/2022 11:00:00 AM 6.02 42.836 0.041 7.27 2.55 12.49
4/17/2022 11:15:00 AM 6.06 42.908 0.041 7.28 2.6 12.49
4/17/2022 11:30:00 AM 6.1 42.98 0.041 7.29 2.51 12.48
4/17/2022 11:45:00 AM 6.2 43.16 0.041 7.3 2.5 12.48
4/17/2022 12:00:00 PM 6.28 43.304 0.041 7.29 2.63 12.48
4/17/2022 12:15:00 PM 6.36 43.448 0.041 7.31 2.46 12.46
4/17/2022 12:30:00 PM 6.42 43.556 0.041 7.3 2.53 12.45
4/17/2022 12:45:00 PM 6.48 43.664 0.041 7.3 2.46 12.43
4/17/2022 1:00:00 PM 6.61 43.898 0.041 7.31 2.48 12.41
4/17/2022 1:15:00 PM 6.76 44.168 0.041 7.32 2.48 12.38
4/17/2022 1:30:00 PM 6.81 44.258 0.041 7.31 2.44 12.34
4/17/2022 1:45:00 PM 6.87 44.366 0.041 7.32 2.41 12.32
4/17/2022 2:00:00 PM 7.04 44.672 0.041 7.32 2.5 12.29
4/17/2022 2:15:00 PM 7.2 44.96 0.041 7.31 2.4 12.24
4/17/2022 2:30:00 PM 7.49 45.482 0.041 7.33 2.45 12.19
4/17/2022 2:45:00 PM 7.56 45.608 0.041 7.32 2.46 12.14
4/17/2022 3:00:00 PM 7.71 45.878 0.041 7.31 2.45 12.09
4/17/2022 3:15:00 PM 7.83 46.094 0.041 7.33 2.45 12.06
4/17/2022 3:30:00 PM 8 46.4 0.04 7.33 2.5 12.03
4/17/2022 3:45:00 PM 8.05 46.49 0.04 7.33 2.46 12
4/17/2022 4:00:00 PM 8.14 46.652 0.04 7.34 2.5 11.96
4/17/2022 4:15:00 PM 8.29 46.922 0.04 7.34 2.53 11.91
4/17/2022 4:30:00 PM 8.5 47.3 0.04 7.33 2.55 11.88
4/17/2022 4:45:00 PM 8.68 47.624 0.038 7.32 4.3 11.83
4/17/2022 5:00:00 PM 8.63 47.534 0.04 7.32 2.49 11.81
4/17/2022 5:15:00 PM 8.48 47.264 0.04 7.32 2.54 11.77
4/17/2022 5:30:00 PM 8.34 47.012 0.041 7.3 2.64 11.76
4/17/2022 5:45:00 PM 8.33 46.994 0.041 7.3 2.62 11.76
4/17/2022 6:00:00 PM 8.32 46.976 0.041 7.3 2.56 11.77
4/17/2022 6:15:00 PM 8.3 46.94 0.041 7.3 2.55 11.76
4/17/2022 6:30:00 PM 8.26 46.868 0.041 7.28 2.62 11.74
4/17/2022 6:45:00 PM 8.2 46.76 0.041 7.26 2.6 11.73
4/17/2022 7:00:00 PM 8.13 46.634 0.041 7.23 2.55 11.7
4/17/2022 7:15:00 PM 8.05 46.49 0.041 7.22 2.6 11.68
4/17/2022 7:30:00 PM 7.94 46.292 0.041 7.19 2.63 11.64
4/17/2022 7:45:00 PM 7.85 46.13 0.041 7.16 2.6 11.6
4/17/2022 8:00:00 PM 7.75 45.95 0.041 7.12 2.58 11.56
4/17/2022 8:15:00 PM 7.65 45.77 0.041 7.1 2.61 11.52
4/17/2022 8:30:00 PM 7.55 45.59 0.039 7.06 4.32 11.51
4/17/2022 8:45:00 PM 7.46 45.428 0.041 7.07 2.69 11.49
4/17/2022 9:00:00 PM 7.37 45.266 0.041 7.05 2.64 11.49
4/17/2022 9:15:00 PM 7.27 45.086 0.041 7.05 2.75 11.5
4/17/2022 9:30:00 PM 7.18 44.924 0.041 7.02 2.72 11.52
4/17/2022 9:45:00 PM 7.08 44.744 0.042 7.02 2.69 11.54
4/17/2022 10:00:00 PM 6.98 44.564 0.042 7.03 2.66 11.56
4/17/2022 10:15:00 PM 6.88 44.384 0.042 7.02 2.73 11.59
4/17/2022 10:30:00 PM 6.78 44.204 0.042 7.02 2.69 11.62
4/17/2022 10:45:00 PM 6.68 44.024 0.042 7.01 2.75 11.65
4/17/2022 11:00:00 PM 6.58 43.844 0.042 7.01 2.77 11.68
4/17/2022 11:15:00 PM 6.48 43.664 0.042 7.01 2.76 11.71
4/17/2022 11:30:00 PM 6.39 43.502 0.042 7 2.73 11.74
4/17/2022 11:45:00 PM 6.29 43.322 0.042 7 2.69 11.77
4/18/2022 12:00:00 AM 6.2 43.16 0.042 7 2.7 11.8
4/18/2022 12:15:00 AM 6.1 42.98 0.042 7 2.67 11.82
4/18/2022 12:30:00 AM 6.01 42.818 0.042 7 2.7 11.85
4/18/2022 12:45:00 AM 5.92 42.656 0.042 7 2.68 11.87
4/18/2022 1:00:00 AM 5.84 42.512 0.042 7 2.64 11.9
4/18/2022 1:15:00 AM 5.75 42.35 0.042 7 2.61 11.93
4/18/2022 1:30:00 AM 5.67 42.206 0.042 7.01 2.64 11.96
4/18/2022 1:45:00 AM 5.59 42.062 0.042 7 2.67 11.99
4/18/2022 2:00:00 AM 5.51 41.918 0.042 7 2.71 12.01
4/18/2022 2:15:00 AM 5.43 41.774 0.042 7.01 2.55 12.04
4/18/2022 2:30:00 AM 5.36 41.648 0.042 7.01 2.63 12.07
4/18/2022 2:45:00 AM 5.28 41.504 0.042 7 2.64 12.09
4/18/2022 3:00:00 AM 5.21 41.378 0.042 7 2.65 12.11
4/18/2022 3:15:00 AM 5.14 41.252 0.042 7 2.56 12.14
4/18/2022 3:30:00 AM 5.07 41.126 0.042 7 2.62 12.16
4/18/2022 3:45:00 AM 5 41 0.042 7 2.62 12.18
4/18/2022 4:00:00 AM 4.93 40.874 0.042 7.01 2.62 12.2
4/18/2022 4:15:00 AM 4.87 40.766 0.042 7 2.59 12.22
4/18/2022 4:30:00 AM 4.8 40.64 0.042 7 2.57 12.24
4/18/2022 4:45:00 AM 4.74 40.532 0.042 6.99 2.51 12.26
4/18/2022 5:00:00 AM 4.68 40.424 0.042 6.99 2.58 12.28
4/18/2022 5:15:00 AM 4.62 40.316 0.042 7 2.56 12.3
4/18/2022 5:30:00 AM 4.56 40.208 0.042 7.01 2.57 12.32
4/18/2022 5:45:00 AM 4.5 40.1 0.042 6.99 2.54 12.34
4/18/2022 6:00:00 AM 4.44 39.992 0.042 6.99 2.56 12.35
4/18/2022 6:15:00 AM 4.39 39.902 0.042 7 2.55 12.37
4/18/2022 6:30:00 AM 4.33 39.794 0.042 7 2.73 12.39
4/18/2022 6:45:00 AM 4.29 39.722 0.042 7 2.52 12.43
4/18/2022 7:00:00 AM 4.24 39.632 0.042 7.01 2.49 12.47
4/18/2022 7:15:00 AM 4.21 39.578 0.042 7.02 2.49 12.53
4/18/2022 7:30:00 AM 4.19 39.542 0.042 7.05 2.53 12.6
4/18/2022 7:45:00 AM 4.18 39.524 0.042 7.07 2.47 12.67
4/18/2022 8:00:00 AM 4.18 39.524 0.042 7.07 2.52 12.73
4/18/2022 8:15:00 AM 4.19 39.542 0.042 7.1 2.55 12.78
4/18/2022 8:30:00 AM 4.23 39.614 0.042 7.13 2.59 12.83
4/18/2022 8:45:00 AM 4.29 39.722 0.042 7.16 2.6 12.86
4/18/2022 9:00:00 AM 4.37 39.866 0.042 7.17 2.5 12.88
4/18/2022 9:15:00 AM 4.44 39.992 0.042 7.2 2.54 12.9
4/18/2022 9:30:00 AM 4.54 40.172 0.042 7.2 2.48 12.9
4/18/2022 9:45:00 AM 4.65 40.37 0.042 7.23 2.45 12.91
4/18/2022 10:00:00 AM 4.73 40.514 0.042 7.24 2.46 12.9
4/18/2022 10:15:00 AM 4.85 40.73 0.042 7.25 2.42 12.89
4/18/2022 10:30:00 AM 4.96 40.928 0.042 7.27 2.47 12.87
4/18/2022 10:45:00 AM 5.06 41.108 0.042 7.28 2.41 12.85
4/18/2022 11:00:00 AM 5.18 41.324 0.042 7.3 2.44 12.83
4/18/2022 11:15:00 AM 5.3 41.54 0.041 7.3 2.46 12.8
4/18/2022 11:30:00 AM 5.35 41.63 0.041 7.3 2.41 12.77
4/18/2022 11:45:00 AM 5.44 41.792 0.041 7.31 2.4 12.73
4/18/2022 12:00:00 PM 5.47 41.846 0.041 7.29 2.37 12.7
4/18/2022 12:15:00 PM 5.53 41.954 0.041 7.3 2.35 12.68
4/18/2022 12:30:00 PM 5.56 42.008 0.041 7.3 2.38 12.66
4/18/2022 12:45:00 PM 5.59 42.062 0.041 7.29 2.34 12.64
4/18/2022 1:00:00 PM 5.64 42.152 0.041 7.29 2.38 12.61
4/18/2022 1:15:00 PM 5.69 42.242 0.041 7.29 2.4 12.59
4/18/2022 1:30:00 PM 5.75 42.35 0.041 7.29 2.29 12.58
4/18/2022 1:45:00 PM 5.83 42.494 0.041 7.31 2.3 12.57
4/18/2022 2:00:00 PM 5.88 42.584 0.041 7.31 2.36 12.54
4/18/2022 2:15:00 PM 5.95 42.71 0.041 7.31 2.27 12.51
4/18/2022 2:30:00 PM 5.96 42.728 0.041 7.3 2.34 12.47
4/18/2022 2:45:00 PM 5.97 42.746 0.041 7.3 2.32 12.44
4/18/2022 3:00:00 PM 5.95 42.71 0.041 7.28 2.38 12.42
4/18/2022 3:15:00 PM 5.92 42.656 0.041 7.28 2.36 12.41
4/18/2022 3:30:00 PM 5.9 42.62 0.041 7.26 2.36 12.39
4/18/2022 3:45:00 PM 5.82 42.476 0.041 7.25 2.35 12.37
4/18/2022 4:00:00 PM 5.74 42.332 0.041 7.22 2.39 12.35
4/18/2022 4:15:00 PM 5.67 42.206 0.041 7.24 2.4 12.33
4/18/2022 4:30:00 PM 5.63 42.134 0.041 7.21 2.38 12.31
4/18/2022 4:45:00 PM 5.57 42.026 0.041 7.19 2.35 12.28
4/18/2022 5:00:00 PM 5.47 41.846 0.041 7.17 2.35 12.26
4/18/2022 5:15:00 PM 5.4 41.72 0.041 7.17 2.41 12.26
4/18/2022 5:30:00 PM 5.33 41.594 0.041 7.16 2.39 12.25
4/18/2022 5:45:00 PM 5.25 41.45 0.041 7.15 2.4 12.26
4/18/2022 6:00:00 PM 5.19 41.342 0.041 7.15 2.44 12.26
4/18/2022 6:15:00 PM 5.1 41.18 0.041 7.14 2.36 12.26
4/18/2022 6:30:00 PM 5.04 41.072 0.041 7.12 2.46 12.27
4/18/2022 6:45:00 PM 4.95 40.91 0.041 7.11 2.44 12.26
4/18/2022 7:00:00 PM 4.86 40.748 0.041 7.11 2.54 12.24
4/18/2022 7:15:00 PM 4.77 40.586 0.041 7.09 2.54 12.24
4/18/2022 7:30:00 PM 4.69 40.442 0.041 7.09 2.53 12.26
4/18/2022 7:45:00 PM 4.62 40.316 0.041 7.09 2.54 12.27
4/18/2022 8:00:00 PM 4.55 40.19 0.041 7.07 2.58 12.27
4/18/2022 8:15:00 PM 4.5 40.1 0.041 7.07 2.55 12.28
4/18/2022 8:30:00 PM 4.47 40.046 0.041 7.06 2.6 12.28
4/18/2022 8:45:00 PM 4.45 40.01 0.041 7.05 2.52 12.28
4/18/2022 9:00:00 PM 4.44 39.992 0.041 7.06 2.54 12.28
4/18/2022 9:15:00 PM 4.41 39.938 0.041 7.05 2.62 12.28
4/18/2022 9:30:00 PM 4.4 39.92 0.041 7.04 2.52 12.28
4/18/2022 9:45:00 PM 4.39 39.902 0.041 7.04 2.57 12.29
4/18/2022 10:00:00 PM 4.37 39.866 0.041 7.03 2.58 12.29
4/18/2022 10:15:00 PM 4.36 39.848 0.041 7.04 2.63 12.29
4/18/2022 10:30:00 PM 4.34 39.812 0.041 7.02 2.53 12.3
4/18/2022 10:45:00 PM 4.32 39.776 0.041 7.03 2.55 12.3
4/18/2022 11:00:00 PM 4.28 39.704 0.041 7.03 2.56 12.3
4/18/2022 11:15:00 PM 4.27 39.686 0.041 7.03 2.53 12.3
4/18/2022 11:30:00 PM 4.25 39.65 0.041 7.03 2.57 12.3
4/18/2022 11:45:00 PM 4.23 39.614 0.042 7.03 2.53 12.31
4/19/2022 12:00:00 AM 4.21 39.578 0.042 7.02 2.56 12.31
4/19/2022 12:15:00 AM 4.21 39.578 0.042 7.01 2.54 12.3
4/19/2022 12:30:00 AM 4.21 39.578 0.042 7 2.49 12.3
4/19/2022 12:45:00 AM 4.22 39.596 0.042 7.01 2.52 12.3
4/19/2022 1:00:00 AM 4.23 39.614 0.042 7.01 2.5 12.3
4/19/2022 1:15:00 AM 4.23 39.614 0.042 7.01 2.51 12.3
4/19/2022 1:30:00 AM 4.23 39.614 0.042 7.01 2.54 12.29
4/19/2022 1:45:00 AM 4.22 39.596 0.042 7.01 2.47 12.29
4/19/2022 2:00:00 AM 4.22 39.596 0.042 7.01 2.46 12.29
4/19/2022 2:15:00 AM 4.22 39.596 0.042 7.02 2.47 12.29
4/19/2022 2:30:00 AM 4.19 39.542 0.042 7.02 2.47 12.29
4/19/2022 2:45:00 AM 4.22 39.596 0.042 7.04 2.43 12.29
4/19/2022 3:00:00 AM 4.24 39.632 0.042 7.03 2.44 12.28
4/19/2022 3:15:00 AM 4.27 39.686 0.042 7.02 2.5 12.27
4/19/2022 3:30:00 AM 4.29 39.722 0.042 7.03 2.42 12.26
4/19/2022 3:45:00 AM 4.31 39.758 0.042 7.03 2.4 12.25
4/19/2022 4:00:00 AM 4.32 39.776 0.042 7.03 2.48 12.24
4/19/2022 4:15:00 AM 4.34 39.812 0.042 7.03 2.48 12.24
4/19/2022 4:30:00 AM 4.35 39.83 0.042 7.04 2.42 12.23
4/19/2022 4:45:00 AM 4.36 39.848 0.042 7 2.43 12.23
4/19/2022 5:00:00 AM 4.38 39.884 0.042 7.01 2.39 12.22
4/19/2022 5:15:00 AM 4.39 39.902 0.042 7.01 2.45 12.22
4/19/2022 5:30:00 AM 4.4 39.92 0.042 7 2.42 12.21
4/19/2022 5:45:00 AM 4.41 39.938 0.042 7 2.43 12.2
4/19/2022 6:00:00 AM 4.43 39.974 0.042 7 2.46 12.2
4/19/2022 6:15:00 AM 4.44 39.992 0.042 6.99 2.41 12.19
4/19/2022 6:30:00 AM 4.44 39.992 0.042 7 2.43 12.19
4/19/2022 6:45:00 AM 4.45 40.01 0.042 7 2.41 12.21
4/19/2022 7:00:00 AM 4.45 40.01 0.042 7.01 2.43 12.23
4/19/2022 7:15:00 AM 4.45 40.01 0.042 7.03 2.41 12.25
4/19/2022 7:30:00 AM 4.45 40.01 0.042 7.04 2.41 12.28
4/19/2022 7:45:00 AM 4.48 40.064 0.042 7.07 2.41 12.34
4/19/2022 8:00:00 AM 4.5 40.1 0.042 7.08 2.43 12.4
4/19/2022 8:15:00 AM 4.53 40.154 0.042 7.12 2.34 12.46
4/19/2022 8:30:00 AM 4.58 40.244 0.042 7.15 2.38 12.51
4/19/2022 8:45:00 AM 4.61 40.298 0.042 7.16 2.37 12.53
4/19/2022 9:00:00 AM 4.63 40.334 0.042 7.18 2.38 12.55
4/19/2022 9:15:00 AM 4.66 40.388 0.042 7.19 2.39 12.57
4/19/2022 9:30:00 AM 4.68 40.424 0.042 7.19 2.4 12.56
4/19/2022 9:45:00 AM 4.68 40.424 0.042 7.18 2.35 12.55
4/19/2022 10:00:00 AM 4.66 40.388 0.042 7.21 2.5 12.57
4/19/2022 10:15:00 AM 4.73 40.514 0.042 7.22 2.39 12.6
4/19/2022 10:30:00 AM 4.79 40.622 0.042 7.24 2.38 12.61
4/19/2022 10:45:00 AM 4.94 40.892 0.042 7.25 2.38 12.62
4/19/2022 11:00:00 AM 4.99 40.982 0.039 7.24 4.02 12.63
4/19/2022 11:15:00 AM 5.06 41.108 0.039 7.25 3.94 12.63
4/19/2022 11:30:00 AM 5.11 41.198 0.042 7.25 2.37 12.62
4/19/2022 11:45:00 AM 5.14 41.252 0.041 7.28 2.46 12.62
4/19/2022 12:00:00 PM 5.23 41.414 0.041 7.31 2.33 12.61
4/19/2022 12:15:00 PM 5.29 41.522 0.041 7.31 2.34 12.59
4/19/2022 12:30:00 PM 5.42 41.756 0.041 7.31 2.35 12.57
4/19/2022 12:45:00 PM 5.5 41.9 0.041 7.32 2.37 12.54
4/19/2022 1:00:00 PM 5.59 42.062 0.041 7.32 2.38 12.52
4/19/2022 1:15:00 PM 5.64 42.152 0.041 7.34 2.33 12.5
4/19/2022 1:30:00 PM 5.69 42.242 0.041 7.34 2.33 12.47
4/19/2022 1:45:00 PM 5.74 42.332 0.041 7.33 2.39 12.46
4/19/2022 2:00:00 PM 5.74 42.332 0.041 7.34 2.51 12.44
4/19/2022 2:15:00 PM 5.82 42.476 0.041 7.35 2.52 12.43
4/19/2022 2:30:00 PM 5.95 42.71 0.041 7.35 2.44 12.42
4/19/2022 2:45:00 PM 6.06 42.908 0.041 7.36 2.44 12.41
4/19/2022 3:00:00 PM 6.15 43.07 0.041 7.35 2.46 12.38
4/19/2022 3:15:00 PM 6.18 43.124 0.041 7.33 2.39 12.34
4/19/2022 3:30:00 PM 6.2 43.16 0.041 7.32 2.45 12.29
4/19/2022 3:45:00 PM 6.29 43.322 0.041 7.32 2.44 12.28
4/19/2022 4:00:00 PM 6.33 43.394 0.041 7.33 2.5 12.26
4/19/2022 4:15:00 PM 6.38 43.484 0.041 7.31 2.42 12.23
4/19/2022 4:30:00 PM 6.39 43.502 0.041 7.32 2.51 12.23
4/19/2022 4:45:00 PM 6.37 43.466 0.041 7.32 2.44 12.21
4/19/2022 5:00:00 PM 6.33 43.394 0.041 7.29 2.44 12.19
4/19/2022 5:15:00 PM 6.27 43.286 0.041 7.27 2.46 12.17
4/19/2022 5:30:00 PM 6.22 43.196 0.041 7.27 2.43 12.16
4/19/2022 5:45:00 PM 6.17 43.106 0.041 7.26 2.5 12.16
4/19/2022 6:00:00 PM 6.15 43.07 0.042 7.26 2.49 12.18
4/19/2022 6:15:00 PM 6.12 43.016 0.042 7.25 2.5 12.18
4/19/2022 6:30:00 PM 6.11 42.998 0.042 7.25 2.51 12.16
4/19/2022 6:45:00 PM 6.07 42.926 0.042 7.22 2.47 12.13
4/19/2022 7:00:00 PM 6.03 42.854 0.042 7.21 2.57 12.1
4/19/2022 7:15:00 PM 5.98 42.764 0.042 7.18 2.56 12.07
4/19/2022 7:30:00 PM 5.94 42.692 0.042 7.16 2.54 12.03
4/19/2022 7:45:00 PM 5.88 42.584 0.042 7.14 2.53 11.99
4/19/2022 8:00:00 PM 5.82 42.476 0.042 7.12 2.64 11.95
4/19/2022 8:15:00 PM 5.78 42.404 0.042 7.1 2.53 11.93
4/19/2022 8:30:00 PM 5.73 42.314 0.042 7.09 2.61 11.91
4/19/2022 8:45:00 PM 5.69 42.242 0.042 7.07 2.53 11.9
4/19/2022 9:00:00 PM 5.64 42.152 0.042 7.07 2.65 11.9
4/19/2022 9:15:00 PM 5.59 42.062 0.042 7.06 2.58 11.91
4/19/2022 9:30:00 PM 5.54 41.972 0.042 7.05 2.57 11.92
4/19/2022 9:45:00 PM 5.49 41.882 0.042 7.05 2.62 11.93
4/19/2022 10:00:00 PM 5.46 41.828 0.043 7.05 2.66 11.94
4/19/2022 10:15:00 PM 5.42 41.756 0.043 7.04 2.6 11.95
4/19/2022 10:30:00 PM 5.37 41.666 0.043 7.04 2.63 11.96
4/19/2022 10:45:00 PM 5.32 41.576 0.043 7.04 2.6 11.97
4/19/2022 11:00:00 PM 5.27 41.486 0.043 7.04 2.52 11.99
4/19/2022 11:15:00 PM 5.22 41.396 0.043 7.04 2.61 12.01
4/19/2022 11:30:00 PM 5.17 41.306 0.043 7.04 2.62 12.02
4/19/2022 11:45:00 PM 5.12 41.216 0.043 7.03 2.57 12.04
4/20/2022 12:00:00 AM 5.08 41.144 0.043 7.03 2.54 12.06
4/20/2022 12:15:00 AM 5.04 41.072 0.043 7.03 2.5 12.08
4/20/2022 12:30:00 AM 5.01 41.018 0.043 7.03 2.53 12.1
4/20/2022 12:45:00 AM 4.98 40.964 0.043 7.03 2.53 12.11
4/20/2022 1:00:00 AM 4.95 40.91 0.043 7.03 2.51 12.12
4/20/2022 1:15:00 AM 4.91 40.838 0.043 7.03 2.47 12.14
4/20/2022 1:30:00 AM 4.87 40.766 0.043 7.03 2.49 12.15
4/20/2022 1:45:00 AM 4.83 40.694 0.043 7.03 2.53 12.17
4/20/2022 2:00:00 AM 4.79 40.622 0.043 7.03 2.5 12.18
4/20/2022 2:15:00 AM 4.75 40.55 0.043 7.03 2.47 12.19
4/20/2022 2:30:00 AM 4.72 40.496 0.043 7.03 2.48 12.21
4/20/2022 2:45:00 AM 4.69 40.442 0.043 7.02 2.51 12.22
4/20/2022 3:00:00 AM 4.68 40.424 0.043 7.02 2.42 12.23
4/20/2022 3:15:00 AM 4.67 40.406 0.043 7.03 2.43 12.24
4/20/2022 3:30:00 AM 4.66 40.388 0.043 7.03 2.43 12.25
4/20/2022 3:45:00 AM 4.65 40.37 0.043 7.01 2.42 12.25
4/20/2022 4:00:00 AM 4.63 40.334 0.043 7.01 2.49 12.26
4/20/2022 4:15:00 AM 4.61 40.298 0.043 7.01 2.42 12.27
4/20/2022 4:30:00 AM 4.6 40.28 0.043 7.01 2.38 12.28
4/20/2022 4:45:00 AM 4.6 40.28 0.043 7.02 2.39 12.28
4/20/2022 5:00:00 AM 4.59 40.262 0.043 7.02 2.42 12.29
4/20/2022 5:15:00 AM 4.57 40.226 0.043 7.01 2.39 12.3
4/20/2022 5:30:00 AM 4.56 40.208 0.043 7.02 2.46 12.3
4/20/2022 5:45:00 AM 4.55 40.19 0.043 7.01 2.38 12.31
4/20/2022 6:00:00 AM 4.54 40.172 0.043 7.01 2.41 12.31
4/20/2022 6:15:00 AM 4.52 40.136 0.043 7.02 2.4 12.32
4/20/2022 6:30:00 AM 4.5 40.1 0.043 7.03 2.38 12.34
4/20/2022 6:45:00 AM 4.48 40.064 0.043 7.03 2.4 12.37
4/20/2022 7:00:00 AM 4.45 40.01 0.043 7.04 2.41 12.41
4/20/2022 7:15:00 AM 4.45 40.01 0.043 7.06 2.37 12.47
4/20/2022 7:30:00 AM 4.45 40.01 0.043 7.07 2.34 12.52
4/20/2022 7:45:00 AM 4.45 40.01 0.043 7.09 2.43 12.58
4/20/2022 8:00:00 AM 4.44 39.992 0.043 7.09 2.4 12.63
4/20/2022 8:15:00 AM 4.45 40.01 0.043 7.13 2.4 12.68
4/20/2022 8:30:00 AM 4.48 40.064 0.043 7.14 2.31 12.72
4/20/2022 8:45:00 AM 4.52 40.136 0.043 7.16 2.4 12.76
4/20/2022 9:00:00 AM 4.59 40.262 0.043 7.17 2.38 12.78
4/20/2022 9:15:00 AM 4.67 40.406 0.043 7.18 2.32 12.8
4/20/2022 9:30:00 AM 4.76 40.568 0.043 7.21 2.33 12.8
4/20/2022 9:45:00 AM 4.88 40.784 0.043 7.21 2.37 12.8
4/20/2022 10:00:00 AM 5.01 41.018 0.043 7.23 2.38 12.8
4/20/2022 10:15:00 AM 5.13 41.234 0.043 7.23 2.38 12.79
4/20/2022 10:30:00 AM 5.27 41.486 0.042 7.23 2.32 12.78
4/20/2022 10:45:00 AM 5.43 41.774 0.042 7.25 2.4 12.75
4/20/2022 11:00:00 AM 5.63 42.134 0.042 7.26 2.29 12.71
4/20/2022 11:15:00 AM 5.84 42.512 0.042 7.26 2.3 12.66
4/20/2022 11:30:00 AM 6.06 42.908 0.042 7.27 2.26 12.62
4/20/2022 11:45:00 AM 6.29 43.322 0.042 7.28 2.29 12.57
4/20/2022 12:00:00 PM 6.53 43.754 0.042 7.29 2.25 12.52
4/20/2022 12:15:00 PM 6.79 44.222 0.042 7.29 2.27 12.45
4/20/2022 12:30:00 PM 7.04 44.672 0.042 7.29 2.28 12.38
4/20/2022 12:45:00 PM 7.3 45.14 0.042 7.3 2.27 12.32
4/20/2022 1:00:00 PM 7.56 45.608 0.042 7.3 2.3 12.25
4/20/2022 1:15:00 PM 7.82 46.076 0.042 7.31 2.26 12.19
4/20/2022 1:30:00 PM 8.07 46.526 0.042 7.31 2.27 12.12
4/20/2022 1:45:00 PM 8.29 46.922 0.042 7.32 2.24 12.06
4/20/2022 2:00:00 PM 8.53 47.354 0.042 7.32 2.28 11.99
4/20/2022 2:15:00 PM 8.74 47.732 0.042 7.33 2.32 11.93
4/20/2022 2:30:00 PM 8.94 48.092 0.042 7.31 2.24 11.87
4/20/2022 2:45:00 PM 9.15 48.47 0.042 7.34 2.36 11.82
4/20/2022 3:00:00 PM 9.31 48.758 0.041 7.34 2.29 11.76
4/20/2022 3:15:00 PM 9.49 49.082 0.041 7.34 2.42 11.7
4/20/2022 3:30:00 PM 9.63 49.334 0.041 7.34 2.27 11.65
4/20/2022 3:45:00 PM 9.73 49.514 0.041 7.34 2.38 11.61
4/20/2022 4:00:00 PM 9.85 49.73 0.039 7.32 3.91 11.57
4/20/2022 4:15:00 PM 9.94 49.892 0.041 7.34 2.36 11.53
4/20/2022 4:30:00 PM 10.01 50.018 0.041 7.34 2.42 11.5
4/20/2022 4:45:00 PM 10.05 50.09 0.041 7.34 2.34 11.46
4/20/2022 5:00:00 PM 10.1 50.18 0.039 7.31 4.03 11.43
4/20/2022 5:15:00 PM 10.1 50.18 0.039 7.3 3.93 11.4
4/20/2022 5:30:00 PM 10.1 50.18 0.039 7.3 4.04 11.37
4/20/2022 5:45:00 PM 10.08 50.144 0.041 7.31 2.4 11.34
4/20/2022 6:00:00 PM 10.04 50.072 0.039 7.29 3.94 11.32
4/20/2022 6:15:00 PM 9.98 49.964 0.041 7.29 2.45 11.3
4/20/2022 6:30:00 PM 9.91 49.838 0.041 7.26 2.51 11.27
4/20/2022 6:45:00 PM 9.84 49.712 0.041 7.24 2.4 11.25
4/20/2022 7:00:00 PM 9.76 49.568 0.041 7.21 2.46 11.23
4/20/2022 7:15:00 PM 9.65 49.37 0.041 7.19 2.45 11.2
4/20/2022 7:30:00 PM 9.53 49.154 0.041 7.16 2.51 11.17
4/20/2022 7:45:00 PM 9.41 48.938 0.041 7.13 2.59 11.15
4/20/2022 8:00:00 PM 9.29 48.722 0.041 7.11 2.51 11.13
4/20/2022 8:15:00 PM 9.15 48.47 0.041 7.09 2.53 11.11
4/20/2022 8:30:00 PM 9.01 48.218 0.041 7.06 2.57 11.1
4/20/2022 8:45:00 PM 8.88 47.984 0.042 7.06 2.53 11.11
4/20/2022 9:00:00 PM 8.75 47.75 0.042 7.05 2.57 11.12
4/20/2022 9:15:00 PM 8.61 47.498 0.042 7.03 2.66 11.14
4/20/2022 9:30:00 PM 8.48 47.264 0.042 7.03 2.64 11.16
4/20/2022 9:45:00 PM 8.35 47.03 0.042 7.02 2.61 11.19
4/20/2022 10:00:00 PM 8.21 46.778 0.042 7.02 2.56 11.22
4/20/2022 10:15:00 PM 8.09 46.562 0.042 7.01 2.63 11.25
4/20/2022 10:30:00 PM 7.96 46.328 0.042 7.01 2.69 11.29
4/20/2022 10:45:00 PM 7.83 46.094 0.042 7.01 2.7 11.32
4/20/2022 11:00:00 PM 7.71 45.878 0.042 7 2.61 11.36
4/20/2022 11:15:00 PM 7.61 45.698 0.042 7.01 2.67 11.38
4/20/2022 11:30:00 PM 7.51 45.518 0.042 7.01 2.58 11.41
4/20/2022 11:45:00 PM 7.42 45.356 0.042 7.01 2.59 11.43
4/21/2022 12:00:00 AM 7.32 45.176 0.042 7.01 2.57 11.46
4/21/2022 12:15:00 AM 7.23 45.014 0.042 7.01 2.64 11.49
4/21/2022 12:30:00 AM 7.13 44.834 0.042 7 2.56 11.52
4/21/2022 12:45:00 AM 7.04 44.672 0.042 7 2.62 11.54
4/21/2022 1:00:00 AM 6.94 44.492 0.042 6.99 2.53 11.58
4/21/2022 1:15:00 AM 6.86 44.348 0.042 7 2.57 11.6
4/21/2022 1:30:00 AM 6.78 44.204 0.042 7 2.55 11.63
4/21/2022 1:45:00 AM 6.7 44.06 0.042 7 2.59 11.66
4/21/2022 2:00:00 AM 6.62 43.916 0.042 6.99 2.57 11.69
4/21/2022 2:15:00 AM 6.53 43.754 0.042 7 2.54 11.71
4/21/2022 2:30:00 AM 6.45 43.61 0.042 7 2.6 11.73
4/21/2022 2:45:00 AM 6.38 43.484 0.042 7 2.64 11.75
4/21/2022 3:00:00 AM 6.3 43.34 0.042 6.99 2.55 11.78
4/21/2022 3:15:00 AM 6.22 43.196 0.043 7 2.56 11.8
4/21/2022 3:30:00 AM 6.16 43.088 0.043 7 2.61 11.82
4/21/2022 3:45:00 AM 6.1 42.98 0.043 6.99 2.56 11.83
4/21/2022 4:00:00 AM 6.05 42.89 0.043 6.99 2.52 11.85
4/21/2022 4:15:00 AM 6.01 42.818 0.043 7 2.54 11.87
4/21/2022 4:30:00 AM 5.97 42.746 0.043 7 2.57 11.88
4/21/2022 4:45:00 AM 5.93 42.674 0.043 7 2.56 11.89
4/21/2022 5:00:00 AM 5.9 42.62 0.043 7 2.49 11.9
4/21/2022 5:15:00 AM 5.86 42.548 0.043 6.99 2.54 11.91
4/21/2022 5:30:00 AM 5.83 42.494 0.043 7 2.54 11.92
4/21/2022 5:45:00 AM 5.81 42.458 0.043 7 2.58 11.93
4/21/2022 6:00:00 AM 5.79 42.422 0.043 6.99 2.52 11.94
4/21/2022 6:15:00 AM 5.76 42.368 0.043 6.99 2.51 11.95
4/21/2022 6:30:00 AM 5.73 42.314 0.043 7 2.5 11.96
4/21/2022 6:45:00 AM 5.71 42.278 0.043 7 2.6 11.99
4/21/2022 7:00:00 AM 5.68 42.224 0.043 7.01 2.49 12.02
4/21/2022 7:15:00 AM 5.67 42.206 0.043 7.02 2.48 12.07
4/21/2022 7:30:00 AM 5.7 42.26 0.042 7.04 2.46 12.14
4/21/2022 7:45:00 AM 5.73 42.314 0.042 7.07 2.45 12.2
4/21/2022 8:00:00 AM 5.78 42.404 0.042 7.09 2.47 12.25
4/21/2022 8:15:00 AM 5.82 42.476 0.042 7.1 2.45 12.27
4/21/2022 8:30:00 AM 5.87 42.566 0.042 7.13 2.47 12.3
4/21/2022 8:45:00 AM 5.94 42.692 0.042 7.15 2.4 12.34
4/21/2022 9:00:00 AM 6.01 42.818 0.042 7.18 2.41 12.37
4/21/2022 9:15:00 AM 6.09 42.962 0.042 7.19 2.46 12.39
4/21/2022 9:30:00 AM 6.18 43.124 0.042 7.21 2.46 12.41
4/21/2022 9:45:00 AM 6.26 43.268 0.042 7.23 2.39 12.41
4/21/2022 10:00:00 AM 6.38 43.484 0.042 7.25 2.4 12.42
4/21/2022 10:15:00 AM 6.46 43.628 0.042 7.27 2.42 12.42
4/21/2022 10:30:00 AM 6.52 43.736 0.042 7.27 2.38 12.37
4/21/2022 10:45:00 AM 6.58 43.844 0.042 7.26 2.35 12.33
4/21/2022 11:00:00 AM 6.64 43.952 0.042 7.25 2.42 12.31
4/21/2022 11:15:00 AM 6.67 44.006 0.042 7.25 2.36 12.27
4/21/2022 11:30:00 AM 6.77 44.186 0.042 7.26 2.35 12.26
4/21/2022 11:45:00 AM 6.83 44.294 0.042 7.27 2.35 12.25
4/21/2022 12:00:00 PM 6.91 44.438 0.042 7.27 2.38 12.23
4/21/2022 12:15:00 PM 6.97 44.546 0.041 7.28 2.43 12.21
4/21/2022 12:30:00 PM 7.03 44.654 0.041 7.28 2.4 12.19
4/21/2022 12:45:00 PM 7.09 44.762 0.041 7.29 2.32 12.17
4/21/2022 1:00:00 PM 7.14 44.852 0.041 7.27 2.33 12.14
4/21/2022 1:15:00 PM 7.18 44.924 0.041 7.27 2.35 12.1
4/21/2022 1:30:00 PM 7.22 44.996 0.041 7.26 2.4 12.09
4/21/2022 1:45:00 PM 7.25 45.05 0.041 7.25 2.38 12.05
4/21/2022 2:00:00 PM 7.29 45.122 0.04 7.22 3.95 12.03
4/21/2022 2:15:00 PM 7.32 45.176 0.041 7.24 2.4 12.01
4/21/2022 2:30:00 PM 7.35 45.23 0.041 7.23 2.4 12
4/21/2022 2:45:00 PM 7.38 45.284 0.041 7.24 2.42 11.99
4/21/2022 3:00:00 PM 7.41 45.338 0.041 7.23 2.4 11.97
4/21/2022 3:15:00 PM 7.42 45.356 0.041 7.23 2.48 11.95
4/21/2022 3:30:00 PM 7.43 45.374 0.041 7.23 2.48 11.94
4/21/2022 3:45:00 PM 7.44 45.392 0.041 7.21 2.52 11.92
4/21/2022 4:00:00 PM 7.45 45.41 0.041 7.22 2.53 11.9
4/21/2022 4:15:00 PM 7.46 45.428 0.041 7.2 2.52 11.89
4/21/2022 4:30:00 PM 7.46 45.428 0.041 7.2 2.59 11.87
4/21/2022 4:45:00 PM 7.47 45.446 0.041 7.19 2.52 11.84
4/21/2022 5:00:00 PM 7.47 45.446 0.041 7.18 2.51 11.82
4/21/2022 5:15:00 PM 7.47 45.446 0.041 7.17 2.53 11.81
4/21/2022 5:30:00 PM 7.47 45.446 0.041 7.17 2.58 11.8
4/21/2022 5:45:00 PM 7.47 45.446 0.041 7.15 2.56 11.79
4/21/2022 6:00:00 PM 7.48 45.464 0.041 7.15 2.59 11.77
4/21/2022 6:15:00 PM 7.48 45.464 0.041 7.14 2.55 11.76
4/21/2022 6:30:00 PM 7.49 45.482 0.042 7.14 2.6 11.74
4/21/2022 6:45:00 PM 7.49 45.482 0.042 7.12 2.67 11.71
4/21/2022 7:00:00 PM 7.49 45.482 0.042 7.11 2.64 11.68
4/21/2022 7:15:00 PM 7.48 45.464 0.042 7.1 2.61 11.65
4/21/2022 7:30:00 PM 7.47 45.446 0.039 7.07 4.25 11.63
4/21/2022 7:45:00 PM 7.46 45.428 0.042 7.08 2.66 11.61
4/21/2022 8:00:00 PM 7.44 45.392 0.042 7.06 2.55 11.58
4/21/2022 8:15:00 PM 7.42 45.356 0.042 7.05 2.6 11.56
4/21/2022 8:30:00 PM 7.41 45.338 0.042 7.04 2.72 11.54
4/21/2022 8:45:00 PM 7.39 45.302 0.042 7.03 2.64 11.53
4/21/2022 9:00:00 PM 7.38 45.284 0.042 7.02 2.61 11.52
4/21/2022 9:15:00 PM 7.37 45.266 0.042 7.02 2.62 11.51
4/21/2022 9:30:00 PM 7.36 45.248 0.042 7.01 2.68 11.5
4/21/2022 9:45:00 PM 7.36 45.248 0.042 7 2.7 11.5
4/21/2022 10:00:00 PM 7.35 45.23 0.042 7 2.6 11.5
4/21/2022 10:15:00 PM 7.34 45.212 0.042 6.99 2.65 11.5
4/21/2022 10:30:00 PM 7.33 45.194 0.042 6.99 2.66 11.5
4/21/2022 10:45:00 PM 7.33 45.194 0.042 6.98 2.66 11.5
4/21/2022 11:00:00 PM 7.31 45.158 0.042 6.97 2.62 11.5
4/21/2022 11:15:00 PM 7.29 45.122 0.042 6.97 2.62 11.5
4/21/2022 11:30:00 PM 7.27 45.086 0.042 6.97 2.65 11.5
4/21/2022 11:45:00 PM 7.25 45.05 0.042 6.97 2.59 11.51
4/22/2022 12:00:00 AM 7.25 45.05 0.042 6.96 2.56 11.51
4/22/2022 12:15:00 AM 7.24 45.032 0.042 6.97 2.6 11.52
4/22/2022 12:30:00 AM 7.23 45.014 0.042 6.97 2.56 11.52
4/22/2022 12:45:00 AM 7.22 44.996 0.042 6.97 2.63 11.52
4/22/2022 1:00:00 AM 7.21 44.978 0.042 6.97 2.62 11.53
4/22/2022 1:15:00 AM 7.2 44.96 0.043 6.97 2.6 11.53
4/22/2022 1:30:00 AM 7.18 44.924 0.043 6.96 2.61 11.54
4/22/2022 1:45:00 AM 7.17 44.906 0.043 6.96 2.61 11.54
4/22/2022 2:00:00 AM 7.15 44.87 0.043 6.97 2.55 11.55
4/22/2022 2:15:00 AM 7.14 44.852 0.043 6.97 2.6 11.55
4/22/2022 2:30:00 AM 7.12 44.816 0.043 6.97 2.67 11.56
4/22/2022 2:45:00 AM 7.1 44.78 0.043 6.97 2.55 11.56
4/22/2022 3:00:00 AM 7.08 44.744 0.043 6.98 2.61 11.57
4/22/2022 3:15:00 AM 7.05 44.69 0.043 6.97 2.69 11.57
4/22/2022 3:30:00 AM 7.03 44.654 0.043 6.98 2.62 11.59
4/22/2022 3:45:00 AM 7 44.6 0.043 6.98 2.56 11.6
4/22/2022 4:00:00 AM 6.97 44.546 0.043 6.98 2.58 11.61
4/22/2022 4:15:00 AM 6.94 44.492 0.043 6.98 2.63 11.62
4/22/2022 4:30:00 AM 6.91 44.438 0.043 6.98 2.64 11.63
4/22/2022 4:45:00 AM 6.87 44.366 0.043 6.99 2.53 11.65
4/22/2022 5:00:00 AM 6.84 44.312 0.043 6.98 2.54 11.66
4/22/2022 5:15:00 AM 6.81 44.258 0.043 6.98 2.62 11.67
4/22/2022 5:30:00 AM 6.77 44.186 0.043 6.98 2.54 11.69
4/22/2022 5:45:00 AM 6.75 44.15 0.043 6.99 2.55 11.7
4/22/2022 6:00:00 AM 6.71 44.078 0.043 6.99 2.62 11.71
4/22/2022 6:15:00 AM 6.67 44.006 0.043 6.98 2.68 11.73
4/22/2022 6:30:00 AM 6.64 43.952 0.043 7 2.47 11.75
4/22/2022 6:45:00 AM 6.6 43.88 0.043 6.98 2.55 11.78
4/22/2022 7:00:00 AM 6.58 43.844 0.043 7 2.56 11.81
4/22/2022 7:15:00 AM 6.55 43.79 0.043 7.02 2.51 11.88
4/22/2022 7:30:00 AM 6.54 43.772 0.043 7.04 2.5 11.93
4/22/2022 7:45:00 AM 6.54 43.772 0.042 7.05 2.53 11.99
4/22/2022 8:00:00 AM 6.54 43.772 0.042 7.08 2.45 12.06
4/22/2022 8:15:00 AM 6.56 43.808 0.042 7.1 2.5 12.12
4/22/2022 8:30:00 AM 6.58 43.844 0.042 7.12 2.47 12.18
4/22/2022 8:45:00 AM 6.59 43.862 0.042 7.15 2.47 12.23
4/22/2022 9:00:00 AM 6.63 43.934 0.042 7.17 2.5 12.27
4/22/2022 9:15:00 AM 6.68 44.024 0.042 7.18 2.47 12.28
4/22/2022 9:30:00 AM 6.76 44.168 0.042 7.19 2.48 12.28
4/22/2022 9:45:00 AM 6.83 44.294 0.042 7.21 2.43 12.28
4/22/2022 10:00:00 AM 6.93 44.474 0.042 7.22 2.41 12.28
4/22/2022 10:15:00 AM 7.06 44.708 0.042 7.23 2.37 12.26
4/22/2022 10:30:00 AM 7.19 44.942 0.042 7.24 2.43 12.25
4/22/2022 10:45:00 AM 7.35 45.23 0.042 7.26 2.35 12.24
4/22/2022 11:00:00 AM 7.52 45.536 0.042 7.26 2.38 12.21
4/22/2022 11:15:00 AM 7.71 45.878 0.042 7.27 2.28 12.18
4/22/2022 11:30:00 AM 7.92 46.256 0.042 7.28 2.35 12.13
4/22/2022 11:45:00 AM 8.12 46.616 0.042 7.28 2.33 12.09
4/22/2022 12:00:00 PM 8.34 47.012 0.042 7.3 2.34 12.04
4/22/2022 12:15:00 PM 8.57 47.426 0.041 7.31 2.33 11.99
4/22/2022 12:30:00 PM 8.81 47.858 0.041 7.31 2.35 11.94
4/22/2022 12:45:00 PM 9.05 48.29 0.041 7.3 2.32 11.88
4/22/2022 1:00:00 PM 9.29 48.722 0.041 7.32 2.31 11.82
4/22/2022 1:15:00 PM 9.53 49.154 0.041 7.32 2.31 11.75
4/22/2022 1:30:00 PM 9.78 49.604 0.041 7.33 2.33 11.7
4/22/2022 1:45:00 PM 10.01 50.018 0.041 7.31 2.33 11.63
4/22/2022 2:00:00 PM 10.22 50.396 0.039 7.3 4.11 11.58
4/22/2022 2:15:00 PM 10.44 50.792 0.039 7.33 4.11 11.52
4/22/2022 2:30:00 PM 10.64 51.152 0.041 7.34 2.43 11.46
4/22/2022 2:45:00 PM 10.83 51.494 0.041 7.35 2.41 11.4
4/22/2022 3:00:00 PM 11.01 51.818 0.041 7.36 2.44 11.34
4/22/2022 3:15:00 PM 11.18 52.124 0.041 7.34 2.41 11.3
4/22/2022 3:30:00 PM 11.33 52.394 0.041 7.37 2.48 11.25
4/22/2022 3:45:00 PM 11.48 52.664 0.04 7.37 4.14 11.22
4/22/2022 4:00:00 PM 11.58 52.844 0.041 7.38 2.49 11.18
4/22/2022 4:15:00 PM 11.63 52.934 0.041 7.38 2.55 11.14
4/22/2022 4:30:00 PM 11.66 52.988 0.04 7.36 4.1 11.12
4/22/2022 4:45:00 PM 11.68 53.024 0.039 7.35 4.15 11.09
4/22/2022 5:00:00 PM 11.66 52.988 0.041 7.36 2.55 11.06
4/22/2022 5:15:00 PM 11.64 52.952 0.04 7.35 4.38 11.04
4/22/2022 5:30:00 PM 11.6 52.88 0.039 7.34 4.27 11.02
4/22/2022 5:45:00 PM 11.56 52.808 0.039 7.32 4.23 11
4/22/2022 6:00:00 PM 11.51 52.718 0.041 7.3 2.63 10.99
4/22/2022 6:15:00 PM 11.45 52.61 0.041 7.31 2.57 10.97
4/22/2022 6:30:00 PM 11.38 52.484 0.04 7.27 4.19 10.95
4/22/2022 6:45:00 PM 11.29 52.322 0.041 7.26 2.91 10.92
4/22/2022 7:00:00 PM 11.2 52.16 0.041 7.24 3.18 10.89
4/22/2022 7:15:00 PM 11.1 51.98 0.041 7.2 2.68 10.86
4/22/2022 7:30:00 PM 10.98 51.764 0.041 7.18 2.71 10.83
4/22/2022 7:45:00 PM 10.87 51.566 0.041 7.15 2.72 10.8
4/22/2022 8:00:00 PM 10.74 51.332 0.041 7.12 2.69 10.77
4/22/2022 8:15:00 PM 10.61 51.098 0.042 7.1 2.74 10.75
4/22/2022 8:30:00 PM 10.48 50.864 0.042 7.06 2.73 10.74
4/22/2022 8:45:00 PM 10.35 50.63 0.042 7.06 2.71 10.74
4/22/2022 9:00:00 PM 10.22 50.396 0.042 7.05 2.82 10.74
4/22/2022 9:15:00 PM 10.09 50.162 0.042 7.04 2.89 10.76
4/22/2022 9:30:00 PM 9.96 49.928 0.042 7.02 2.8 10.78
4/22/2022 9:45:00 PM 9.83 49.694 0.042 7.02 2.82 10.81
4/22/2022 10:00:00 PM 9.71 49.478 0.041 7 4.65 10.83
4/22/2022 10:15:00 PM 9.58 49.244 0.04 7 4.6 10.86
4/22/2022 10:30:00 PM 9.46 49.028 0.042 7 2.71 10.89
4/22/2022 10:45:00 PM 9.34 48.812 0.042 7.01 2.92 10.92
4/22/2022 11:00:00 PM 9.24 48.632 0.042 7 2.82 10.95
4/22/2022 11:15:00 PM 9.15 48.47 0.042 7 2.9 10.98
4/22/2022 11:30:00 PM 9.05 48.29 0.042 6.99 2.86 11.01
4/22/2022 11:45:00 PM 8.96 48.128 0.042 7 2.84 11.04
4/23/2022 12:00:00 AM 8.88 47.984 0.042 6.99 2.86 11.06
4/23/2022 12:15:00 AM 8.8 47.84 0.043 6.99 2.79 11.08
4/23/2022 12:30:00 AM 8.72 47.696 0.043 7 2.89 11.11
4/23/2022 12:45:00 AM 8.65 47.57 0.043 6.99 2.91 11.13
4/23/2022 1:00:00 AM 8.57 47.426 0.043 6.99 2.9 11.15
4/23/2022 1:15:00 AM 8.51 47.318 0.043 6.99 2.79 11.17
4/23/2022 1:30:00 AM 8.44 47.192 0.043 6.99 2.87 11.19
4/23/2022 1:45:00 AM 8.38 47.084 0.043 6.98 2.83 11.21
4/23/2022 2:00:00 AM 8.32 46.976 0.043 6.98 2.86 11.22
4/23/2022 2:15:00 AM 8.26 46.868 0.043 6.99 2.85 11.24
4/23/2022 2:30:00 AM 8.21 46.778 0.043 6.99 2.75 11.25
4/23/2022 2:45:00 AM 8.16 46.688 0.043 7 2.79 11.27
4/23/2022 3:00:00 AM 8.11 46.598 0.043 7 2.78 11.29
4/23/2022 3:15:00 AM 8.07 46.526 0.043 6.99 2.83 11.3
4/23/2022 3:30:00 AM 8.02 46.436 0.043 6.99 2.84 11.31
4/23/2022 3:45:00 AM 7.98 46.364 0.043 6.99 2.77 11.33
4/23/2022 4:00:00 AM 7.94 46.292 0.043 6.99 2.79 11.34
4/23/2022 4:15:00 AM 7.91 46.238 0.043 6.99 2.83 11.34
4/23/2022 4:30:00 AM 7.87 46.166 0.043 7 2.77 11.35
4/23/2022 4:45:00 AM 7.84 46.112 0.043 6.99 2.81 11.37
4/23/2022 5:00:00 AM 7.81 46.058 0.043 6.99 2.74 11.37
4/23/2022 5:15:00 AM 7.79 46.022 0.043 7 2.76 11.38
4/23/2022 5:30:00 AM 7.77 45.986 0.043 7 2.73 11.38
4/23/2022 5:45:00 AM 7.74 45.932 0.043 6.99 2.77 11.39
4/23/2022 6:00:00 AM 7.72 45.896 0.043 6.99 2.75 11.39
4/23/2022 6:15:00 AM 7.7 45.86 0.043 6.99 2.77 11.4
4/23/2022 6:30:00 AM 7.69 45.842 0.043 6.99 2.82 11.41
4/23/2022 6:45:00 AM 7.67 45.806 0.043 6.99 2.81 11.42
4/23/2022 7:00:00 AM 7.66 45.788 0.043 7 2.8 11.44
4/23/2022 7:15:00 AM 7.65 45.77 0.043 7 2.86 11.46
4/23/2022 7:30:00 AM 7.64 45.752 0.043 7.02 2.73 11.5
4/23/2022 7:45:00 AM 7.65 45.77 0.043 7.04 2.68 11.55
4/23/2022 8:00:00 AM 7.66 45.788 0.043 7.05 2.77 11.61
4/23/2022 8:15:00 AM 7.67 45.806 0.042 7.07 2.62 11.66
4/23/2022 8:30:00 AM 7.69 45.842 0.042 7.09 2.62 11.71
4/23/2022 8:45:00 AM 7.71 45.878 0.042 7.11 2.73 11.76
4/23/2022 9:00:00 AM 7.75 45.95 0.042 7.15 2.65 11.82
4/23/2022 9:15:00 AM 7.8 46.04 0.042 7.17 2.71 11.87
4/23/2022 9:30:00 AM 7.87 46.166 0.042 7.2 2.65 11.91
4/23/2022 9:45:00 AM 7.95 46.31 0.042 7.24 2.71 11.94
4/23/2022 10:00:00 AM 8.03 46.454 0.042 7.26 2.58 11.96
4/23/2022 10:15:00 AM 8.14 46.652 0.042 7.27 2.54 11.95
4/23/2022 10:30:00 AM 8.27 46.886 0.042 7.29 2.63 11.95
4/23/2022 10:45:00 AM 8.38 47.084 0.042 7.31 2.7 11.93
4/23/2022 11:00:00 AM 8.51 47.318 0.042 7.32 2.62 11.92
4/23/2022 11:15:00 AM 8.62 47.516 0.042 7.34 2.54 11.9
4/23/2022 11:30:00 AM 8.75 47.75 0.042 7.35 2.67 11.88
4/23/2022 11:45:00 AM 8.91 48.038 0.041 7.36 2.59 11.84
4/23/2022 12:00:00 PM 9.01 48.218 0.041 7.36 2.66 11.83
4/23/2022 12:15:00 PM 9.1 48.38 0.041 7.36 2.65 11.79
4/23/2022 12:30:00 PM 9.24 48.632 0.041 7.37 2.64 11.76
4/23/2022 12:45:00 PM 9.35 48.83 0.041 7.36 2.59 11.72
4/23/2022 1:00:00 PM 9.42 48.956 0.041 7.33 2.61 11.65
4/23/2022 1:15:00 PM 9.49 49.082 0.041 7.33 2.66 11.61
4/23/2022 1:30:00 PM 9.5 49.1 0.041 7.32 2.66 11.55
4/23/2022 1:45:00 PM 9.52 49.136 0.041 7.29 2.64 11.5
4/23/2022 2:00:00 PM 9.52 49.136 0.041 7.28 2.68 11.46
4/23/2022 2:15:00 PM 9.54 49.172 0.041 7.29 2.6 11.46
4/23/2022 2:30:00 PM 9.65 49.37 0.041 7.3 2.68 11.48
4/23/2022 2:45:00 PM 9.73 49.514 0.041 7.32 2.64 11.49
4/23/2022 3:00:00 PM 9.94 49.892 0.04 7.33 4.5 11.49
4/23/2022 3:15:00 PM 10.08 50.144 0.041 7.35 2.62 11.47
4/23/2022 3:30:00 PM 10.25 50.45 0.04 7.35 4.4 11.45
4/23/2022 3:45:00 PM 10.36 50.648 0.039 7.35 4.39 11.41
4/23/2022 4:00:00 PM 10.44 50.792 0.041 7.37 2.77 11.38
4/23/2022 4:15:00 PM 10.55 50.99 0.041 7.37 2.74 11.35
4/23/2022 4:30:00 PM 10.65 51.17 0.041 7.35 2.65 11.32
4/23/2022 4:45:00 PM 10.76 51.368 0.04 7.34 4.41 11.27
4/23/2022 5:00:00 PM 10.88 51.584 0.041 7.35 2.69 11.23
4/23/2022 5:15:00 PM 10.94 51.692 0.041 7.34 2.78 11.19
4/23/2022 5:30:00 PM 11 51.8 0.041 7.34 2.66 11.15
4/23/2022 5:45:00 PM 11.02 51.836 0.04 7.31 4.45 11.11
4/23/2022 6:00:00 PM 11.02 51.836 0.041 7.32 2.75 11.08
4/23/2022 6:15:00 PM 10.99 51.782 0.041 7.29 2.76 11.04
4/23/2022 6:30:00 PM 10.96 51.728 0.041 7.25 2.7 11.01
4/23/2022 6:45:00 PM 10.91 51.638 0.04 7.24 4.6 10.97
4/23/2022 7:00:00 PM 10.86 51.548 0.039 7.2 4.68 10.93
4/23/2022 7:15:00 PM 10.79 51.422 0.041 7.19 2.73 10.9
4/23/2022 7:30:00 PM 10.72 51.296 0.039 7.15 4.45 10.86
4/23/2022 7:45:00 PM 10.65 51.17 0.041 7.14 2.77 10.83
4/23/2022 8:00:00 PM 10.56 51.008 0.04 7.1 4.64 10.79
4/23/2022 8:15:00 PM 10.46 50.828 0.039 7.06 4.52 10.75
4/23/2022 8:30:00 PM 10.37 50.666 0.039 7.04 4.64 10.73
4/23/2022 8:45:00 PM 10.27 50.486 0.042 7.03 2.9 10.72
4/23/2022 9:00:00 PM 10.18 50.324 0.04 7.01 4.58 10.71
4/23/2022 9:15:00 PM 10.08 50.144 0.042 7.01 2.81 10.71
4/23/2022 9:30:00 PM 9.98 49.964 0.042 6.99 2.93 10.72
4/23/2022 9:45:00 PM 9.89 49.802 0.042 7 2.93 10.73
4/23/2022 10:00:00 PM 9.79 49.622 0.042 6.99 2.85 10.74
4/23/2022 10:15:00 PM 9.7 49.46 0.041 6.97 4.78 10.76
4/23/2022 10:30:00 PM 9.61 49.298 0.042 6.99 2.91 10.78
4/23/2022 10:45:00 PM 9.52 49.136 0.042 6.98 2.87 10.8
4/23/2022 11:00:00 PM 9.43 48.974 0.042 6.98 2.95 10.82
4/23/2022 11:15:00 PM 9.34 48.812 0.042 6.98 2.91 10.85
4/23/2022 11:30:00 PM 9.24 48.632 0.042 6.98 3.06 10.88
4/23/2022 11:45:00 PM 9.15 48.47 0.042 6.98 2.93 10.9
4/24/2022 12:00:00 AM 9.06 48.308 0.042 6.98 2.97 10.92
4/24/2022 12:15:00 AM 8.98 48.164 0.042 6.98 2.93 10.95
4/24/2022 12:30:00 AM 8.89 48.002 0.04 6.95 4.68 10.97
4/24/2022 12:45:00 AM 8.82 47.876 0.042 6.98 3.02 10.99
4/24/2022 1:00:00 AM 8.75 47.75 0.042 6.99 2.94 11.01
4/24/2022 1:15:00 AM 8.68 47.624 0.042 6.96 2.88 11.03
4/24/2022 1:30:00 AM 8.61 47.498 0.042 6.98 3.03 11.04
4/24/2022 1:45:00 AM 8.55 47.39 0.042 6.98 3 11.06
4/24/2022 2:00:00 AM 8.5 47.3 0.042 6.97 2.89 11.07
4/24/2022 2:15:00 AM 8.45 47.21 0.042 6.96 2.95 11.08
4/24/2022 2:30:00 AM 8.4 47.12 0.042 6.97 2.87 11.1
4/24/2022 2:45:00 AM 8.36 47.048 0.042 6.97 2.9 11.11
4/24/2022 3:00:00 AM 8.32 46.976 0.042 6.96 2.94 11.12
4/24/2022 3:15:00 AM 8.27 46.886 0.042 6.96 2.9 11.13
4/24/2022 3:30:00 AM 8.23 46.814 0.042 6.97 2.9 11.15
4/24/2022 3:45:00 AM 8.18 46.724 0.042 6.96 2.84 11.16
4/24/2022 4:00:00 AM 8.15 46.67 0.042 6.96 2.95 11.17
4/24/2022 4:15:00 AM 8.11 46.598 0.042 6.97 2.81 11.18
4/24/2022 4:30:00 AM 8.07 46.526 0.043 6.96 2.83 11.19
4/24/2022 4:45:00 AM 8.03 46.454 0.042 6.96 2.93 11.21
4/24/2022 5:00:00 AM 7.99 46.382 0.042 6.96 2.91 11.22
4/24/2022 5:15:00 AM 7.96 46.328 0.042 6.95 2.84 11.22
4/24/2022 5:30:00 AM 7.93 46.274 0.042 6.96 2.99 11.24
4/24/2022 5:45:00 AM 7.89 46.202 0.042 6.96 2.79 11.25
4/24/2022 6:00:00 AM 7.86 46.148 0.042 6.95 2.9 11.25
4/24/2022 6:15:00 AM 7.82 46.076 0.042 6.96 2.85 11.27
4/24/2022 6:30:00 AM 7.78 46.004 0.042 6.97 2.9 11.28
4/24/2022 6:45:00 AM 7.75 45.95 0.042 6.96 2.79 11.32
4/24/2022 7:00:00 AM 7.72 45.896 0.042 6.98 2.85 11.35
4/24/2022 7:15:00 AM 7.69 45.842 0.042 6.99 2.77 11.39
4/24/2022 7:30:00 AM 7.68 45.824 0.042 7.01 2.77 11.45
4/24/2022 7:45:00 AM 7.68 45.824 0.042 7.01 2.71 11.51
4/24/2022 8:00:00 AM 7.69 45.842 0.042 7.05 2.77 11.57
4/24/2022 8:15:00 AM 7.72 45.896 0.042 7.07 2.77 11.62
4/24/2022 8:30:00 AM 7.76 45.968 0.042 7.09 2.67 11.67
4/24/2022 8:45:00 AM 7.81 46.058 0.042 7.12 2.66 11.71
4/24/2022 9:00:00 AM 7.88 46.184 0.042 7.14 2.67 11.74
4/24/2022 9:15:00 AM 7.97 46.346 0.042 7.15 2.71 11.76
4/24/2022 9:30:00 AM 8.08 46.544 0.042 7.18 2.79 11.77
4/24/2022 9:45:00 AM 8.2 46.76 0.042 7.2 2.65 11.78
4/24/2022 10:00:00 AM 8.35 47.03 0.042 7.21 2.68 11.76
4/24/2022 10:15:00 AM 8.52 47.336 0.042 7.24 2.58 11.75
4/24/2022 10:30:00 AM 8.7 47.66 0.042 7.26 2.64 11.73
4/24/2022 10:45:00 AM 8.9 48.02 0.042 7.28 2.6 11.71
4/24/2022 11:00:00 AM 9.12 48.416 0.042 7.29 2.63 11.67
4/24/2022 11:15:00 AM 9.36 48.848 0.041 7.29 2.79 11.63
4/24/2022 11:30:00 AM 9.6 49.28 0.041 7.3 2.6 11.58
4/24/2022 11:45:00 AM 9.88 49.784 0.041 7.3 2.58 11.52
4/24/2022 12:00:00 PM 10.16 50.288 0.041 7.32 2.57 11.47
4/24/2022 12:15:00 PM 10.45 50.81 0.041 7.32 2.59 11.41
4/24/2022 12:30:00 PM 10.75 51.35 0.041 7.33 2.59 11.34
4/24/2022 12:45:00 PM 11.04 51.872 0.041 7.33 2.66 11.27
4/24/2022 1:00:00 PM 11.32 52.376 0.041 7.33 2.66 11.2
4/24/2022 1:15:00 PM 11.51 52.718 0.041 7.34 2.65 11.14
4/24/2022 1:30:00 PM 11.8 53.24 0.041 7.36 2.54 11.08
4/24/2022 1:45:00 PM 12.03 53.654 0.04 7.33 4.3 11.01
4/24/2022 2:00:00 PM 12.37 54.266 0.039 7.36 4.51 10.96
4/24/2022 2:15:00 PM 12.62 54.716 0.041 7.36 2.68 10.88
4/24/2022 2:30:00 PM 12.84 55.112 0.041 7.37 2.66 10.81
4/24/2022 2:45:00 PM 13.08 55.544 0.04 7.35 4.41 10.76
4/24/2022 3:00:00 PM 13.29 55.922 0.041 7.35 2.68 10.66
4/24/2022 3:15:00 PM 13.55 56.39 0.04 7.35 4.37 10.6
4/24/2022 3:30:00 PM 13.71 56.678 0.041 7.36 2.76 10.56
4/24/2022 3:45:00 PM 13.84 56.912 0.041 7.36 2.67 10.5
4/24/2022 4:00:00 PM 13.99 57.182 0.041 7.35 2.72 10.47
4/24/2022 4:15:00 PM 14.07 57.326 0.041 7.35 2.71 10.42
4/24/2022 4:30:00 PM 14.2 57.56 0.041 7.35 2.74 10.39
4/24/2022 4:45:00 PM 14.26 57.668 0.041 7.35 2.71 10.35
4/24/2022 5:00:00 PM 14.24 57.632 0.041 7.32 2.87 10.29
4/24/2022 5:15:00 PM 14.32 57.776 0.041 7.33 2.69 10.26
4/24/2022 5:30:00 PM 14.35 57.83 0.041 7.32 2.82 10.25
4/24/2022 5:45:00 PM 14.36 57.848 0.041 7.31 2.83 10.21
4/24/2022 6:00:00 PM 14.35 57.83 0.041 7.3 2.83 10.19
4/24/2022 6:15:00 PM 14.33 57.794 0.04 7.27 4.6 10.17
4/24/2022 6:30:00 PM 14.29 57.722 0.04 7.25 4.63 10.13
4/24/2022 6:45:00 PM 14.23 57.614 0.041 7.25 2.87 10.09
4/24/2022 7:00:00 PM 14.14 57.452 0.039 7.21 4.46 10.05
4/24/2022 7:15:00 PM 14.04 57.272 0.041 7.18 2.85 10.01
4/24/2022 7:30:00 PM 13.93 57.074 0.04 7.14 4.59 9.97
4/24/2022 7:45:00 PM 13.82 56.876 0.041 7.13 2.94 9.94
4/24/2022 8:00:00 PM 13.69 56.642 0.04 7.08 4.62 9.91
4/24/2022 8:15:00 PM 13.57 56.426 0.042 7.07 2.91 9.89
4/24/2022 8:30:00 PM 13.45 56.21 0.042 7.06 2.94 9.88
4/24/2022 8:45:00 PM 13.32 55.976 0.042 7.04 2.99 9.87
4/24/2022 9:00:00 PM 13.2 55.76 0.041 7.02 4.76 9.88
4/24/2022 9:15:00 PM 13.09 55.562 0.04 7.01 4.82 9.89
4/24/2022 9:30:00 PM 12.96 55.328 0.04 6.99 4.77 9.91
4/24/2022 9:45:00 PM 12.85 55.13 0.04 6.98 4.87 9.93
4/24/2022 10:00:00 PM 12.74 54.932 0.042 6.99 3.08 9.95
4/24/2022 10:15:00 PM 12.65 54.77 0.042 6.99 3.03 9.96
4/24/2022 10:30:00 PM 12.54 54.572 0.041 6.96 5.08 9.98
4/24/2022 10:45:00 PM 12.45 54.41 0.04 6.97 4.97 10
4/24/2022 11:00:00 PM 12.34 54.212 0.042 6.98 3.07 10.02
4/24/2022 11:15:00 PM 12.24 54.032 0.042 6.98 3.14 10.05
4/24/2022 11:30:00 PM 12.14 53.852 0.042 6.97 3.14 10.07
4/24/2022 11:45:00 PM 12.03 53.654 0.042 6.96 3.19 10.09
4/25/2022 12:00:00 AM 11.93 53.474 0.041 6.96 5.45 10.12
4/25/2022 12:15:00 AM 11.83 53.294 0.042 6.96 3.17 10.16
4/25/2022 12:30:00 AM 11.72 53.096 0.042 6.95 3.13 10.18
4/25/2022 12:45:00 AM 11.62 52.916 0.042 6.97 3.27 10.21
4/25/2022 1:00:00 AM 11.52 52.736 0.042 6.97 3.15 10.23
4/25/2022 1:15:00 AM 11.41 52.538 0.043 6.97 3.15 10.26
4/25/2022 1:30:00 AM 11.32 52.376 0.043 6.94 3.16 10.28
4/25/2022 1:45:00 AM 11.22 52.196 0.043 6.96 3.12 10.3
4/25/2022 2:00:00 AM 11.13 52.034 0.043 6.97 3.27 10.32
4/25/2022 2:15:00 AM 11.03 51.854 0.043 6.96 3.08 10.34
4/25/2022 2:30:00 AM 10.94 51.692 0.043 6.96 3.09 10.37
4/25/2022 2:45:00 AM 10.85 51.53 0.042 6.94 4.81 10.39
4/25/2022 3:00:00 AM 10.76 51.368 0.043 6.95 3.2 10.42
4/25/2022 3:15:00 AM 10.67 51.206 0.043 6.96 3.16 10.44
4/25/2022 3:30:00 AM 10.58 51.044 0.043 6.96 3.08 10.47
4/25/2022 3:45:00 AM 10.5 50.9 0.043 6.95 3.08 10.49
4/25/2022 4:00:00 AM 10.41 50.738 0.043 6.96 3.05 10.51
4/25/2022 4:15:00 AM 10.34 50.612 0.042 6.93 4.75 10.53
4/25/2022 4:30:00 AM 10.26 50.468 0.043 6.94 3.1 10.55
4/25/2022 4:45:00 AM 10.19 50.342 0.043 6.96 3.11 10.57
4/25/2022 5:00:00 AM 10.13 50.234 0.043 6.96 3.04 10.58
4/25/2022 5:15:00 AM 10.07 50.126 0.043 6.96 3.11 10.6
4/25/2022 5:30:00 AM 10.01 50.018 0.043 6.97 3.14 10.62
4/25/2022 5:45:00 AM 9.96 49.928 0.043 6.96 3.13 10.63
4/25/2022 6:00:00 AM 9.9 49.82 0.043 6.98 3.03 10.64
4/25/2022 6:15:00 AM 9.85 49.73 0.043 6.97 2.99 10.66
4/25/2022 6:30:00 AM 9.79 49.622 0.043 6.96 3.22 10.68
4/25/2022 6:45:00 AM 9.75 49.55 0.043 6.99 3.05 10.72
4/25/2022 7:00:00 AM 9.71 49.478 0.042 7 3.04 10.76
4/25/2022 7:15:00 AM 9.69 49.442 0.042 7.01 2.98 10.82
4/25/2022 7:30:00 AM 9.67 49.406 0.042 7.02 2.98 10.89
4/25/2022 7:45:00 AM 9.67 49.406 0.042 7.05 2.94 10.97
4/25/2022 8:00:00 AM 9.69 49.442 0.042 7.08 3.08 11.04
4/25/2022 8:15:00 AM 9.72 49.496 0.042 7.11 3.06 11.1
4/25/2022 8:30:00 AM 9.76 49.568 0.042 7.14 2.87 11.17
4/25/2022 8:45:00 AM 9.83 49.694 0.042 7.19 2.86 11.22
4/25/2022 9:00:00 AM 9.89 49.802 0.042 7.21 2.96 11.26
4/25/2022 9:15:00 AM 9.97 49.946 0.042 7.24 2.87 11.28
4/25/2022 9:30:00 AM 10.05 50.09 0.042 7.24 2.84 11.27
4/25/2022 9:45:00 AM 10.16 50.288 0.04 7.25 4.49 11.27
4/25/2022 10:00:00 AM 10.27 50.486 0.042 7.27 2.82 11.25
4/25/2022 10:15:00 AM 10.41 50.738 0.041 7.27 4.42 11.24
4/25/2022 10:30:00 AM 10.56 51.008 0.039 7.27 4.46 11.22
4/25/2022 10:45:00 AM 10.75 51.35 0.042 7.31 2.8 11.2
4/25/2022 11:00:00 AM 10.95 51.71 0.042 7.31 2.82 11.17
4/25/2022 11:15:00 AM 11.16 52.088 0.042 7.33 2.75 11.14
4/25/2022 11:30:00 AM 11.38 52.484 0.04 7.33 4.52 11.11
4/25/2022 11:45:00 AM 11.61 52.898 0.039 7.34 4.59 11.06
4/25/2022 12:00:00 PM 11.87 53.366 0.039 7.35 4.45 11.02
4/25/2022 12:15:00 PM 12.12 53.816 0.041 7.35 2.76 10.96
4/25/2022 12:30:00 PM 12.37 54.266 0.039 7.35 4.44 10.91
4/25/2022 12:45:00 PM 12.64 54.752 0.039 7.36 4.5 10.86
4/25/2022 1:00:00 PM 12.9 55.22 0.041 7.39 2.77 10.8
4/25/2022 1:15:00 PM 13.15 55.67 0.04 7.35 4.44 10.74
4/25/2022 1:30:00 PM 13.42 56.156 0.039 7.37 4.26 10.68
4/25/2022 1:45:00 PM 13.67 56.606 0.041 7.39 2.8 10.62
4/25/2022 2:00:00 PM 13.91 57.038 0.041 7.39 2.73 10.57
4/25/2022 2:15:00 PM 14.13 57.434 0.041 7.39 2.8 10.52
4/25/2022 2:30:00 PM 14.36 57.848 0.041 7.41 2.76 10.47
4/25/2022 2:45:00 PM 14.56 58.208 0.041 7.39 2.97 10.4
4/25/2022 3:00:00 PM 14.75 58.55 0.041 7.38 2.8 10.36
4/25/2022 3:15:00 PM 14.92 58.856 0.041 7.39 2.76 10.31
4/25/2022 3:30:00 PM 15.08 59.144 0.041 7.39 2.85 10.26
4/25/2022 3:45:00 PM 15.22 59.396 0.04 7.38 4.51 10.22
4/25/2022 4:00:00 PM 15.34 59.612 0.04 7.36 4.48 10.18
4/25/2022 4:15:00 PM 15.45 59.81 0.039 7.37 4.6 10.14
4/25/2022 4:30:00 PM 15.5 59.9 0.041 7.37 2.82 10.11
4/25/2022 4:45:00 PM 15.54 59.972 0.04 7.36 4.35 10.08
4/25/2022 5:00:00 PM 15.54 59.972 0.041 7.36 2.92 10.04
4/25/2022 5:15:00 PM 15.52 59.936 0.04 7.35 4.59 10.02
4/25/2022 5:30:00 PM 15.45 59.81 0.041 7.34 2.89 9.98
4/25/2022 5:45:00 PM 15.4 59.72 0.04 7.31 4.71 9.96
4/25/2022 6:00:00 PM 15.32 59.576 0.041 7.31 2.96 9.95
4/25/2022 6:15:00 PM 15.26 59.468 0.041 7.32 2.95 9.95
4/25/2022 6:30:00 PM 15.18 59.324 0.04 7.29 4.51 9.94
4/25/2022 6:45:00 PM 15.09 59.162 0.041 7.28 2.94 9.91
4/25/2022 7:00:00 PM 15 59 0.04 7.25 4.53 9.87
4/25/2022 7:15:00 PM 14.87 58.766 0.041 7.21 2.95 9.83
4/25/2022 7:30:00 PM 14.74 58.532 0.041 7.19 2.96 9.79
4/25/2022 7:45:00 PM 14.61 58.298 0.041 7.17 2.9 9.76
4/25/2022 8:00:00 PM 14.46 58.028 0.041 7.12 4.47 9.73
4/25/2022 8:15:00 PM 14.31 57.758 0.042 7.1 2.91 9.71
4/25/2022 8:30:00 PM 14.16 57.488 0.042 7.09 2.97 9.7
4/25/2022 8:45:00 PM 14.02 57.236 0.042 7.06 3.09 9.7
4/25/2022 9:00:00 PM 13.9 57.02 0.042 7.06 3.09 9.7
4/25/2022 9:15:00 PM 13.77 56.786 0.042 7.05 3.2 9.71
4/25/2022 9:30:00 PM 13.63 56.534 0.042 7.06 3.14 9.73
4/25/2022 9:45:00 PM 13.5 56.3 0.041 7.03 4.9 9.75
4/25/2022 10:00:00 PM 13.36 56.048 0.04 7.03 4.84 9.79
4/25/2022 10:15:00 PM 13.22 55.796 0.042 7.04 3.22 9.81
4/25/2022 10:30:00 PM 13.07 55.526 0.042 7.04 3.19 9.85
4/25/2022 10:45:00 PM 12.93 55.274 0.041 7.01 4.94 9.88
4/25/2022 11:00:00 PM 12.8 55.04 0.04 7.01 4.91 9.92
4/25/2022 11:15:00 PM 12.66 54.788 0.042 7.04 3.23 9.94
4/25/2022 11:30:00 PM 12.54 54.572 0.041 7.02 4.76 9.97
4/25/2022 11:45:00 PM 12.42 54.356 0.043 7.03 3.28 10
4/26/2022 12:00:00 AM 12.3 54.14 0.04 7.02 4.76 10.03
4/26/2022 12:15:00 AM 12.21 53.978 0.043 7.02 3.22 10.04
4/26/2022 12:30:00 AM 12.12 53.816 0.043 7.04 3.22 10.07
4/26/2022 12:45:00 AM 12.04 53.672 0.043 7.03 3.24 10.09
4/26/2022 1:00:00 AM 11.97 53.546 0.043 7.03 3.15 10.11
4/26/2022 1:15:00 AM 11.91 53.438 0.043 7.03 3.16 10.13
4/26/2022 1:30:00 AM 11.85 53.33 0.043 7.01 3.19 10.14
4/26/2022 1:45:00 AM 11.79 53.222 0.043 7.01 3.12 10.16
4/26/2022 2:00:00 AM 11.73 53.114 0.043 7.02 3.16 10.17
4/26/2022 2:15:00 AM 11.68 53.024 0.043 7.02 3.16 10.19
4/26/2022 2:30:00 AM 11.62 52.916 0.042 7.01 4.95 10.2
4/26/2022 2:45:00 AM 11.57 52.826 0.04 7.01 5.11 10.21
4/26/2022 3:00:00 AM 11.51 52.718 0.043 7.02 3.08 10.22
4/26/2022 3:15:00 AM 11.46 52.628 0.043 7 3.17 10.23
4/26/2022 3:30:00 AM 11.41 52.538 0.043 7 3.23 10.25
4/26/2022 3:45:00 AM 11.37 52.466 0.043 7 3.19 10.26
4/26/2022 4:00:00 AM 11.33 52.394 0.042 7 4.82 10.26
4/26/2022 4:15:00 AM 11.29 52.322 0.043 7.01 3.13 10.27
4/26/2022 4:30:00 AM 11.26 52.268 0.04 6.99 4.75 10.28
4/26/2022 4:45:00 AM 11.23 52.214 0.041 6.99 4.85 10.29
4/26/2022 5:00:00 AM 11.21 52.178 0.041 6.97 4.77 10.29
4/26/2022 5:15:00 AM 11.18 52.124 0.041 6.98 4.65 10.3
4/26/2022 5:30:00 AM 11.15 52.07 0.04 6.99 4.82 10.31
4/26/2022 5:45:00 AM 11.13 52.034 0.04 6.99 4.79 10.31
4/26/2022 6:00:00 AM 11.11 51.998 0.04 6.99 6.02 10.32
4/26/2022 6:15:00 AM 11.08 51.944 0.043 6.99 3.2 10.33
4/26/2022 6:30:00 AM 11.06 51.908 0.043 7.01 3.12 10.33
4/26/2022 6:45:00 AM 11.04 51.872 0.043 7 3.19 10.34
4/26/2022 7:00:00 AM 11.02 51.836 0.042 6.98 4.82 10.36
4/26/2022 7:15:00 AM 11 51.8 0.041 6.99 4.8 10.38
4/26/2022 7:30:00 AM 10.98 51.764 0.04 6.99 4.77 10.41
4/26/2022 7:45:00 AM 10.96 51.728 0.04 7 4.79 10.44
4/26/2022 8:00:00 AM 10.94 51.692 0.043 7.04 3.05 10.5
4/26/2022 8:15:00 AM 10.93 51.674 0.043 7.07 3.02 10.56
4/26/2022 8:30:00 AM 10.92 51.656 0.043 7.1 3.08 10.61
4/26/2022 8:45:00 AM 10.9 51.62 0.042 7.09 4.69 10.65
4/26/2022 9:00:00 AM 10.91 51.638 0.042 7.12 3.06 10.71
4/26/2022 9:15:00 AM 10.89 51.602 0.042 7.15 3.06 10.74
4/26/2022 9:30:00 AM 10.91 51.638 0.042 7.17 3.03 10.82
4/26/2022 9:45:00 AM 10.96 51.728 0.042 7.21 2.98 10.9
4/26/2022 10:00:00 AM 11.03 51.854 0.042 7.26 2.99 10.96
4/26/2022 10:15:00 AM 11.08 51.944 0.042 7.29 2.9 10.99
4/26/2022 10:30:00 AM 11.11 51.998 0.042 7.3 3.03 11
4/26/2022 10:45:00 AM 11.14 52.052 0.042 7.3 2.99 11.01
4/26/2022 11:00:00 AM 11.16 52.088 0.042 7.31 2.95 11
4/26/2022 11:15:00 AM 11.19 52.142 0.042 7.32 2.92 10.99
4/26/2022 11:30:00 AM 11.19 52.142 0.042 7.32 3.01 10.98
4/26/2022 11:45:00 AM 11.19 52.142 0.042 7.3 2.92 10.96
4/26/2022 12:00:00 PM 11.21 52.178 0.041 7.3 4.59 10.96
4/26/2022 12:15:00 PM 11.27 52.286 0.039 7.31 4.48 11
4/26/2022 12:30:00 PM 11.33 52.394 0.039 7.35 4.53 11.02
4/26/2022 12:45:00 PM 11.39 52.502 0.039 7.37 4.49 11.02
4/26/2022 1:00:00 PM 11.45 52.61 0.041 7.38 2.93 11.01
4/26/2022 1:15:00 PM 11.5 52.7 0.041 7.39 2.93 11
4/26/2022 1:30:00 PM 11.5 52.7 0.041 7.35 4.39 10.96
4/26/2022 1:45:00 PM 11.49 52.682 0.039 7.35 4.51 10.92
4/26/2022 2:00:00 PM 11.5 52.7 0.041 7.34 2.93 10.91
4/26/2022 2:15:00 PM 11.51 52.718 0.04 7.35 4.62 10.91
4/26/2022 2:30:00 PM 11.52 52.736 0.041 7.37 2.87 10.92
4/26/2022 2:45:00 PM 11.5 52.7 0.041 7.35 2.95 10.88
4/26/2022 3:00:00 PM 11.48 52.664 0.041 7.32 2.8 10.84
4/26/2022 3:15:00 PM 11.48 52.664 0.041 7.32 2.96 10.85
4/26/2022 3:30:00 PM 11.48 52.664 0.04 7.3 4.64 10.85
4/26/2022 3:45:00 PM 11.5 52.7 0.041 7.33 2.85 10.85
4/26/2022 4:00:00 PM 11.51 52.718 0.041 7.34 2.91 10.86
4/26/2022 4:15:00 PM 11.48 52.664 0.041 7.32 2.92 10.82
4/26/2022 4:30:00 PM 11.46 52.628 0.041 7.31 2.82 10.8
4/26/2022 4:45:00 PM 11.43 52.574 0.04 7.26 4.65 10.76
4/26/2022 5:00:00 PM 11.45 52.61 0.041 7.3 2.78 10.8
4/26/2022 5:15:00 PM 11.45 52.61 0.041 7.32 2.82 10.82
4/26/2022 5:30:00 PM 11.45 52.61 0.04 7.3 4.42 10.83
4/26/2022 5:45:00 PM 11.44 52.592 0.039 7.31 4.46 10.83
4/26/2022 6:00:00 PM 11.41 52.538 0.041 7.3 2.91 10.81
4/26/2022 6:15:00 PM 11.39 52.502 0.039 7.28 4.47 10.77
4/26/2022 6:30:00 PM 11.34 52.412 0.039 7.24 4.52 10.71
4/26/2022 6:45:00 PM 11.31 52.358 0.039 7.23 4.57 10.7
4/26/2022 7:00:00 PM 11.25 52.25 0.042 7.22 2.84 10.66
4/26/2022 7:15:00 PM 11.19 52.142 0.042 7.2 2.89 10.62
4/26/2022 7:30:00 PM 11.12 52.016 0.042 7.17 2.92 10.59
4/26/2022 7:45:00 PM 11.06 51.908 0.042 7.15 2.87 10.56
4/26/2022 8:00:00 PM 10.99 51.782 0.042 7.13 2.92 10.53
4/26/2022 8:15:00 PM 10.89 51.602 0.042 7.11 2.92 10.5
4/26/2022 8:30:00 PM 10.82 51.476 0.042 7.09 3.2 10.48
4/26/2022 8:45:00 PM 10.74 51.332 0.042 7.1 3.04 10.48
4/26/2022 9:00:00 PM 10.67 51.206 0.041 7.06 4.59 10.48
4/26/2022 9:15:00 PM 10.6 51.08 0.042 7.07 3.04 10.48
4/26/2022 9:30:00 PM 10.53 50.954 0.042 7.07 3 10.49
4/26/2022 9:45:00 PM 10.45 50.81 0.042 7.05 3.13 10.51
4/26/2022 10:00:00 PM 10.37 50.666 0.042 7.07 3.04 10.52
4/26/2022 10:15:00 PM 10.29 50.522 0.042 7.06 3.07 10.54
4/26/2022 10:30:00 PM 10.22 50.396 0.042 7.02 3.05 10.55
4/26/2022 10:45:00 PM 10.14 50.252 0.042 7.06 3.07 10.57
4/26/2022 11:00:00 PM 10.05 50.09 0.043 7.06 3.11 10.58
4/26/2022 11:15:00 PM 9.97 49.946 0.043 7.05 3.12 10.6
4/26/2022 11:30:00 PM 9.88 49.784 0.043 7.05 3.11 10.62
4/26/2022 11:45:00 PM 9.79 49.622 0.043 7.05 3.06 10.64
4/27/2022 12:00:00 AM 9.71 49.478 0.043 7.04 3.07 10.67
4/27/2022 12:15:00 AM 9.64 49.352 0.043 7.04 3.19 10.69
4/27/2022 12:30:00 AM 9.57 49.226 0.043 7.04 3.03 10.7
4/27/2022 12:45:00 AM 9.49 49.082 0.043 7.04 3.02 10.73
4/27/2022 1:00:00 AM 9.42 48.956 0.04 7.01 4.83 10.75
4/27/2022 1:15:00 AM 9.35 48.83 0.043 7.03 3.03 10.77
4/27/2022 1:30:00 AM 9.28 48.704 0.043 7.04 3.03 10.79
4/27/2022 1:45:00 AM 9.21 48.578 0.043 7.02 2.94 10.8
4/27/2022 2:00:00 AM 9.15 48.47 0.043 7.03 3.05 10.82
4/27/2022 2:15:00 AM 9.08 48.344 0.043 7.02 2.92 10.84
4/27/2022 2:30:00 AM 9.03 48.254 0.043 7.03 2.98 10.85
4/27/2022 2:45:00 AM 8.98 48.164 0.043 7.02 2.93 10.87
4/27/2022 3:00:00 AM 8.91 48.038 0.043 7.03 2.85 10.88
4/27/2022 3:15:00 AM 8.84 47.912 0.043 7.05 2.9 10.9
4/27/2022 3:30:00 AM 8.77 47.786 0.043 7.04 2.78 10.92
4/27/2022 3:45:00 AM 8.7 47.66 0.043 7.05 2.88 10.93
4/27/2022 4:00:00 AM 8.64 47.552 0.043 7.04 2.97 10.95
4/27/2022 4:15:00 AM 8.59 47.462 0.043 7.03 2.87 10.96
4/27/2022 4:30:00 AM 8.54 47.372 0.043 7.06 2.91 10.98
4/27/2022 4:45:00 AM 8.49 47.282 0.043 7.05 2.9 11
4/27/2022 5:00:00 AM 8.44 47.192 0.043 7.03 2.99 11.01
4/27/2022 5:15:00 AM 8.4 47.12 0.043 7.05 2.86 11.02
4/27/2022 5:30:00 AM 8.34 47.012 0.043 7.03 2.97 11.03
4/27/2022 5:45:00 AM 8.28 46.904 0.043 7.05 2.82 11.05
4/27/2022 6:00:00 AM 8.21 46.778 0.043 7.04 2.91 11.07
4/27/2022 6:15:00 AM 8.15 46.67 0.043 7.05 2.75 11.09
4/27/2022 6:30:00 AM 8.1 46.58 0.043 7.05 2.83 11.11
4/27/2022 6:45:00 AM 8.06 46.508 0.042 7.02 4.35 11.14
4/27/2022 7:00:00 AM 8 46.4 0.041 7.04 4.5 11.2
4/27/2022 7:15:00 AM 7.93 46.274 0.043 7.07 2.87 11.22
4/27/2022 7:30:00 AM 7.91 46.238 0.043 7.1 2.77 11.31
4/27/2022 7:45:00 AM 7.89 46.202 0.043 7.1 2.8 11.36
4/27/2022 8:00:00 AM 7.87 46.166 0.043 7.11 2.85 11.37
4/27/2022 8:15:00 AM 7.85 46.13 0.043 7.11 2.79 11.41
4/27/2022 8:30:00 AM 7.82 46.076 0.043 7.13 2.76 11.47
4/27/2022 8:45:00 AM 7.8 46.04 0.043 7.17 2.81 11.55
4/27/2022 9:00:00 AM 7.8 46.04 0.043 7.19 2.83 11.62
4/27/2022 9:15:00 AM 7.8 46.04 0.042 7.23 2.75 11.69
4/27/2022 9:30:00 AM 7.8 46.04 0.042 7.25 2.67 11.75
4/27/2022 9:45:00 AM 7.81 46.058 0.042 7.28 2.68 11.77
4/27/2022 10:00:00 AM 7.81 46.058 0.042 7.28 2.74 11.8
4/27/2022 10:15:00 AM 7.89 46.202 0.042 7.31 2.63 11.82
4/27/2022 10:30:00 AM 7.93 46.274 0.042 7.33 2.71 11.84
4/27/2022 10:45:00 AM 8.02 46.436 0.042 7.34 2.65 11.86
4/27/2022 11:00:00 AM 7.96 46.328 0.042 7.34 2.61 11.84
4/27/2022 11:15:00 AM 7.98 46.364 0.042 7.36 2.61 11.85
4/27/2022 11:30:00 AM 8.12 46.616 0.042 7.38 2.61 11.86
4/27/2022 11:45:00 AM 8.09 46.562 0.042 7.38 2.54 11.85
4/27/2022 12:00:00 PM 8.12 46.616 0.042 7.38 2.61 11.83
4/27/2022 12:15:00 PM 8.18 46.724 0.042 7.39 2.64 11.84
4/27/2022 12:30:00 PM 8.21 46.778 0.042 7.4 2.7 11.84
4/27/2022 12:45:00 PM 8.21 46.778 0.042 7.37 2.6 11.8
4/27/2022 1:00:00 PM 8.27 46.886 0.042 7.39 2.6 11.81
4/27/2022 1:15:00 PM 8.26 46.868 0.042 7.39 2.58 11.8
4/27/2022 1:30:00 PM 8.28 46.904 0.042 7.38 2.61 11.78
4/27/2022 1:45:00 PM 8.35 47.03 0.042 7.41 2.56 11.8
4/27/2022 2:00:00 PM 8.36 47.048 0.042 7.4 2.57 11.8
4/27/2022 2:15:00 PM 8.32 46.976 0.041 7.4 2.66 11.78
4/27/2022 2:30:00 PM 8.31 46.958 0.041 7.39 2.54 11.75
4/27/2022 2:45:00 PM 8.31 46.958 0.041 7.39 2.55 11.76
4/27/2022 3:00:00 PM 8.34 47.012 0.041 7.38 2.59 11.75
4/27/2022 3:15:00 PM 8.25 46.85 0.041 7.36 2.6 11.72
4/27/2022 3:30:00 PM 8.26 46.868 0.041 7.37 2.57 11.73
4/27/2022 3:45:00 PM 8.23 46.814 0.041 7.36 2.58 11.72
4/27/2022 4:00:00 PM 8.18 46.724 0.041 7.35 2.6 11.71
4/27/2022 4:15:00 PM 8.15 46.67 0.041 7.34 2.59 11.7
4/27/2022 4:30:00 PM 8.1 46.58 0.042 7.32 2.55 11.68
4/27/2022 4:45:00 PM 8.05 46.49 0.042 7.31 2.65 11.69
4/27/2022 5:00:00 PM 8 46.4 0.042 7.29 2.6 11.66
4/27/2022 5:15:00 PM 7.94 46.292 0.042 7.27 2.64 11.66
4/27/2022 5:30:00 PM 7.91 46.238 0.042 7.28 2.6 11.66
4/27/2022 5:45:00 PM 7.85 46.13 0.042 7.26 2.69 11.65
4/27/2022 6:00:00 PM 7.8 46.04 0.042 7.25 2.69 11.66
4/27/2022 6:15:00 PM 7.72 45.896 0.042 7.24 2.65 11.64
4/27/2022 6:30:00 PM 7.65 45.77 0.042 7.24 2.6 11.64
4/27/2022 6:45:00 PM 7.58 45.644 0.042 7.22 2.61 11.63
4/27/2022 7:00:00 PM 7.52 45.536 0.042 7.19 2.73 11.61
4/27/2022 7:15:00 PM 7.44 45.392 0.042 7.16 2.71 11.58
4/27/2022 7:30:00 PM 7.38 45.284 0.042 7.16 2.61 11.56
4/27/2022 7:45:00 PM 7.31 45.158 0.042 7.14 2.65 11.54
4/27/2022 8:00:00 PM 7.23 45.014 0.042 7.11 2.66 11.53
4/27/2022 8:15:00 PM 7.17 44.906 0.042 7.1 2.65 11.52
4/27/2022 8:30:00 PM 7.11 44.798 0.042 7.1 2.7 11.51
4/27/2022 8:45:00 PM 7.05 44.69 0.042 7.1 2.66 11.51
4/27/2022 9:00:00 PM 7 44.6 0.042 7.09 2.75 11.51
4/27/2022 9:15:00 PM 6.95 44.51 0.042 7.06 2.71 11.52
4/27/2022 9:30:00 PM 6.88 44.384 0.042 7.07 2.74 11.54
4/27/2022 9:45:00 PM 6.83 44.294 0.042 7.07 2.78 11.55
4/27/2022 10:00:00 PM 6.78 44.204 0.043 7.07 2.74 11.56
4/27/2022 10:15:00 PM 6.74 44.132 0.043 7.07 2.7 11.58
4/27/2022 10:30:00 PM 6.68 44.024 0.043 7.07 2.69 11.59
4/27/2022 10:45:00 PM 6.63 43.934 0.043 7.05 2.71 11.61
4/27/2022 11:00:00 PM 6.6 43.88 0.043 7.06 2.66 11.62
4/27/2022 11:15:00 PM 6.56 43.808 0.043 7.06 2.7 11.63
4/27/2022 11:30:00 PM 6.52 43.736 0.043 7.06 2.74 11.64
4/27/2022 11:45:00 PM 6.48 43.664 0.043 7.06 2.67 11.66
4/28/2022 12:00:00 AM 6.44 43.592 0.043 7.04 2.63 11.67
4/28/2022 12:15:00 AM 6.4 43.52 0.043 7.05 2.76 11.68
4/28/2022 12:30:00 AM 6.37 43.466 0.043 7.06 2.71 11.69
4/28/2022 12:45:00 AM 6.33 43.394 0.043 7.06 2.74 11.7
4/28/2022 1:00:00 AM 6.31 43.358 0.043 7.06 2.69 11.72
4/28/2022 1:15:00 AM 6.27 43.286 0.043 7.04 2.76 11.72
4/28/2022 1:30:00 AM 6.24 43.232 0.043 7.06 2.58 11.73
4/28/2022 1:45:00 AM 6.21 43.178 0.043 7.05 2.66 11.74
4/28/2022 2:00:00 AM 6.16 43.088 0.043 7.05 2.63 11.76
4/28/2022 2:15:00 AM 6.13 43.034 0.043 7.06 2.68 11.77
4/28/2022 2:30:00 AM 6.1 42.98 0.043 7.05 2.64 11.77
4/28/2022 2:45:00 AM 6.06 42.908 0.043 7.06 2.62 11.78
4/28/2022 3:00:00 AM 6.03 42.854 0.043 7.06 2.67 11.79
4/28/2022 3:15:00 AM 6 42.8 0.043 7.05 2.64 11.8
4/28/2022 3:30:00 AM 5.97 42.746 0.043 7.05 2.66 11.81
4/28/2022 3:45:00 AM 5.94 42.692 0.043 7.05 2.66 11.82
4/28/2022 4:00:00 AM 5.92 42.656 0.043 7.06 2.67 11.83
4/28/2022 4:15:00 AM 5.89 42.602 0.043 7.05 2.65 11.84
4/28/2022 4:30:00 AM 5.87 42.566 0.043 7.06 2.65 11.84
4/28/2022 4:45:00 AM 5.83 42.494 0.043 7.05 2.65 11.85
4/28/2022 5:00:00 AM 5.8 42.44 0.043 7.05 2.56 11.86
4/28/2022 5:15:00 AM 5.78 42.404 0.043 7.05 2.59 11.87
4/28/2022 5:30:00 AM 5.76 42.368 0.043 7.06 2.65 11.88
4/28/2022 5:45:00 AM 5.72 42.296 0.043 7.05 2.52 11.89
4/28/2022 6:00:00 AM 5.69 42.242 0.043 7.04 2.64 11.9
4/28/2022 6:15:00 AM 5.67 42.206 0.043 7.04 2.6 11.92
4/28/2022 6:30:00 AM 5.65 42.17 0.043 7.05 2.61 11.94
4/28/2022 6:45:00 AM 5.61 42.098 0.043 7.07 2.62 11.98
4/28/2022 7:00:00 AM 5.58 42.044 0.043 7.08 2.6 12.03
4/28/2022 7:15:00 AM 5.56 42.008 0.043 7.1 2.56 12.1
4/28/2022 7:30:00 AM 5.54 41.972 0.043 7.12 2.52 12.17
4/28/2022 7:45:00 AM 5.52 41.936 0.043 7.14 2.53 12.23
4/28/2022 8:00:00 AM 5.52 41.936 0.043 7.16 2.59 12.29
4/28/2022 8:15:00 AM 5.51 41.918 0.043 7.18 2.64 12.35
4/28/2022 8:30:00 AM 5.53 41.954 0.043 7.21 2.66 12.39
4/28/2022 8:45:00 AM 5.53 41.954 0.043 7.22 2.58 12.42
4/28/2022 9:00:00 AM 5.57 42.026 0.043 7.23 2.54 12.45
4/28/2022 9:15:00 AM 5.63 42.134 0.043 7.25 2.64 12.47
4/28/2022 9:30:00 AM 5.7 42.26 0.043 7.28 2.53 12.48
4/28/2022 9:45:00 AM 5.79 42.422 0.042 7.29 2.52 12.5
4/28/2022 10:00:00 AM 5.93 42.674 0.042 7.3 2.56 12.49
4/28/2022 10:15:00 AM 6.1 42.98 0.042 7.32 2.49 12.48
4/28/2022 10:30:00 AM 6.25 43.25 0.042 7.33 2.46 12.47
4/28/2022 10:45:00 AM 6.41 43.538 0.042 7.34 2.45 12.44
4/28/2022 11:00:00 AM 6.59 43.862 0.042 7.35 2.35 12.4
4/28/2022 11:15:00 AM 6.8 44.24 0.042 7.36 2.46 12.36
4/28/2022 11:30:00 AM 7.02 44.636 0.042 7.35 2.46 12.31
4/28/2022 11:45:00 AM 7.24 45.032 0.042 7.36 2.43 12.26
4/28/2022 12:00:00 PM 7.48 45.464 0.042 7.37 2.48 12.21
4/28/2022 12:15:00 PM 7.73 45.914 0.042 7.37 2.41 12.15
4/28/2022 12:30:00 PM 7.99 46.382 0.042 7.38 2.44 12.08
4/28/2022 12:45:00 PM 8.25 46.85 0.041 7.36 4.21 12.01
4/28/2022 1:00:00 PM 8.49 47.282 0.042 7.39 2.46 11.95
4/28/2022 1:15:00 PM 8.76 47.768 0.042 7.38 2.47 11.88
4/28/2022 1:30:00 PM 9 48.2 0.042 7.39 2.38 11.82
4/28/2022 1:45:00 PM 9.25 48.65 0.042 7.4 2.42 11.75
4/28/2022 2:00:00 PM 9.48 49.064 0.042 7.4 2.36 11.69
4/28/2022 2:15:00 PM 9.67 49.406 0.042 7.41 2.49 11.63
4/28/2022 2:30:00 PM 9.88 49.784 0.042 7.4 2.43 11.57
4/28/2022 2:45:00 PM 10.09 50.162 0.04 7.4 4.06 11.51
4/28/2022 3:00:00 PM 10.27 50.486 0.039 7.39 4.13 11.46
4/28/2022 3:15:00 PM 10.43 50.774 0.041 7.4 2.62 11.41
4/28/2022 3:30:00 PM 10.59 51.062 0.041 7.43 2.53 11.36
4/28/2022 3:45:00 PM 10.74 51.332 0.039 7.41 4.18 11.31
4/28/2022 4:00:00 PM 10.87 51.566 0.041 7.43 2.57 11.26
4/28/2022 4:15:00 PM 10.95 51.71 0.04 7.42 4.33 11.22
4/28/2022 4:30:00 PM 11.01 51.818 0.041 7.44 2.62 11.19
4/28/2022 4:45:00 PM 11.02 51.836 0.041 7.43 2.63 11.16
4/28/2022 5:00:00 PM 11.03 51.854 0.041 7.43 2.62 11.13
4/28/2022 5:15:00 PM 11.02 51.836 0.041 7.4 4.31 11.11
4/28/2022 5:30:00 PM 10.96 51.728 0.041 7.41 2.63 11.08
4/28/2022 5:45:00 PM 10.93 51.674 0.039 7.38 4.4 11.06
4/28/2022 6:00:00 PM 10.87 51.566 0.039 7.37 4.48 11.03
4/28/2022 6:15:00 PM 10.77 51.386 0.039 7.35 4.33 11.01
4/28/2022 6:30:00 PM 10.66 51.188 0.042 7.33 2.7 11
4/28/2022 6:45:00 PM 10.52 50.936 0.041 7.31 4.52 10.99
4/28/2022 7:00:00 PM 10.4 50.72 0.042 7.31 2.65 10.98
4/28/2022 7:15:00 PM 10.24 50.432 0.041 7.26 4.46 10.98
4/28/2022 7:30:00 PM 10.09 50.162 0.042 7.24 2.72 10.95
4/28/2022 7:45:00 PM 9.96 49.928 0.041 7.21 4.43 10.93
4/28/2022 8:00:00 PM 9.81 49.658 0.042 7.19 2.8 10.91
4/28/2022 8:15:00 PM 9.66 49.388 0.042 7.16 2.7 10.89
4/28/2022 8:30:00 PM 9.5 49.1 0.042 7.15 2.73 10.88
4/28/2022 8:45:00 PM 9.35 48.83 0.042 7.12 2.71 10.88
4/28/2022 9:00:00 PM 9.21 48.578 0.042 7.12 2.88 10.89
4/28/2022 9:15:00 PM 9.07 48.326 0.042 7.09 2.88 10.91
4/28/2022 9:30:00 PM 8.93 48.074 0.042 7.08 2.86 10.94
4/28/2022 9:45:00 PM 8.79 47.822 0.043 7.09 2.81 10.97
4/28/2022 10:00:00 PM 8.64 47.552 0.043 7.08 2.79 11
4/28/2022 10:15:00 PM 8.49 47.282 0.043 7.08 2.92 11.04
4/28/2022 10:30:00 PM 8.34 47.012 0.043 7.07 2.87 11.08
4/28/2022 10:45:00 PM 8.2 46.76 0.043 7.06 2.8 11.11
4/28/2022 11:00:00 PM 8.06 46.508 0.043 7.06 2.81 11.15
4/28/2022 11:15:00 PM 7.93 46.274 0.043 7.06 2.8 11.2
4/28/2022 11:30:00 PM 7.8 46.04 0.043 7.06 2.78 11.23
4/28/2022 11:45:00 PM 7.68 45.824 0.043 7.04 2.85 11.26
4/29/2022 12:00:00 AM 7.57 45.626 0.043 7.05 2.82 11.3
4/29/2022 12:15:00 AM 7.45 45.41 0.043 7.04 2.87 11.33
4/29/2022 12:30:00 AM 7.34 45.212 0.043 7.05 2.77 11.36
4/29/2022 12:45:00 AM 7.23 45.014 0.043 7.06 2.81 11.39
4/29/2022 1:00:00 AM 7.12 44.816 0.043 7.05 2.73 11.43
4/29/2022 1:15:00 AM 7.01 44.618 0.043 7.06 2.78 11.46
4/29/2022 1:30:00 AM 6.91 44.438 0.043 7.05 2.81 11.49
4/29/2022 1:45:00 AM 6.8 44.24 0.043 7.05 2.78 11.53
4/29/2022 2:00:00 AM 6.7 44.06 0.043 7.06 2.71 11.57
4/29/2022 2:15:00 AM 6.6 43.88 0.043 7.05 2.77 11.6
4/29/2022 2:30:00 AM 6.5 43.7 0.043 7.05 2.8 11.63
4/29/2022 2:45:00 AM 6.4 43.52 0.043 7.05 2.79 11.66
4/29/2022 3:00:00 AM 6.3 43.34 0.043 7.05 2.76 11.69
4/29/2022 3:15:00 AM 6.21 43.178 0.043 7.05 2.74 11.72
4/29/2022 3:30:00 AM 6.11 42.998 0.043 7.04 2.78 11.75
4/29/2022 3:45:00 AM 6.02 42.836 0.043 7.04 2.7 11.77
4/29/2022 4:00:00 AM 5.93 42.674 0.043 7.04 2.7 11.8
4/29/2022 4:15:00 AM 5.84 42.512 0.043 7.04 2.73 11.83
4/29/2022 4:30:00 AM 5.76 42.368 0.043 7.05 2.73 11.86
4/29/2022 4:45:00 AM 5.68 42.224 0.043 7.04 2.72 11.89
4/29/2022 5:00:00 AM 5.59 42.062 0.043 7.04 2.72 11.92
4/29/2022 5:15:00 AM 5.51 41.918 0.043 7.04 2.7 11.95
4/29/2022 5:30:00 AM 5.44 41.792 0.043 7.04 2.68 11.97
4/29/2022 5:45:00 AM 5.36 41.648 0.043 7.03 2.72 12
4/29/2022 6:00:00 AM 5.29 41.522 0.043 7.03 2.64 12.02
4/29/2022 6:15:00 AM 5.22 41.396 0.043 7.05 2.73 12.06
4/29/2022 6:30:00 AM 5.16 41.288 0.043 7.05 2.72 12.1
4/29/2022 6:45:00 AM 5.1 41.18 0.043 7.06 2.64 12.15
4/29/2022 7:00:00 AM 5.05 41.09 0.043 7.07 2.61 12.22
4/29/2022 7:15:00 AM 5.01 41.018 0.043 7.08 2.57 12.28
4/29/2022 7:30:00 AM 4.99 40.982 0.043 7.11 2.63 12.35
4/29/2022 7:45:00 AM 4.98 40.964 0.043 7.13 2.53 12.42
4/29/2022 8:00:00 AM 4.98 40.964 0.043 7.16 2.62 12.48
4/29/2022 8:15:00 AM 5.01 41.018 0.043 7.17 2.64 12.53
4/29/2022 8:30:00 AM 5.05 41.09 0.043 7.19 2.5 12.57
4/29/2022 8:45:00 AM 5.11 41.198 0.043 7.2 2.67 12.6
4/29/2022 9:00:00 AM 5.19 41.342 0.043 7.24 2.68 12.63
4/29/2022 9:15:00 AM 5.3 41.54 0.043 7.25 2.57 12.64
4/29/2022 9:30:00 AM 5.41 41.738 0.043 7.27 2.53 12.64
4/29/2022 9:45:00 AM 5.55 41.99 0.043 7.28 2.6 12.63
4/29/2022 10:00:00 AM 5.7 42.26 0.043 7.3 2.51 12.61
4/29/2022 10:15:00 AM 5.86 42.548 0.043 7.32 2.52 12.59
4/29/2022 10:30:00 AM 6.06 42.908 0.043 7.32 2.51 12.56
4/29/2022 10:45:00 AM 6.23 43.214 0.043 7.35 2.53 12.54
4/29/2022 11:00:00 AM 6.41 43.538 0.042 7.37 2.52 12.51
4/29/2022 11:15:00 AM 6.63 43.934 0.042 7.37 2.45 12.46
4/29/2022 11:30:00 AM 6.85 44.33 0.042 7.38 2.46 12.41
4/29/2022 11:45:00 AM 7.13 44.834 0.042 7.39 2.46 12.34
4/29/2022 12:00:00 PM 7.42 45.356 0.042 7.39 2.53 12.26
4/29/2022 12:15:00 PM 7.7 45.86 0.042 7.38 2.47 12.19
4/29/2022 12:30:00 PM 7.98 46.364 0.042 7.38 2.48 12.12
4/29/2022 12:45:00 PM 8.26 46.868 0.042 7.38 2.48 12.04
4/29/2022 1:00:00 PM 8.55 47.39 0.042 7.4 2.54 11.96
4/29/2022 1:15:00 PM 8.85 47.93 0.042 7.4 2.62 11.89
4/29/2022 1:30:00 PM 9.14 48.452 0.042 7.4 2.5 11.81
4/29/2022 1:45:00 PM 9.41 48.938 0.042 7.41 2.43 11.73
4/29/2022 2:00:00 PM 9.69 49.442 0.042 7.4 2.5 11.65
4/29/2022 2:15:00 PM 9.95 49.91 0.042 7.42 2.52 11.58
4/29/2022 2:30:00 PM 10.19 50.342 0.04 7.4 4.23 11.52
4/29/2022 2:45:00 PM 10.41 50.738 0.042 7.42 2.47 11.46
4/29/2022 3:00:00 PM 10.63 51.134 0.042 7.43 2.72 11.39
4/29/2022 3:15:00 PM 10.83 51.494 0.042 7.43 2.5 11.33
4/29/2022 3:30:00 PM 11 51.8 0.042 7.44 2.51 11.27
4/29/2022 3:45:00 PM 11.18 52.124 0.04 7.43 4.44 11.22
4/29/2022 4:00:00 PM 11.31 52.358 0.04 7.43 4.32 11.17
4/29/2022 4:15:00 PM 11.41 52.538 0.04 7.44 4.31 11.13
4/29/2022 4:30:00 PM 11.52 52.736 0.042 7.45 2.57 11.09
4/29/2022 4:45:00 PM 11.56 52.808 0.042 7.43 2.64 11.05
4/29/2022 5:00:00 PM 11.59 52.862 0.041 7.41 4.22 11.02
4/29/2022 5:15:00 PM 11.61 52.898 0.042 7.41 2.52 10.98
4/29/2022 5:30:00 PM 11.58 52.844 0.042 7.42 2.58 10.95
4/29/2022 5:45:00 PM 11.53 52.754 0.042 7.39 2.63 10.93
4/29/2022 6:00:00 PM 11.47 52.646 0.042 7.39 2.57 10.9
4/29/2022 6:15:00 PM 11.4 52.52 0.041 7.36 4.28 10.87
4/29/2022 6:30:00 PM 11.32 52.376 0.039 7.34 4.28 10.84
4/29/2022 6:45:00 PM 11.22 52.196 0.042 7.32 2.75 10.82
4/29/2022 7:00:00 PM 11.14 52.052 0.042 7.32 2.66 10.8
4/29/2022 7:15:00 PM 11.02 51.836 0.041 7.27 4.36 10.78
4/29/2022 7:30:00 PM 10.88 51.584 0.042 7.26 2.65 10.75
4/29/2022 7:45:00 PM 10.75 51.35 0.042 7.23 2.61 10.73
4/29/2022 8:00:00 PM 10.6 51.08 0.041 7.18 4.34 10.71
4/29/2022 8:15:00 PM 10.46 50.828 0.042 7.15 2.74 10.69
4/29/2022 8:30:00 PM 10.31 50.558 0.042 7.14 2.68 10.68
4/29/2022 8:45:00 PM 10.15 50.27 0.042 7.12 4.47 10.68
4/29/2022 9:00:00 PM 10 50 0.043 7.09 2.76 10.68
4/29/2022 9:15:00 PM 9.85 49.73 0.043 7.1 2.84 10.7
4/29/2022 9:30:00 PM 9.7 49.46 0.043 7.08 2.9 10.72
4/29/2022 9:45:00 PM 9.54 49.172 0.043 7.09 2.81 10.76
4/29/2022 10:00:00 PM 9.39 48.902 0.043 7.09 2.81 10.79
4/29/2022 10:15:00 PM 9.24 48.632 0.043 7.08 2.76 10.84
4/29/2022 10:30:00 PM 9.08 48.344 0.043 7.07 2.79 10.88
4/29/2022 10:45:00 PM 8.93 48.074 0.043 7.07 2.69 10.91
4/29/2022 11:00:00 PM 8.79 47.822 0.043 7.05 2.78 10.95
4/29/2022 11:15:00 PM 8.63 47.534 0.043 7.06 2.74 10.99
4/29/2022 11:30:00 PM 8.5 47.3 0.043 7.06 2.81 11.03
4/29/2022 11:45:00 PM 8.37 47.066 0.043 7.06 2.7 11.06
4/30/2022 12:00:00 AM 8.24 46.832 0.043 7.06 2.77 11.1
4/30/2022 12:15:00 AM 8.11 46.598 0.043 7.06 2.69 11.14
4/30/2022 12:30:00 AM 7.99 46.382 0.043 7.06 2.74 11.17
4/30/2022 12:45:00 AM 7.87 46.166 0.043 7.05 2.84 11.21
4/30/2022 1:00:00 AM 7.76 45.968 0.043 7.05 2.71 11.24
4/30/2022 1:15:00 AM 7.64 45.752 0.043 7.06 2.74 11.28
4/30/2022 1:30:00 AM 7.53 45.554 0.043 7.06 2.69 11.31
4/30/2022 1:45:00 AM 7.42 45.356 0.043 7.06 2.68 11.34
4/30/2022 2:00:00 AM 7.31 45.158 0.043 7.06 2.67 11.37
4/30/2022 2:15:00 AM 7.2 44.96 0.043 7.05 2.63 11.41
4/30/2022 2:30:00 AM 7.1 44.78 0.043 7.05 2.64 11.43
4/30/2022 2:45:00 AM 6.99 44.582 0.044 7.05 2.65 11.47
4/30/2022 3:00:00 AM 6.89 44.402 0.044 7.06 2.59 11.5
4/30/2022 3:15:00 AM 6.79 44.222 0.044 7.05 2.64 11.53
4/30/2022 3:30:00 AM 6.7 44.06 0.044 7.06 2.71 11.57
4/30/2022 3:45:00 AM 6.6 43.88 0.044 7.05 2.67 11.6
4/30/2022 4:00:00 AM 6.51 43.718 0.044 7.06 2.67 11.62
4/30/2022 4:15:00 AM 6.41 43.538 0.044 7.06 2.59 11.66
4/30/2022 4:30:00 AM 6.32 43.376 0.044 7.05 2.55 11.68
4/30/2022 4:45:00 AM 6.23 43.214 0.044 7.05 2.61 11.71
4/30/2022 5:00:00 AM 6.14 43.052 0.044 7.05 2.61 11.73
4/30/2022 5:15:00 AM 6.06 42.908 0.044 7.05 2.63 11.76
4/30/2022 5:30:00 AM 5.97 42.746 0.044 7.05 2.63 11.79
4/30/2022 5:45:00 AM 5.89 42.602 0.044 7.05 2.6 11.81
4/30/2022 6:00:00 AM 5.81 42.458 0.044 7.05 2.66 11.84
4/30/2022 6:15:00 AM 5.74 42.332 0.044 7.04 2.63 11.87
4/30/2022 6:30:00 AM 5.66 42.188 0.044 7.06 2.54 11.92
4/30/2022 6:45:00 AM 5.6 42.08 0.044 7.06 2.53 11.98
4/30/2022 7:00:00 AM 5.54 41.972 0.044 7.08 2.52 12.05
4/30/2022 7:15:00 AM 5.5 41.9 0.044 7.1 2.47 12.12
4/30/2022 7:30:00 AM 5.46 41.828 0.044 7.12 2.52 12.19
4/30/2022 7:45:00 AM 5.44 41.792 0.043 7.13 2.57 12.27
4/30/2022 8:00:00 AM 5.44 41.792 0.043 7.16 2.36 12.33
4/30/2022 8:15:00 AM 5.46 41.828 0.043 7.18 2.47 12.39
4/30/2022 8:30:00 AM 5.49 41.882 0.043 7.2 2.48 12.43
4/30/2022 8:45:00 AM 5.54 41.972 0.043 7.22 2.51 12.46
4/30/2022 9:00:00 AM 5.61 42.098 0.043 7.25 2.41 12.48
4/30/2022 9:15:00 AM 5.71 42.278 0.043 7.26 2.49 12.49
4/30/2022 9:30:00 AM 5.84 42.512 0.043 7.28 2.45 12.49
4/30/2022 9:45:00 AM 5.99 42.782 0.043 7.3 2.46 12.49
4/30/2022 10:00:00 AM 6.17 43.106 0.043 7.3 2.52 12.47
4/30/2022 10:15:00 AM 6.37 43.466 0.043 7.32 2.46 12.44
4/30/2022 10:30:00 AM 6.58 43.844 0.043 7.32 2.44 12.41
4/30/2022 10:45:00 AM 6.81 44.258 0.043 7.35 2.45 12.35
4/30/2022 11:00:00 AM 7.05 44.69 0.043 7.35 2.39 12.3
4/30/2022 11:15:00 AM 7.3 45.14 0.043 7.37 2.34 12.24
4/30/2022 11:30:00 AM 7.57 45.626 0.043 7.38 2.31 12.19
4/30/2022 11:45:00 AM 7.85 46.13 0.042 7.38 2.27 12.12
4/30/2022 12:00:00 PM 8.15 46.67 0.042 7.39 2.41 12.05
4/30/2022 12:15:00 PM 8.45 47.21 0.042 7.4 2.34 11.97
4/30/2022 12:30:00 PM 8.76 47.768 0.042 7.4 2.39 11.89
4/30/2022 12:45:00 PM 9.05 48.29 0.042 7.42 2.32 11.82
4/30/2022 1:00:00 PM 9.36 48.848 0.042 7.42 2.35 11.75
4/30/2022 1:15:00 PM 9.66 49.388 0.042 7.43 2.39 11.66
4/30/2022 1:30:00 PM 9.97 49.946 0.042 7.43 2.32 11.58
4/30/2022 1:45:00 PM 10.26 50.468 0.042 7.43 2.44 11.51
4/30/2022 2:00:00 PM 10.54 50.972 0.042 7.44 2.53 11.44
4/30/2022 2:15:00 PM 10.82 51.476 0.042 7.43 2.31 11.36
4/30/2022 2:30:00 PM 11.07 51.926 0.042 7.43 2.36 11.29
4/30/2022 2:45:00 PM 11.3 52.34 0.042 7.45 2.33 11.22
4/30/2022 3:00:00 PM 11.51 52.718 0.042 7.45 2.3 11.17
4/30/2022 3:15:00 PM 11.69 53.042 0.042 7.46 2.32 11.11
4/30/2022 3:30:00 PM 11.89 53.402 0.041 7.44 4.08 11.06
4/30/2022 3:45:00 PM 12.07 53.726 0.042 7.45 2.74 10.99
4/30/2022 4:00:00 PM 12.21 53.978 0.042 7.46 2.44 10.94
4/30/2022 4:15:00 PM 12.3 54.14 0.042 7.45 2.74 10.89
4/30/2022 4:30:00 PM 12.41 54.338 0.041 7.45 4.4 10.85
4/30/2022 4:45:00 PM 12.48 54.464 0.039 7.44 4.2 10.81
4/30/2022 5:00:00 PM 12.53 54.554 0.042 7.45 2.49 10.77
4/30/2022 5:15:00 PM 12.55 54.59 0.042 7.44 2.55 10.74
4/30/2022 5:30:00 PM 12.54 54.572 0.042 7.43 2.6 10.71
4/30/2022 5:45:00 PM 12.5 54.5 0.042 7.42 2.4 10.68
4/30/2022 6:00:00 PM 12.46 54.428 0.042 7.4 2.44 10.65
4/30/2022 6:15:00 PM 12.39 54.302 0.042 7.38 2.4 10.61
4/30/2022 6:30:00 PM 12.31 54.158 0.042 7.35 2.35 10.58
4/30/2022 6:45:00 PM 12.21 53.978 0.041 7.31 4.23 10.56
4/30/2022 7:00:00 PM 12.1 53.78 0.04 7.29 4.2 10.54
4/30/2022 7:15:00 PM 11.99 53.582 0.042 7.27 2.37 10.52
4/30/2022 7:30:00 PM 11.87 53.366 0.041 7.24 4.09 10.5
4/30/2022 7:45:00 PM 11.75 53.15 0.042 7.22 2.4 10.47
4/30/2022 8:00:00 PM 11.63 52.934 0.042 7.19 2.52 10.44
4/30/2022 8:15:00 PM 11.49 52.682 0.041 7.16 4.19 10.41
4/30/2022 8:30:00 PM 11.34 52.412 0.04 7.12 4.32 10.39
4/30/2022 8:45:00 PM 11.19 52.142 0.04 7.11 4.16 10.38
4/30/2022 9:00:00 PM 11.03 51.854 0.043 7.1 2.59 10.38
4/30/2022 9:15:00 PM 10.88 51.584 0.043 7.09 2.56 10.39
4/30/2022 9:30:00 PM 10.74 51.332 0.043 7.07 2.53 10.42
4/30/2022 9:45:00 PM 10.59 51.062 0.042 7.06 4.37 10.44
4/30/2022 10:00:00 PM 10.45 50.81 0.041 7.05 4.5 10.48
4/30/2022 10:15:00 PM 10.31 50.558 0.041 7.05 4.3 10.51
4/30/2022 10:30:00 PM 10.16 50.288 0.043 7.04 2.54 10.54
4/30/2022 10:45:00 PM 10.03 50.054 0.041 7.02 4.29 10.58
4/30/2022 11:00:00 PM 9.89 49.802 0.043 7.02 2.61 10.61
4/30/2022 11:15:00 PM 9.76 49.568 0.043 7.03 2.55 10.64
4/30/2022 11:30:00 PM 9.63 49.334 0.042 7.02 4.22 10.68
4/30/2022 11:45:00 PM 9.5 49.1 0.044 7.02 2.65 10.71
5/1/2022 12:00:00 AM 9.37 48.866 0.044 7.03 2.55 10.74
5/1/2022 12:15:00 AM 9.24 48.632 0.044 7.03 2.63 10.78
5/1/2022 12:30:00 AM 9.12 48.416 0.044 7.04 2.55 10.81
5/1/2022 12:45:00 AM 9 48.2 0.044 7.03 2.58 10.85
5/1/2022 1:00:00 AM 8.87 47.966 0.044 7.03 2.55 10.88
5/1/2022 1:15:00 AM 8.75 47.75 0.044 7.02 2.53 10.92
5/1/2022 1:30:00 AM 8.63 47.534 0.044 7.04 2.55 10.95
5/1/2022 1:45:00 AM 8.51 47.318 0.044 7.04 2.51 10.99
5/1/2022 2:00:00 AM 8.39 47.102 0.044 7.03 2.46 11.02
5/1/2022 2:15:00 AM 8.27 46.886 0.044 7.03 2.68 11.05
5/1/2022 2:30:00 AM 8.15 46.67 0.044 7.03 2.46 11.09
5/1/2022 2:45:00 AM 8.04 46.472 0.044 7.04 2.48 11.12
5/1/2022 3:00:00 AM 7.92 46.256 0.044 7.03 2.34 11.16
5/1/2022 3:15:00 AM 7.81 46.058 0.044 7.04 2.42 11.2
5/1/2022 3:30:00 AM 7.7 45.86 0.044 7.04 2.51 11.23
5/1/2022 3:45:00 AM 7.59 45.662 0.044 7.04 2.42 11.26
5/1/2022 4:00:00 AM 7.49 45.482 0.044 7.03 2.47 11.29
5/1/2022 4:15:00 AM 7.39 45.302 0.044 7.04 2.38 11.31
5/1/2022 4:30:00 AM 7.29 45.122 0.044 7.03 2.36 11.34
5/1/2022 4:45:00 AM 7.19 44.942 0.044 7.04 2.44 11.38
5/1/2022 5:00:00 AM 7.1 44.78 0.044 7.03 2.4 11.39
5/1/2022 5:15:00 AM 7.01 44.618 0.044 7.04 2.4 11.42
5/1/2022 5:30:00 AM 6.92 44.456 0.044 7.04 2.47 11.45
5/1/2022 5:45:00 AM 6.84 44.312 0.044 7.04 2.37 11.48
5/1/2022 6:00:00 AM 6.76 44.168 0.044 7.02 2.35 11.5
5/1/2022 6:15:00 AM 6.69 44.042 0.044 7.04 2.36 11.54
5/1/2022 6:30:00 AM 6.63 43.934 0.044 7.05 2.31 11.6
5/1/2022 6:45:00 AM 6.58 43.844 0.044 7.06 2.38 11.67
5/1/2022 7:00:00 AM 6.55 43.79 0.044 7.08 2.29 11.74
5/1/2022 7:15:00 AM 6.53 43.754 0.044 7.09 2.28 11.82
5/1/2022 7:30:00 AM 6.52 43.736 0.044 7.14 2.33 11.9
5/1/2022 7:45:00 AM 6.51 43.718 0.044 7.16 2.39 11.97
5/1/2022 8:00:00 AM 6.52 43.736 0.044 7.18 2.36 12.02
5/1/2022 8:15:00 AM 6.53 43.754 0.044 7.21 2.24 12.07
5/1/2022 8:30:00 AM 6.56 43.808 0.044 7.21 2.33 12.11
5/1/2022 8:45:00 AM 6.61 43.898 0.044 7.25 2.26 12.15
5/1/2022 9:00:00 AM 6.69 44.042 0.043 7.27 2.52 12.17
5/1/2022 9:15:00 AM 6.81 44.258 0.043 7.29 2.32 12.18
5/1/2022 9:30:00 AM 6.91 44.438 0.043 7.32 2.31 12.17
5/1/2022 9:45:00 AM 7.07 44.726 0.043 7.34 2.21 12.16
5/1/2022 10:00:00 AM 7.21 44.978 0.043 7.35 2.11 12.16
5/1/2022 10:15:00 AM 7.4 45.32 0.043 7.37 2.13 12.14
5/1/2022 10:30:00 AM 7.51 45.518 0.043 7.38 2.26 12.1
5/1/2022 10:45:00 AM 7.66 45.788 0.043 7.4 2.25 12.06
5/1/2022 11:00:00 AM 7.73 45.914 0.043 7.39 2.28 12.03
5/1/2022 11:15:00 AM 7.83 46.094 0.043 7.4 2.21 12
5/1/2022 11:30:00 AM 7.94 46.292 0.043 7.39 2.19 11.94
5/1/2022 11:45:00 AM 7.99 46.382 0.043 7.36 2.28 11.87
5/1/2022 12:00:00 PM 8.04 46.472 0.043 7.36 2.2 11.82
5/1/2022 12:15:00 PM 8.08 46.544 0.043 7.35 2.21 11.8
5/1/2022 12:30:00 PM 8.15 46.67 0.043 7.36 2.21 11.8
5/1/2022 12:45:00 PM 8.22 46.796 0.043 7.37 2.12 11.79
5/1/2022 1:00:00 PM 8.27 46.886 0.043 7.36 2.18 11.76
5/1/2022 1:15:00 PM 8.28 46.904 0.043 7.33 2.21 11.7
5/1/2022 1:30:00 PM 8.31 46.958 0.043 7.33 2.15 11.68
5/1/2022 1:45:00 PM 8.32 46.976 0.043 7.33 2.18 11.66
5/1/2022 2:00:00 PM 8.34 47.012 0.043 7.32 2.22 11.64
5/1/2022 2:15:00 PM 8.36 47.048 0.043 7.31 2.21 11.62
5/1/2022 2:30:00 PM 8.37 47.066 0.042 7.29 2.27 11.6
5/1/2022 2:45:00 PM 8.4 47.12 0.042 7.3 2.18 11.6
5/1/2022 3:00:00 PM 8.43 47.174 0.042 7.3 2.25 11.6
5/1/2022 3:15:00 PM 8.47 47.246 0.042 7.31 2.3 11.6
5/1/2022 3:30:00 PM 8.53 47.354 0.042 7.33 2.28 11.62
5/1/2022 3:45:00 PM 8.56 47.408 0.042 7.31 2.36 11.57
5/1/2022 4:00:00 PM 8.6 47.48 0.042 7.31 2.31 11.55
5/1/2022 4:15:00 PM 8.65 47.57 0.042 7.31 2.18 11.54
5/1/2022 4:30:00 PM 8.7 47.66 0.042 7.32 2.26 11.53
5/1/2022 4:45:00 PM 8.73 47.714 0.042 7.31 2.33 11.5
5/1/2022 5:00:00 PM 8.77 47.786 0.042 7.32 2.34 11.5
5/1/2022 5:15:00 PM 8.81 47.858 0.042 7.32 2.25 11.48
5/1/2022 5:30:00 PM 8.82 47.876 0.042 7.3 2.23 11.44
5/1/2022 5:45:00 PM 8.84 47.912 0.042 7.3 2.31 11.43
5/1/2022 6:00:00 PM 8.86 47.948 0.042 7.28 2.29 11.41
5/1/2022 6:15:00 PM 8.85 47.93 0.042 7.26 2.28 11.35
5/1/2022 6:30:00 PM 8.86 47.948 0.042 7.25 2.21 11.31
5/1/2022 6:45:00 PM 8.86 47.948 0.042 7.23 2.25 11.28
5/1/2022 7:00:00 PM 8.85 47.93 0.043 7.2 2.25 11.26
5/1/2022 7:15:00 PM 8.84 47.912 0.043 7.2 2.25 11.23
5/1/2022 7:30:00 PM 8.84 47.912 0.043 7.19 2.22 11.22
5/1/2022 7:45:00 PM 8.83 47.894 0.043 7.17 2.25 11.18
5/1/2022 8:00:00 PM 8.81 47.858 0.043 7.16 2.31 11.13
5/1/2022 8:15:00 PM 8.8 47.84 0.043 7.13 2.28 11.09
5/1/2022 8:30:00 PM 8.78 47.804 0.043 7.11 2.27 11.06
5/1/2022 8:45:00 PM 8.76 47.768 0.043 7.09 2.32 11.02
5/1/2022 9:00:00 PM 8.75 47.75 0.043 7.09 2.41 11.01
5/1/2022 9:15:00 PM 8.74 47.732 0.043 7.08 2.33 10.99
5/1/2022 9:30:00 PM 8.72 47.696 0.043 7.08 2.3 10.98
5/1/2022 9:45:00 PM 8.71 47.678 0.043 7.06 2.34 10.97
5/1/2022 10:00:00 PM 8.7 47.66 0.043 7.06 2.25 10.97
5/1/2022 10:15:00 PM 8.68 47.624 0.043 7.05 2.28 10.97
5/1/2022 10:30:00 PM 8.68 47.624 0.043 7.07 2.21 10.97
5/1/2022 10:45:00 PM 8.67 47.606 0.043 7.06 2.34 10.96
5/1/2022 11:00:00 PM 8.67 47.606 0.043 7.05 2.4 10.96
5/1/2022 11:15:00 PM 8.67 47.606 0.043 7.07 2.32 10.96
5/1/2022 11:30:00 PM 8.66 47.588 0.043 7.06 2.32 10.96
5/1/2022 11:45:00 PM 8.66 47.588 0.044 7.06 2.31 10.96
5/2/2022 12:00:00 AM 8.66 47.588 0.044 7.07 2.34 10.96
5/2/2022 12:15:00 AM 8.65 47.57 0.044 7.07 2.27 10.96
5/2/2022 12:30:00 AM 8.65 47.57 0.044 7.07 2.36 10.96
5/2/2022 12:45:00 AM 8.66 47.588 0.044 7.07 2.39 10.96
5/2/2022 1:00:00 AM 8.65 47.57 0.044 7.07 2.32 10.96
5/2/2022 1:15:00 AM 8.66 47.588 0.044 7.07 2.32 10.96
5/2/2022 1:30:00 AM 8.66 47.588 0.044 7.05 2.28 10.96
5/2/2022 1:45:00 AM 8.65 47.57 0.044 7.05 2.36 10.96
5/2/2022 2:00:00 AM 8.63 47.534 0.044 7.05 2.34 10.96
5/2/2022 2:15:00 AM 8.61 47.498 0.044 7.05 2.34 10.96
5/2/2022 2:30:00 AM 8.61 47.498 0.044 7.04 2.29 10.96
5/2/2022 2:45:00 AM 8.6 47.48 0.044 7.05 2.49 10.96
5/2/2022 3:00:00 AM 8.6 47.48 0.044 7.04 2.39 10.96
5/2/2022 3:15:00 AM 8.59 47.462 0.044 7.04 2.34 10.96
5/2/2022 3:30:00 AM 8.59 47.462 0.044 7.04 2.32 10.96
5/2/2022 3:45:00 AM 8.59 47.462 0.044 7.02 2.35 10.96
5/2/2022 4:00:00 AM 8.59 47.462 0.044 7.03 2.36 10.97
5/2/2022 4:15:00 AM 8.59 47.462 0.044 7.03 2.42 10.96
5/2/2022 4:30:00 AM 8.59 47.462 0.044 7.03 2.33 10.96
5/2/2022 4:45:00 AM 8.58 47.444 0.044 7.03 2.32 10.96
5/2/2022 5:00:00 AM 8.58 47.444 0.044 7.03 2.33 10.96
5/2/2022 5:15:00 AM 8.58 47.444 0.044 7.03 2.36 10.96
5/2/2022 5:30:00 AM 8.58 47.444 0.044 7.02 2.24 10.97
5/2/2022 5:45:00 AM 8.58 47.444 0.044 7.01 2.45 10.96
5/2/2022 6:00:00 AM 8.57 47.426 0.044 7.02 2.36 10.97
5/2/2022 6:15:00 AM 8.57 47.426 0.042 7.02 4.07 10.97
5/2/2022 6:30:00 AM 8.57 47.426 0.044 7.02 2.28 10.99
5/2/2022 6:45:00 AM 8.58 47.444 0.044 7.03 2.29 11
5/2/2022 7:00:00 AM 8.57 47.426 0.044 7.05 2.29 11.05
5/2/2022 7:15:00 AM 8.59 47.462 0.044 7.07 2.29 11.11
5/2/2022 7:30:00 AM 8.63 47.534 0.044 7.1 2.37 11.21
5/2/2022 7:45:00 AM 8.66 47.588 0.044 7.12 2.24 11.27
5/2/2022 8:00:00 AM 8.71 47.678 0.044 7.16 2.22 11.34
5/2/2022 8:15:00 AM 8.76 47.768 0.043 7.18 3.99 11.39
5/2/2022 8:30:00 AM 8.78 47.804 0.044 7.2 2.29 11.39
5/2/2022 8:45:00 AM 8.82 47.876 0.044 7.23 2.25 11.42
5/2/2022 9:00:00 AM 8.86 47.948 0.044 7.24 2.21 11.43
5/2/2022 9:15:00 AM 8.94 48.092 0.043 7.27 2.15 11.47
5/2/2022 9:30:00 AM 9.04 48.272 0.043 7.3 2.22 11.5
5/2/2022 9:45:00 AM 9.13 48.434 0.043 7.32 2.21 11.5
5/2/2022 10:00:00 AM 9.33 48.794 0.043 7.36 2.17 11.52
5/2/2022 10:15:00 AM 9.32 48.776 0.043 7.32 2.28 11.42
5/2/2022 10:30:00 AM 9.44 48.992 0.043 7.36 2.19 11.44
5/2/2022 10:45:00 AM 9.51 49.118 0.043 7.34 2.28 11.39
5/2/2022 11:00:00 AM 9.52 49.136 0.043 7.31 2.16 11.31
5/2/2022 11:15:00 AM 9.56 49.208 0.043 7.29 2.28 11.25
5/2/2022 11:30:00 AM 9.57 49.226 0.043 7.27 2.2 11.2
5/2/2022 11:45:00 AM 9.55 49.19 0.043 7.26 2.25 11.16
5/2/2022 12:00:00 PM 9.52 49.136 0.043 7.23 2.16 11.1
5/2/2022 12:15:00 PM 9.54 49.172 0.043 7.24 2.22 11.17
5/2/2022 12:30:00 PM 9.67 49.406 0.043 7.3 2.31 11.26
5/2/2022 12:45:00 PM 9.86 49.748 0.043 7.35 2.18 11.32
5/2/2022 1:00:00 PM 9.95 49.91 0.043 7.37 2.2 11.35
5/2/2022 1:15:00 PM 10.17 50.306 0.043 7.41 2.19 11.36
5/2/2022 1:30:00 PM 10.5 50.9 0.042 7.42 3.87 11.33
5/2/2022 1:45:00 PM 10.51 50.918 0.043 7.43 2.23 11.29
5/2/2022 2:00:00 PM 10.88 51.584 0.043 7.46 2.16 11.25
5/2/2022 2:15:00 PM 11.04 51.872 0.043 7.46 2.24 11.2
5/2/2022 2:30:00 PM 11.07 51.926 0.043 7.44 2.26 11.15
5/2/2022 2:45:00 PM 11.2 52.16 0.043 7.46 2.34 11.13
5/2/2022 3:00:00 PM 11.33 52.394 0.041 7.45 4.25 11.08
5/2/2022 3:15:00 PM 11.45 52.61 0.043 7.45 2.28 11.07
5/2/2022 3:30:00 PM 11.59 52.862 0.042 7.47 3.98 11.04
5/2/2022 3:45:00 PM 11.59 52.862 0.043 7.47 2.36 11.01
5/2/2022 4:00:00 PM 11.66 52.988 0.043 7.47 2.32 10.99
5/2/2022 4:15:00 PM 11.81 53.258 0.041 7.45 3.91 10.96
5/2/2022 4:30:00 PM 11.8 53.24 0.04 7.44 4.04 10.94
5/2/2022 4:45:00 PM 11.79 53.222 0.042 7.45 2.22 10.91
5/2/2022 5:00:00 PM 11.81 53.258 0.042 7.44 2.29 10.88
5/2/2022 5:15:00 PM 11.8 53.24 0.042 7.42 2.36 10.85
5/2/2022 5:30:00 PM 11.8 53.24 0.041 7.4 3.81 10.83
5/2/2022 5:45:00 PM 11.75 53.15 0.042 7.36 2.23 10.79
5/2/2022 6:00:00 PM 11.69 53.042 0.041 7.34 3.88 10.75
5/2/2022 6:15:00 PM 11.63 52.934 0.04 7.33 4.08 10.74
5/2/2022 6:30:00 PM 11.55 52.79 0.042 7.29 2.32 10.69
5/2/2022 6:45:00 PM 11.48 52.664 0.041 7.27 3.93 10.66
5/2/2022 7:00:00 PM 11.41 52.538 0.043 7.25 2.37 10.62
5/2/2022 7:15:00 PM 11.34 52.412 0.043 7.22 2.31 10.59
5/2/2022 7:30:00 PM 11.27 52.286 0.042 7.19 4.05 10.57
5/2/2022 7:45:00 PM 11.2 52.16 0.043 7.18 2.21 10.54
5/2/2022 8:00:00 PM 11.12 52.016 0.043 7.16 2.35 10.52
5/2/2022 8:15:00 PM 11.06 51.908 0.042 7.13 3.93 10.49
5/2/2022 8:30:00 PM 10.99 51.782 0.043 7.12 2.3 10.46
5/2/2022 8:45:00 PM 10.93 51.674 0.042 7.09 4.27 10.44
5/2/2022 9:00:00 PM 10.87 51.566 0.043 7.09 2.37 10.43
5/2/2022 9:15:00 PM 10.8 51.44 0.043 7.08 2.42 10.44
5/2/2022 9:30:00 PM 10.71 51.278 0.042 7.06 4.14 10.44
5/2/2022 9:45:00 PM 10.62 51.116 0.043 7.07 2.41 10.45
5/2/2022 10:00:00 PM 10.53 50.954 0.044 7.06 2.45 10.47
5/2/2022 10:15:00 PM 10.43 50.774 0.044 7.06 2.43 10.49
5/2/2022 10:30:00 PM 10.34 50.612 0.043 7.04 4.14 10.51
5/2/2022 10:45:00 PM 10.24 50.432 0.044 7.05 2.45 10.53
5/2/2022 11:00:00 PM 10.15 50.27 0.044 7.05 2.45 10.55
5/2/2022 11:15:00 PM 10.06 50.108 0.044 7.06 2.37 10.57
5/2/2022 11:30:00 PM 9.96 49.928 0.044 7.06 2.41 10.59
5/2/2022 11:45:00 PM 9.87 49.766 0.044 7.05 2.43 10.62
5/3/2022 12:00:00 AM 9.78 49.604 0.044 7.05 2.46 10.64
5/3/2022 12:15:00 AM 9.69 49.442 0.044 7.05 2.34 10.66
5/3/2022 12:30:00 AM 9.6 49.28 0.044 7.05 2.45 10.69
5/3/2022 12:45:00 AM 9.51 49.118 0.043 7.04 4.21 10.71
5/3/2022 1:00:00 AM 9.42 48.956 0.042 7.03 4.14 10.73
5/3/2022 1:15:00 AM 9.34 48.812 0.044 7.05 2.39 10.76
5/3/2022 1:30:00 AM 9.25 48.65 0.044 7.04 2.46 10.78
5/3/2022 1:45:00 AM 9.16 48.488 0.044 7.04 2.45 10.81
5/3/2022 2:00:00 AM 9.08 48.344 0.042 7.03 4.18 10.83
5/3/2022 2:15:00 AM 8.99 48.182 0.044 7.05 2.47 10.86
5/3/2022 2:30:00 AM 8.9 48.02 0.044 7.05 2.36 10.88
5/3/2022 2:45:00 AM 8.82 47.876 0.044 7.04 2.5 10.9
5/3/2022 3:00:00 AM 8.73 47.714 0.044 7.05 2.45 10.93
5/3/2022 3:15:00 AM 8.65 47.57 0.044 7.05 2.44 10.95
5/3/2022 3:30:00 AM 8.56 47.408 0.044 7.05 2.55 10.97
5/3/2022 3:45:00 AM 8.48 47.264 0.044 7.04 2.35 11
5/3/2022 4:00:00 AM 8.39 47.102 0.044 7.05 2.36 11.02
5/3/2022 4:15:00 AM 8.31 46.958 0.044 7.05 2.42 11.05
5/3/2022 4:30:00 AM 8.23 46.814 0.044 7.04 2.45 11.07
5/3/2022 4:45:00 AM 8.14 46.652 0.044 7.04 2.37 11.09
5/3/2022 5:00:00 AM 8.06 46.508 0.044 7.05 2.42 11.12
5/3/2022 5:15:00 AM 7.98 46.364 0.044 7.04 2.38 11.15
5/3/2022 5:30:00 AM 7.9 46.22 0.044 7.05 2.41 11.17
5/3/2022 5:45:00 AM 7.84 46.112 0.044 7.05 2.36 11.2
5/3/2022 6:00:00 AM 7.77 45.986 0.044 7.05 2.28 11.22
5/3/2022 6:15:00 AM 7.71 45.878 0.044 7.05 2.36 11.25
5/3/2022 6:30:00 AM 7.66 45.788 0.044 7.06 2.45 11.29
5/3/2022 6:45:00 AM 7.62 45.716 0.044 7.07 2.32 11.37
5/3/2022 7:00:00 AM 7.58 45.644 0.044 7.09 2.27 11.45
5/3/2022 7:15:00 AM 7.54 45.572 0.044 7.12 2.28 11.54
5/3/2022 7:30:00 AM 7.53 45.554 0.044 7.14 2.34 11.62
5/3/2022 7:45:00 AM 7.53 45.554 0.044 7.18 2.33 11.7
5/3/2022 8:00:00 AM 7.52 45.536 0.044 7.21 2.33 11.76
5/3/2022 8:15:00 AM 7.57 45.626 0.044 7.24 2.25 11.83
5/3/2022 8:30:00 AM 7.6 45.68 0.044 7.27 2.28 11.87
5/3/2022 8:45:00 AM 7.68 45.824 0.044 7.29 2.33 11.91
5/3/2022 9:00:00 AM 7.77 45.986 0.044 7.32 2.25 11.94
5/3/2022 9:15:00 AM 7.87 46.166 0.044 7.34 2.23 11.96
5/3/2022 9:30:00 AM 7.96 46.328 0.044 7.35 2.36 11.96
5/3/2022 9:45:00 AM 8.1 46.58 0.044 7.38 2.24 11.94
5/3/2022 10:00:00 AM 8.23 46.814 0.044 7.39 2.19 11.92
5/3/2022 10:15:00 AM 8.43 47.174 0.043 7.41 2.32 11.89
5/3/2022 10:30:00 AM 8.56 47.408 0.043 7.41 2.18 11.86
5/3/2022 10:45:00 AM 8.74 47.732 0.043 7.44 2.32 11.83
5/3/2022 11:00:00 AM 8.94 48.092 0.043 7.43 2.15 11.78
5/3/2022 11:15:00 AM 9.08 48.344 0.043 7.45 2.25 11.74
5/3/2022 11:30:00 AM 9.19 48.542 0.043 7.44 2.21 11.68
5/3/2022 11:45:00 AM 9.33 48.794 0.043 7.44 2.22 11.64
5/3/2022 12:00:00 PM 9.43 48.974 0.043 7.44 2.23 11.59
5/3/2022 12:15:00 PM 9.6 49.28 0.043 7.45 2.15 11.57
5/3/2022 12:30:00 PM 9.8 49.64 0.043 7.46 2.13 11.53
5/3/2022 12:45:00 PM 10 50 0.043 7.46 2.14 11.49
5/3/2022 1:00:00 PM 10.21 50.378 0.043 7.46 2.14 11.45
5/3/2022 1:15:00 PM 10.36 50.648 0.043 7.46 2.2 11.4
5/3/2022 1:30:00 PM 10.48 50.864 0.043 7.46 2.17 11.35
5/3/2022 1:45:00 PM 10.6 51.08 0.043 7.45 2.25 11.31
5/3/2022 2:00:00 PM 10.7 51.26 0.043 7.46 2.25 11.27
5/3/2022 2:15:00 PM 10.76 51.368 0.043 7.45 2.2 11.21
5/3/2022 2:30:00 PM 10.81 51.458 0.043 7.44 2.35 11.16
5/3/2022 2:45:00 PM 10.87 51.566 0.043 7.43 2.2 11.14
5/3/2022 3:00:00 PM 10.92 51.656 0.043 7.43 2.25 11.12
5/3/2022 3:15:00 PM 10.95 51.71 0.043 7.44 2.23 11.1
5/3/2022 3:30:00 PM 10.98 51.764 0.043 7.43 2.2 11.08
5/3/2022 3:45:00 PM 11.01 51.818 0.043 7.42 2.29 11.05
5/3/2022 4:00:00 PM 11.02 51.836 0.043 7.4 2.29 11.01
5/3/2022 4:15:00 PM 11.04 51.872 0.043 7.39 2.27 10.99
5/3/2022 4:30:00 PM 11.08 51.944 0.043 7.38 2.24 10.98
5/3/2022 4:45:00 PM 11.1 51.98 0.04 7.39 4 10.96
5/3/2022 5:00:00 PM 11.14 52.052 0.04 7.39 4.04 10.95
5/3/2022 5:15:00 PM 11.21 52.178 0.043 7.4 2.23 10.95
5/3/2022 5:30:00 PM 11.23 52.214 0.043 7.4 2.21 10.93
5/3/2022 5:45:00 PM 11.26 52.268 0.043 7.38 2.33 10.9
5/3/2022 6:00:00 PM 11.28 52.304 0.043 7.37 2.36 10.86
5/3/2022 6:15:00 PM 11.31 52.358 0.043 7.37 2.25 10.85
5/3/2022 6:30:00 PM 11.33 52.394 0.043 7.35 2.26 10.82
5/3/2022 6:45:00 PM 11.33 52.394 0.041 7.32 3.97 10.78
5/3/2022 7:00:00 PM 11.34 52.412 0.043 7.32 2.28 10.72
5/3/2022 7:15:00 PM 11.34 52.412 0.043 7.28 2.34 10.65
5/3/2022 7:30:00 PM 11.33 52.394 0.043 7.26 2.36 10.62
5/3/2022 7:45:00 PM 11.3 52.34 0.043 7.23 2.4 10.55
5/3/2022 8:00:00 PM 11.27 52.286 0.043 7.19 2.35 10.48
5/3/2022 8:15:00 PM 11.25 52.25 0.042 7.15 4.11 10.43
5/3/2022 8:30:00 PM 11.21 52.178 0.043 7.15 2.42 10.39
5/3/2022 8:45:00 PM 11.17 52.106 0.041 7.11 4.2 10.36
5/3/2022 9:00:00 PM 11.13 52.034 0.041 7.09 4.11 10.33
5/3/2022 9:15:00 PM 11.1 51.98 0.043 7.09 2.47 10.32
5/3/2022 9:30:00 PM 11.07 51.926 0.044 7.08 2.73 10.32
5/3/2022 9:45:00 PM 11.03 51.854 0.044 7.08 2.48 10.31
5/3/2022 10:00:00 PM 10.99 51.782 0.044 7.07 2.57 10.31
5/3/2022 10:15:00 PM 10.95 51.71 0.044 7.07 2.47 10.31
5/3/2022 10:30:00 PM 10.91 51.638 0.044 7.05 2.55 10.32
5/3/2022 10:45:00 PM 10.87 51.566 0.042 7.05 4.34 10.32
5/3/2022 11:00:00 PM 10.83 51.494 0.044 7.06 2.56 10.33
5/3/2022 11:15:00 PM 10.8 51.44 0.044 7.06 2.42 10.34
5/3/2022 11:30:00 PM 10.77 51.386 0.044 7.06 2.5 10.35
5/3/2022 11:45:00 PM 10.75 51.35 0.044 7.06 2.54 10.35
5/4/2022 12:00:00 AM 10.72 51.296 0.044 7.07 2.6 10.35
5/4/2022 12:15:00 AM 10.7 51.26 0.044 7.07 2.42 10.36
5/4/2022 12:30:00 AM 10.68 51.224 0.043 7.06 4.4 10.36
5/4/2022 12:45:00 AM 10.67 51.206 0.042 7.05 4.2 10.37
5/4/2022 1:00:00 AM 10.65 51.17 0.044 7.06 2.52 10.37
5/4/2022 1:15:00 AM 10.63 51.134 0.044 7.07 2.52 10.38
5/4/2022 1:30:00 AM 10.6 51.08 0.044 7.06 2.54 10.39
5/4/2022 1:45:00 AM 10.58 51.044 0.044 7.06 2.61 10.39
5/4/2022 2:00:00 AM 10.56 51.008 0.044 7.06 2.7 10.39
5/4/2022 2:15:00 AM 10.53 50.954 0.043 7.05 5.04 10.4
5/4/2022 2:30:00 AM 10.51 50.918 0.044 7.05 2.53 10.4
5/4/2022 2:45:00 AM 10.49 50.882 0.043 7.05 4.49 10.41
5/4/2022 3:00:00 AM 10.46 50.828 0.044 7.06 2.71 10.41
5/4/2022 3:15:00 AM 10.45 50.81 0.044 7.06 2.53 10.41
5/4/2022 3:30:00 AM 10.43 50.774 0.043 7.05 4.47 10.42
5/4/2022 3:45:00 AM 10.41 50.738 0.044 7.07 2.52 10.43
5/4/2022 4:00:00 AM 10.39 50.702 0.043 7.05 4.35 10.43
5/4/2022 4:15:00 AM 10.37 50.666 0.044 7.07 2.54 10.44
5/4/2022 4:30:00 AM 10.35 50.63 0.043 7.06 4.32 10.44
5/4/2022 4:45:00 AM 10.33 50.594 0.044 7.07 2.53 10.45
5/4/2022 5:00:00 AM 10.32 50.576 0.044 7.07 2.58 10.45
5/4/2022 5:15:00 AM 10.3 50.54 0.044 7.07 2.41 10.46
5/4/2022 5:30:00 AM 10.29 50.522 0.045 7.06 2.52 10.46
5/4/2022 5:45:00 AM 10.27 50.486 0.045 7.06 2.45 10.46
5/4/2022 6:00:00 AM 10.26 50.468 0.045 7.07 2.42 10.47
5/4/2022 6:15:00 AM 10.24 50.432 0.045 7.08 2.48 10.48
5/4/2022 6:30:00 AM 10.22 50.396 0.044 7.06 4.22 10.49
5/4/2022 6:45:00 AM 10.21 50.378 0.045 7.08 2.41 10.52
5/4/2022 7:00:00 AM 10.2 50.36 0.045 7.08 2.36 10.53
5/4/2022 7:15:00 AM 10.18 50.324 0.043 7.08 4.16 10.54
5/4/2022 7:30:00 AM 10.18 50.324 0.042 7.07 4.2 10.58
5/4/2022 7:45:00 AM 10.18 50.324 0.044 7.11 2.41 10.65
5/4/2022 8:00:00 AM 10.17 50.306 0.044 7.12 2.47 10.67
5/4/2022 8:15:00 AM 10.19 50.342 0.043 7.14 3.97 10.74
5/4/2022 8:30:00 AM 10.2 50.36 0.044 7.17 2.44 10.79
5/4/2022 8:45:00 AM 10.23 50.414 0.044 7.19 2.33 10.84
5/4/2022 9:00:00 AM 10.24 50.432 0.044 7.2 2.37 10.86
5/4/2022 9:15:00 AM 10.25 50.45 0.044 7.21 2.45 10.87
5/4/2022 9:30:00 AM 10.29 50.522 0.043 7.22 4.19 10.91
5/4/2022 9:45:00 AM 10.34 50.612 0.044 7.25 2.37 10.96
5/4/2022 10:00:00 AM 10.36 50.648 0.044 7.27 2.32 10.97
5/4/2022 10:15:00 AM 10.39 50.702 0.044 7.28 2.37 10.99
5/4/2022 10:30:00 AM 10.49 50.882 0.043 7.31 4.04 11.05
5/4/2022 10:45:00 AM 10.54 50.972 0.044 7.34 2.33 11.06
5/4/2022 11:00:00 AM 10.62 51.116 0.044 7.35 2.33 11.07
5/4/2022 11:15:00 AM 10.69 51.242 0.044 7.36 2.38 11.08
5/4/2022 11:30:00 AM 10.88 51.584 0.044 7.39 2.27 11.09
5/4/2022 11:45:00 AM 10.98 51.764 0.042 7.4 4 11.09
5/4/2022 12:00:00 PM 11.16 52.088 0.04 7.43 3.11 11.08
5/4/2022 12:15:00 PM 11.45 52.61 0.041 7.43 4.14 11.06
5/4/2022 12:30:00 PM 11.72 53.096 0.041 7.45 4.04 11.02
5/4/2022 12:45:00 PM 11.89 53.402 0.041 7.44 4.13 10.94
5/4/2022 1:00:00 PM 11.95 53.51 0.043 7.42 2.37 10.86
5/4/2022 1:15:00 PM 11.95 53.51 0.042 7.38 4.07 10.77
5/4/2022 1:30:00 PM 11.88 53.384 0.043 7.38 2.39 10.76
5/4/2022 1:45:00 PM 11.81 53.258 0.043 7.36 2.38 10.75
5/4/2022 2:00:00 PM 11.92 53.456 0.042 7.38 4.13 10.79
5/4/2022 2:15:00 PM 12.04 53.672 0.041 7.41 4.28 10.8
5/4/2022 2:30:00 PM 12.04 53.672 0.043 7.43 2.4 10.81
5/4/2022 2:45:00 PM 12.08 53.744 0.043 7.44 2.55 10.81
5/4/2022 3:00:00 PM 12.13 53.834 0.043 7.44 2.54 10.8
5/4/2022 3:15:00 PM 12.19 53.942 0.043 7.45 2.56 10.79
5/4/2022 3:30:00 PM 12.28 54.104 0.043 7.45 2.6 10.79
5/4/2022 3:45:00 PM 12.27 54.086 0.043 7.43 2.82 10.75
5/4/2022 4:00:00 PM 12.29 54.122 0.043 7.43 2.66 10.71
5/4/2022 4:15:00 PM 12.31 54.158 0.042 7.39 4.59 10.66
5/4/2022 4:30:00 PM 12.32 54.176 0.043 7.4 3.52 10.63
5/4/2022 4:45:00 PM 12.32 54.176 0.043 7.4 3.81 10.62
5/4/2022 5:00:00 PM 12.28 54.104 0.043 7.38 3.69 10.58
5/4/2022 5:15:00 PM 12.22 53.996 0.043 7.36 3.09 10.56
5/4/2022 5:30:00 PM 12.16 53.888 0.042 7.33 4.61 10.54
5/4/2022 5:45:00 PM 12.1 53.78 0.041 7.31 4.45 10.54
5/4/2022 6:00:00 PM 12.04 53.672 0.043 7.29 2.74 10.54
5/4/2022 6:15:00 PM 11.98 53.564 0.043 7.29 2.83 10.5
5/4/2022 6:30:00 PM 11.91 53.438 0.043 7.26 2.87 10.47
5/4/2022 6:45:00 PM 11.86 53.348 0.044 7.24 2.79 10.46
5/4/2022 7:00:00 PM 11.8 53.24 0.044 7.22 2.74 10.42
5/4/2022 7:15:00 PM 11.74 53.132 0.044 7.21 2.64 10.4
5/4/2022 7:30:00 PM 11.68 53.024 0.044 7.19 2.69 10.38
5/4/2022 7:45:00 PM 11.62 52.916 0.044 7.17 2.6 10.36
5/4/2022 8:00:00 PM 11.56 52.808 0.044 7.14 2.56 10.34
5/4/2022 8:15:00 PM 11.5 52.7 0.043 7.13 4.29 10.33
5/4/2022 8:30:00 PM 11.43 52.574 0.044 7.12 2.7 10.31
5/4/2022 8:45:00 PM 11.37 52.466 0.044 7.11 2.75 10.31
5/4/2022 9:00:00 PM 11.32 52.376 0.044 7.11 2.72 10.3
5/4/2022 9:15:00 PM 11.27 52.286 0.044 7.1 2.65 10.3
5/4/2022 9:30:00 PM 11.22 52.196 0.043 7.08 4.47 10.3
5/4/2022 9:45:00 PM 11.18 52.124 0.044 7.09 2.6 10.31
5/4/2022 10:00:00 PM 11.13 52.034 0.044 7.09 2.8 10.32
5/4/2022 10:15:00 PM 11.09 51.962 0.043 7.08 4.61 10.32
5/4/2022 10:30:00 PM 11.05 51.89 0.045 7.09 2.77 10.34
5/4/2022 10:45:00 PM 11 51.8 0.045 7.08 2.72 10.35
5/4/2022 11:00:00 PM 10.96 51.728 0.042 7.07 4.49 10.36
5/4/2022 11:15:00 PM 10.91 51.638 0.045 7.08 2.7 10.37
5/4/2022 11:30:00 PM 10.86 51.548 0.045 7.1 2.87 10.38
5/4/2022 11:45:00 PM 10.82 51.476 0.045 7.11 2.76 10.39
5/5/2022 12:00:00 AM 10.77 51.386 0.045 7.11 2.83 10.4
5/5/2022 12:15:00 AM 10.73 51.314 0.044 7.11 4.54 10.42
5/5/2022 12:30:00 AM 10.69 51.242 0.043 7.11 4.54 10.43
5/5/2022 12:45:00 AM 10.65 51.17 0.045 7.12 2.76 10.44
5/5/2022 1:00:00 AM 10.6 51.08 0.045 7.12 2.8 10.45
5/5/2022 1:15:00 AM 10.56 51.008 0.045 7.09 2.77 10.47
5/5/2022 1:30:00 AM 10.51 50.918 0.043 7.1 4.58 10.48
5/5/2022 1:45:00 AM 10.45 50.81 0.045 7.1 3 10.49
5/5/2022 2:00:00 AM 10.39 50.702 0.045 7.1 2.92 10.5
5/5/2022 2:15:00 AM 10.33 50.594 0.045 7.1 2.82 10.52
5/5/2022 2:30:00 AM 10.26 50.468 0.045 7.1 2.88 10.53
5/5/2022 2:45:00 AM 10.18 50.324 0.045 7.06 2.96 10.55
5/5/2022 3:00:00 AM 10.1 50.18 0.045 7.08 2.9 10.57
5/5/2022 3:15:00 AM 10.01 50.018 0.044 7.09 4.66 10.58
5/5/2022 3:30:00 AM 9.93 49.874 0.043 7.08 4.78 10.61
5/5/2022 3:45:00 AM 9.84 49.712 0.045 7.08 2.85 10.62
5/5/2022 4:00:00 AM 9.75 49.55 0.043 7.07 4.69 10.64
5/5/2022 4:15:00 AM 9.67 49.406 0.045 7.09 2.86 10.67
5/5/2022 4:30:00 AM 9.58 49.244 0.045 7.08 2.84 10.68
5/5/2022 4:45:00 AM 9.5 49.1 0.045 7.08 2.87 10.71
5/5/2022 5:00:00 AM 9.42 48.956 0.045 7.08 2.82 10.73
5/5/2022 5:15:00 AM 9.35 48.83 0.045 7.07 2.88 10.75
5/5/2022 5:30:00 AM 9.27 48.686 0.045 7.07 2.9 10.77
5/5/2022 5:45:00 AM 9.2 48.56 0.045 7.07 2.83 10.79
5/5/2022 6:00:00 AM 9.13 48.434 0.045 7.07 2.81 10.82
5/5/2022 6:15:00 AM 9.06 48.308 0.045 7.07 2.84 10.85
5/5/2022 6:30:00 AM 9 48.2 0.045 7.08 2.97 10.89
5/5/2022 6:45:00 AM 8.94 48.092 0.045 7.09 2.89 10.95
5/5/2022 7:00:00 AM 8.89 48.002 0.045 7.1 2.86 11.02
5/5/2022 7:15:00 AM 8.86 47.948 0.045 7.11 2.85 11.1
5/5/2022 7:30:00 AM 8.83 47.894 0.045 7.15 2.86 11.18
5/5/2022 7:45:00 AM 8.82 47.876 0.045 7.17 2.86 11.25
5/5/2022 8:00:00 AM 8.82 47.876 0.045 7.2 2.75 11.31
5/5/2022 8:15:00 AM 8.85 47.93 0.045 7.22 2.81 11.36
5/5/2022 8:30:00 AM 8.89 48.002 0.045 7.24 2.79 11.41
5/5/2022 8:45:00 AM 8.94 48.092 0.045 7.27 2.75 11.45
5/5/2022 9:00:00 AM 9.03 48.254 0.045 7.3 2.75 11.48
5/5/2022 9:15:00 AM 9.12 48.416 0.045 7.33 2.84 11.5
5/5/2022 9:30:00 AM 9.24 48.632 0.045 7.35 2.69 11.5
5/5/2022 9:45:00 AM 9.36 48.848 0.044 7.36 2.77 11.5
5/5/2022 10:00:00 AM 9.5 49.1 0.044 7.38 2.73 11.5
5/5/2022 10:15:00 AM 9.66 49.388 0.044 7.4 2.75 11.47
5/5/2022 10:30:00 AM 9.86 49.748 0.044 7.42 2.76 11.45
5/5/2022 10:45:00 AM 10.05 50.09 0.044 7.43 2.75 11.42
5/5/2022 11:00:00 AM 10.28 50.504 0.044 7.45 2.77 11.39
5/5/2022 11:15:00 AM 10.49 50.882 0.044 7.44 2.69 11.34
5/5/2022 11:30:00 AM 10.74 51.332 0.044 7.46 2.71 11.29
5/5/2022 11:45:00 AM 10.98 51.764 0.043 7.45 4.62 11.23
5/5/2022 12:00:00 PM 11.22 52.196 0.044 7.47 2.81 11.18
5/5/2022 12:15:00 PM 11.51 52.718 0.044 7.47 2.74 11.13
5/5/2022 12:30:00 PM 11.76 53.168 0.044 7.48 2.69 11.08
5/5/2022 12:45:00 PM 12.04 53.672 0.043 7.47 4.34 11
5/5/2022 1:00:00 PM 12.26 54.068 0.044 7.49 2.7 10.94
5/5/2022 1:15:00 PM 12.41 54.338 0.044 7.48 2.67 10.89
5/5/2022 1:30:00 PM 12.6 54.68 0.043 7.5 4.33 10.85
5/5/2022 1:45:00 PM 12.87 55.166 0.041 7.5 4.55 10.8
5/5/2022 2:00:00 PM 13.08 55.544 0.043 7.5 2.66 10.75
5/5/2022 2:15:00 PM 13.26 55.868 0.043 7.51 2.69 10.69
5/5/2022 2:30:00 PM 13.47 56.246 0.043 7.51 2.85 10.64
5/5/2022 2:45:00 PM 13.7 56.66 0.043 7.51 2.78 10.58
5/5/2022 3:00:00 PM 13.85 56.93 0.043 7.51 2.79 10.53
5/5/2022 3:15:00 PM 14.01 57.218 0.043 7.5 2.85 10.5
5/5/2022 3:30:00 PM 14.19 57.542 0.043 7.51 2.76 10.46
5/5/2022 3:45:00 PM 14.27 57.686 0.042 7.5 4.65 10.42
5/5/2022 4:00:00 PM 14.38 57.884 0.043 7.5 2.79 10.38
5/5/2022 4:15:00 PM 14.43 57.974 0.043 7.5 2.78 10.35
5/5/2022 4:30:00 PM 14.47 58.046 0.043 7.5 2.71 10.31
5/5/2022 4:45:00 PM 14.48 58.064 0.043 7.49 2.73 10.28
5/5/2022 5:00:00 PM 14.47 58.046 0.043 7.49 2.82 10.26
5/5/2022 5:15:00 PM 14.45 58.01 0.043 7.47 2.78 10.24
5/5/2022 5:30:00 PM 14.4 57.92 0.043 7.48 2.71 10.22
5/5/2022 5:45:00 PM 14.33 57.794 0.042 7.44 4.6 10.19
5/5/2022 6:00:00 PM 14.26 57.668 0.043 7.43 2.88 10.17
5/5/2022 6:15:00 PM 14.18 57.524 0.043 7.41 2.91 10.16
5/5/2022 6:30:00 PM 14.08 57.344 0.043 7.39 2.92 10.15
5/5/2022 6:45:00 PM 13.97 57.146 0.043 7.37 2.87 10.12
5/5/2022 7:00:00 PM 13.86 56.948 0.043 7.33 2.76 10.08
5/5/2022 7:15:00 PM 13.76 56.768 0.042 7.3 4.62 10.03
5/5/2022 7:30:00 PM 13.65 56.57 0.041 7.27 4.61 9.99
5/5/2022 7:45:00 PM 13.53 56.354 0.044 7.24 3.11 9.95
5/5/2022 8:00:00 PM 13.43 56.174 0.043 7.2 4.65 9.91
5/5/2022 8:15:00 PM 13.34 56.012 0.044 7.18 2.78 9.87
5/5/2022 8:30:00 PM 13.24 55.832 0.042 7.15 4.8 9.85
5/5/2022 8:45:00 PM 13.13 55.634 0.042 7.13 4.76 9.85
5/5/2022 9:00:00 PM 13.03 55.454 0.044 7.13 2.8 9.84
5/5/2022 9:15:00 PM 12.92 55.256 0.043 7.11 4.66 9.85
5/5/2022 9:30:00 PM 12.82 55.076 0.042 7.1 4.68 9.86
5/5/2022 9:45:00 PM 12.71 54.878 0.045 7.11 2.97 9.88
5/5/2022 10:00:00 PM 12.61 54.698 0.045 7.11 2.89 9.89
5/5/2022 10:15:00 PM 12.5 54.5 0.045 7.11 2.87 9.91
5/5/2022 10:30:00 PM 12.4 54.32 0.045 7.09 2.92 9.93
5/5/2022 10:45:00 PM 12.3 54.14 0.044 7.1 4.68 9.96
5/5/2022 11:00:00 PM 12.2 53.96 0.043 7.08 4.68 9.98
5/5/2022 11:15:00 PM 12.09 53.762 0.045 7.07 2.88 10
5/5/2022 11:30:00 PM 12 53.6 0.045 7.09 3.01 10.02
5/5/2022 11:45:00 PM 11.91 53.438 0.045 7.1 2.84 10.05
5/6/2022 12:00:00 AM 11.82 53.276 0.045 7.1 2.94 10.07
5/6/2022 12:15:00 AM 11.74 53.132 0.045 7.1 2.92 10.09
5/6/2022 12:30:00 AM 11.66 52.988 0.044 7.09 4.75 10.11
5/6/2022 12:45:00 AM 11.58 52.844 0.043 7.08 4.68 10.13
5/6/2022 1:00:00 AM 11.51 52.718 0.045 7.08 2.88 10.15
5/6/2022 1:15:00 AM 11.44 52.592 0.045 7.1 2.86 10.17
5/6/2022 1:30:00 AM 11.37 52.466 0.045 7.09 2.94 10.19
5/6/2022 1:45:00 AM 11.29 52.322 0.044 7.08 4.67 10.2
5/6/2022 2:00:00 AM 11.22 52.196 0.046 7.09 2.84 10.21
5/6/2022 2:15:00 AM 11.15 52.07 0.046 7.09 2.85 10.23
5/6/2022 2:30:00 AM 11.09 51.962 0.046 7.07 2.97 10.24
5/6/2022 2:45:00 AM 11.02 51.836 0.046 7.09 2.89 10.26
5/6/2022 3:00:00 AM 10.96 51.728 0.046 7.08 3.06 10.28
5/6/2022 3:15:00 AM 10.9 51.62 0.046 7.08 3.04 10.3
5/6/2022 3:30:00 AM 10.84 51.512 0.045 7.07 5.11 10.31
5/6/2022 3:45:00 AM 10.78 51.404 0.046 7.09 2.97 10.32
5/6/2022 4:00:00 AM 10.72 51.296 0.046 7.08 2.87 10.33
5/6/2022 4:15:00 AM 10.67 51.206 0.046 7.08 2.86 10.35
5/6/2022 4:30:00 AM 10.61 51.098 0.046 7.09 2.97 10.37
5/6/2022 4:45:00 AM 10.55 50.99 0.046 7.08 2.95 10.39
5/6/2022 5:00:00 AM 10.5 50.9 0.045 7.09 4.78 10.4
5/6/2022 5:15:00 AM 10.45 50.81 0.046 7.09 2.89 10.41
5/6/2022 5:30:00 AM 10.4 50.72 0.046 7.1 2.91 10.43
5/6/2022 5:45:00 AM 10.35 50.63 0.046 7.09 2.96 10.43
5/6/2022 6:00:00 AM 10.3 50.54 0.045 7.07 3.02 10.45
5/6/2022 6:15:00 AM 10.25 50.45 0.045 7.09 3.05 10.47
5/6/2022 6:30:00 AM 10.21 50.378 0.045 7.09 2.92 10.49
5/6/2022 6:45:00 AM 10.17 50.306 0.045 7.11 2.95 10.51
5/6/2022 7:00:00 AM 10.13 50.234 0.045 7.11 2.84 10.54
5/6/2022 7:15:00 AM 10.1 50.18 0.045 7.12 2.82 10.58
5/6/2022 7:30:00 AM 10.08 50.144 0.045 7.14 2.82 10.63
5/6/2022 7:45:00 AM 10.06 50.108 0.045 7.16 2.81 10.69
5/6/2022 8:00:00 AM 10.05 50.09 0.044 7.15 4.6 10.73
5/6/2022 8:15:00 AM 10.03 50.054 0.045 7.19 2.85 10.77
5/6/2022 8:30:00 AM 10.02 50.036 0.045 7.2 2.83 10.8
5/6/2022 8:45:00 AM 10 50 0.044 7.2 4.61 10.82
5/6/2022 9:00:00 AM 10 50 0.045 7.22 2.91 10.85
5/6/2022 9:15:00 AM 10 50 0.044 7.22 4.47 10.87
5/6/2022 9:30:00 AM 9.99 49.982 0.045 7.24 2.79 10.9
5/6/2022 9:45:00 AM 10 50 0.042 7.24 4.51 10.93
5/6/2022 10:00:00 AM 10.01 50.018 0.045 7.27 2.7 10.95
5/6/2022 10:15:00 AM 10.02 50.036 0.045 7.28 2.83 10.99
5/6/2022 10:30:00 AM 10.03 50.054 0.042 7.26 4.64 11.01
5/6/2022 10:45:00 AM 10.05 50.09 0.044 7.29 2.88 11.03
5/6/2022 11:00:00 AM 10.06 50.108 0.044 7.3 3.03 11.03
5/6/2022 11:15:00 AM 10.09 50.162 0.044 7.31 3.07 11.04
5/6/2022 11:30:00 AM 10.1 50.18 0.043 7.29 4.86 11.03
5/6/2022 11:45:00 AM 10.11 50.198 0.044 7.31 3.14 11.04
5/6/2022 12:00:00 PM 10.13 50.234 0.044 7.32 3.08 11.04
5/6/2022 12:15:00 PM 10.15 50.27 0.042 7.3 5.03 11.03
5/6/2022 12:30:00 PM 10.17 50.306 0.044 7.33 3.15 11.03
5/6/2022 12:45:00 PM 10.19 50.342 0.043 7.32 4.79 11.02
5/6/2022 1:00:00 PM 10.2 50.36 0.044 7.33 3.09 11.01
5/6/2022 1:15:00 PM 10.22 50.396 0.043 7.31 5.09 11
5/6/2022 1:30:00 PM 10.23 50.414 0.044 7.32 3.19 10.99
5/6/2022 1:45:00 PM 10.24 50.432 0.043 7.33 3.37 10.99
5/6/2022 2:00:00 PM 10.25 50.45 0.042 7.32 5.3 10.98
5/6/2022 2:15:00 PM 10.27 50.486 0.043 7.33 3.45 10.98
5/6/2022 2:30:00 PM 10.28 50.504 0.041 7.31 5.52 10.97
5/6/2022 2:45:00 PM 10.28 50.504 0.043 7.32 3.84 10.95
5/6/2022 3:00:00 PM 10.28 50.504 0.043 7.31 3.82 10.93
5/6/2022 3:15:00 PM 10.29 50.522 0.043 7.3 3.96 10.93
5/6/2022 3:30:00 PM 10.3 50.54 0.043 7.29 4.02 10.93
5/6/2022 3:45:00 PM 10.32 50.576 0.043 7.31 4.1 10.93
5/6/2022 4:00:00 PM 10.33 50.594 0.043 7.3 4.15 10.92
5/6/2022 4:15:00 PM 10.33 50.594 0.043 7.3 4.24 10.89
5/6/2022 4:30:00 PM 10.33 50.594 0.043 7.29 3.79 10.87
5/6/2022 4:45:00 PM 10.33 50.594 0.043 7.27 3.8 10.85
5/6/2022 5:00:00 PM 10.32 50.576 0.043 7.25 3.91 10.82
5/6/2022 5:15:00 PM 10.32 50.576 0.042 7.23 5.71 10.81
5/6/2022 5:30:00 PM 10.32 50.576 0.041 7.22 5.75 10.81
5/6/2022 5:45:00 PM 10.32 50.576 0.041 7.2 5.9 10.81
5/6/2022 6:00:00 PM 10.32 50.576 0.043 7.2 4.21 10.79
5/6/2022 6:15:00 PM 10.31 50.558 0.043 7.18 4.08 10.77
5/6/2022 6:30:00 PM 10.31 50.558 0.042 7.16 6.01 10.75
5/6/2022 6:45:00 PM 10.31 50.558 0.041 7.16 5.92 10.75
5/6/2022 7:00:00 PM 10.29 50.522 0.043 7.16 3.95 10.72
5/6/2022 7:15:00 PM 10.28 50.504 0.043 7.16 4.02 10.69
5/6/2022 7:30:00 PM 10.26 50.468 0.043 7.14 4.08 10.66
5/6/2022 7:45:00 PM 10.24 50.432 0.042 7.11 6.04 10.63
5/6/2022 8:00:00 PM 10.22 50.396 0.041 7.11 5.89 10.6
5/6/2022 8:15:00 PM 10.2 50.36 0.043 7.11 3.92 10.57
5/6/2022 8:30:00 PM 10.17 50.306 0.041 7.08 5.77 10.55
5/6/2022 8:45:00 PM 10.15 50.27 0.043 7.09 4.05 10.54
5/6/2022 9:00:00 PM 10.13 50.234 0.044 7.08 3.78 10.53
5/6/2022 9:15:00 PM 10.1 50.18 0.044 7.08 3.98 10.52
5/6/2022 9:30:00 PM 10.08 50.144 0.044 7.07 3.73 10.52
5/6/2022 9:45:00 PM 10.06 50.108 0.044 7.06 3.75 10.52
5/6/2022 10:00:00 PM 10.04 50.072 0.043 7.06 5.6 10.53
5/6/2022 10:15:00 PM 10.01 50.018 0.044 7.09 3.78 10.53
5/6/2022 10:30:00 PM 9.99 49.982 0.044 7.08 3.79 10.54
5/6/2022 10:45:00 PM 9.97 49.946 0.044 7.08 3.77 10.54
5/6/2022 11:00:00 PM 9.95 49.91 0.043 7.06 5.5 10.54
5/6/2022 11:15:00 PM 9.92 49.856 0.044 7.06 3.75 10.54
5/6/2022 11:30:00 PM 9.9 49.82 0.044 7.07 3.59 10.55
5/6/2022 11:45:00 PM 9.88 49.784 0.044 7.07 3.43 10.55
5/7/2022 12:00:00 AM 9.86 49.748 0.044 7.07 3.65 10.55
5/7/2022 12:15:00 AM 9.84 49.712 0.043 7.05 5.48 10.55
5/7/2022 12:30:00 AM 9.82 49.676 0.044 7.08 3.58 10.55
5/7/2022 12:45:00 AM 9.8 49.64 0.044 7.08 3.54 10.56
5/7/2022 1:00:00 AM 9.78 49.604 0.044 7.08 3.54 10.56
5/7/2022 1:15:00 AM 9.76 49.568 0.044 7.09 3.49 10.56
5/7/2022 1:30:00 AM 9.75 49.55 0.044 7.1 3.43 10.57
5/7/2022 1:45:00 AM 9.73 49.514 0.044 7.11 3.67 10.57
5/7/2022 2:00:00 AM 9.71 49.478 0.043 7.07 5.37 10.58
5/7/2022 2:15:00 AM 9.69 49.442 0.044 7.1 3.41 10.58
5/7/2022 2:30:00 AM 9.68 49.424 0.044 7.07 3.43 10.58
5/7/2022 2:45:00 AM 9.66 49.388 0.043 7.06 5.26 10.59
5/7/2022 3:00:00 AM 9.64 49.352 0.044 7.07 3.56 10.59
5/7/2022 3:15:00 AM 9.62 49.316 0.044 7.08 3.36 10.6
5/7/2022 3:30:00 AM 9.61 49.298 0.044 7.07 3.48 10.6
5/7/2022 3:45:00 AM 9.59 49.262 0.044 7.07 3.36 10.61
5/7/2022 4:00:00 AM 9.57 49.226 0.044 7.07 3.36 10.61
5/7/2022 4:15:00 AM 9.55 49.19 0.044 7.04 3.36 10.61
5/7/2022 4:30:00 AM 9.53 49.154 0.044 7.08 3.37 10.62
5/7/2022 4:45:00 AM 9.5 49.1 0.043 7.06 5.14 10.63
5/7/2022 5:00:00 AM 9.48 49.064 0.044 7.07 3.36 10.63
5/7/2022 5:15:00 AM 9.45 49.01 0.044 7.08 3.41 10.64
5/7/2022 5:30:00 AM 9.43 48.974 0.042 7.06 5.26 10.64
5/7/2022 5:45:00 AM 9.41 48.938 0.042 7.07 5.11 10.65
5/7/2022 6:00:00 AM 9.39 48.902 0.043 7.06 5.24 10.66
5/7/2022 6:15:00 AM 9.37 48.866 0.045 7.08 3.25 10.67
5/7/2022 6:30:00 AM 9.36 48.848 0.045 7.08 3.38 10.68
5/7/2022 6:45:00 AM 9.34 48.812 0.045 7.09 3.41 10.7
5/7/2022 7:00:00 AM 9.33 48.794 0.045 7.09 3.23 10.74
5/7/2022 7:15:00 AM 9.31 48.758 0.045 7.11 3.25 10.78
5/7/2022 7:30:00 AM 9.3 48.74 0.045 7.1 3.09 10.83
5/7/2022 7:45:00 AM 9.29 48.722 0.045 7.12 3.16 10.87
5/7/2022 8:00:00 AM 9.27 48.686 0.043 7.12 5.06 10.91
5/7/2022 8:15:00 AM 9.26 48.668 0.045 7.15 3.06 10.94
5/7/2022 8:30:00 AM 9.25 48.65 0.045 7.16 3.08 10.96
5/7/2022 8:45:00 AM 9.23 48.614 0.045 7.17 3.06 11
5/7/2022 9:00:00 AM 9.24 48.632 0.044 7.2 3.07 11.06
5/7/2022 9:15:00 AM 9.26 48.668 0.044 7.21 3.06 11.11
5/7/2022 9:30:00 AM 9.28 48.704 0.044 7.24 2.99 11.17
5/7/2022 9:45:00 AM 9.3 48.74 0.044 7.27 2.91 11.2
5/7/2022 10:00:00 AM 9.33 48.794 0.044 7.28 3 11.23
5/7/2022 10:15:00 AM 9.35 48.83 0.044 7.29 2.93 11.26
5/7/2022 10:30:00 AM 9.37 48.866 0.044